<?xml version="1.0" encoding="UTF-8" standalone="no" ?>
<gpx xmlns="http://www.topografix.com/GPX/1/1" xmlns:xsi="http://www.w3.org/2001/XMLSchema-instance" xsi:schemaLocation="http://www.topografix.com/GPX/1/1 http://www.topografix.com/GPX/1/1/gpx.xsd" version="1.1" creator="VisuGPX - https://www.visugpx.com">
  <metadata>
    <name>Villeneuve de Marc jour 1</name>
    <desc><![CDATA[Bouche du 1er jour]]></desc>
  </metadata>
  <trk>
    <name><![CDATA[Parcours 2012-05-26 14:32]]></name>
    <trkseg>
      <trkpt lat="45.4688" lon="5.09821">
        <ele>414.5</ele>
        <time>2012-05-26T12:32:28Z</time>
      </trkpt>
      <trkpt lat="45.46901" lon="5.09825">
        <ele>412.5</ele>
        <time>2012-05-26T12:32:45Z</time>
      </trkpt>
      <trkpt lat="45.4692" lon="5.09826">
        <ele>412.29998779297</ele>
        <time>2012-05-26T12:33:24Z</time>
      </trkpt>
      <trkpt lat="45.46929" lon="5.09846">
        <ele>412.20001220703</ele>
        <time>2012-05-26T12:34:56Z</time>
      </trkpt>
      <trkpt lat="45.46929" lon="5.09861">
        <ele>413.59997558594</ele>
        <time>2012-05-26T12:35:04Z</time>
      </trkpt>
      <trkpt lat="45.46931" lon="5.09887">
        <ele>417.20001220703</ele>
        <time>2012-05-26T12:35:27Z</time>
      </trkpt>
      <trkpt lat="45.46931" lon="5.09903">
        <ele>417.70001220703</ele>
        <time>2012-05-26T12:35:36Z</time>
      </trkpt>
      <trkpt lat="45.46931" lon="5.0993">
        <ele>417.29998779297</ele>
        <time>2012-05-26T12:35:50Z</time>
      </trkpt>
      <trkpt lat="45.4693" lon="5.09956">
        <ele>417</ele>
        <time>2012-05-26T12:36:05Z</time>
      </trkpt>
      <trkpt lat="45.46934" lon="5.09983">
        <ele>420.70001220703</ele>
        <time>2012-05-26T12:36:20Z</time>
      </trkpt>
      <trkpt lat="45.46939" lon="5.1001">
        <ele>421</ele>
        <time>2012-05-26T12:36:36Z</time>
      </trkpt>
      <trkpt lat="45.46945" lon="5.10037">
        <ele>422.5</ele>
        <time>2012-05-26T12:36:50Z</time>
      </trkpt>
      <trkpt lat="45.4695" lon="5.10064">
        <ele>426.20001220703</ele>
        <time>2012-05-26T12:37:04Z</time>
      </trkpt>
      <trkpt lat="45.46953" lon="5.10092">
        <ele>430.5</ele>
        <time>2012-05-26T12:37:19Z</time>
      </trkpt>
      <trkpt lat="45.46957" lon="5.10118">
        <ele>432.5</ele>
        <time>2012-05-26T12:37:45Z</time>
      </trkpt>
      <trkpt lat="45.46957" lon="5.10145">
        <ele>435</ele>
        <time>2012-05-26T12:38:00Z</time>
      </trkpt>
      <trkpt lat="45.46956" lon="5.10172">
        <ele>436.79998779297</ele>
        <time>2012-05-26T12:38:17Z</time>
      </trkpt>
      <trkpt lat="45.46953" lon="5.10198">
        <ele>437.09997558594</ele>
        <time>2012-05-26T12:38:31Z</time>
      </trkpt>
      <trkpt lat="45.46951" lon="5.10211">
        <ele>438.59997558594</ele>
        <time>2012-05-26T12:38:37Z</time>
      </trkpt>
      <trkpt lat="45.4695" lon="5.10224">
        <ele>439.5</ele>
        <time>2012-05-26T12:38:44Z</time>
      </trkpt>
      <trkpt lat="45.46946" lon="5.10252">
        <ele>441.79998779297</ele>
        <time>2012-05-26T12:38:59Z</time>
      </trkpt>
      <trkpt lat="45.46947" lon="5.10279">
        <ele>443.90002441406</ele>
        <time>2012-05-26T12:39:27Z</time>
      </trkpt>
      <trkpt lat="45.46955" lon="5.10303">
        <ele>446.90002441406</ele>
        <time>2012-05-26T12:41:00Z</time>
      </trkpt>
      <trkpt lat="45.46963" lon="5.10308">
        <ele>446.09997558594</ele>
        <time>2012-05-26T12:41:41Z</time>
      </trkpt>
      <trkpt lat="45.46972" lon="5.10314">
        <ele>446.09997558594</ele>
        <time>2012-05-26T12:41:48Z</time>
      </trkpt>
      <trkpt lat="45.4699" lon="5.10327">
        <ele>449.70001220703</ele>
        <time>2012-05-26T12:42:05Z</time>
      </trkpt>
      <trkpt lat="45.47009" lon="5.1033">
        <ele>451.70001220703</ele>
        <time>2012-05-26T12:42:19Z</time>
      </trkpt>
      <trkpt lat="45.47029" lon="5.10329">
        <ele>454.59997558594</ele>
        <time>2012-05-26T12:42:33Z</time>
      </trkpt>
      <trkpt lat="45.47039" lon="5.10328">
        <ele>455</ele>
        <time>2012-05-26T12:42:40Z</time>
      </trkpt>
      <trkpt lat="45.47058" lon="5.10327">
        <ele>457.29998779297</ele>
        <time>2012-05-26T12:42:54Z</time>
      </trkpt>
      <trkpt lat="45.47067" lon="5.10329">
        <ele>457.40002441406</ele>
        <time>2012-05-26T12:43:01Z</time>
      </trkpt>
      <trkpt lat="45.47085" lon="5.10339">
        <ele>455.5</ele>
        <time>2012-05-26T12:43:19Z</time>
      </trkpt>
      <trkpt lat="45.47095" lon="5.10344">
        <ele>454.40002441406</ele>
        <time>2012-05-26T12:43:26Z</time>
      </trkpt>
      <trkpt lat="45.47102" lon="5.10352">
        <ele>454.20001220703</ele>
        <time>2012-05-26T12:43:33Z</time>
      </trkpt>
      <trkpt lat="45.47107" lon="5.10363">
        <ele>453.40002441406</ele>
        <time>2012-05-26T12:43:40Z</time>
      </trkpt>
      <trkpt lat="45.47108" lon="5.10376">
        <ele>453.40002441406</ele>
        <time>2012-05-26T12:43:48Z</time>
      </trkpt>
      <trkpt lat="45.47105" lon="5.10389">
        <ele>452.59997558594</ele>
        <time>2012-05-26T12:43:55Z</time>
      </trkpt>
      <trkpt lat="45.47099" lon="5.10399">
        <ele>451.29998779297</ele>
        <time>2012-05-26T12:44:02Z</time>
      </trkpt>
      <trkpt lat="45.47082" lon="5.1041">
        <ele>449.29998779297</ele>
        <time>2012-05-26T12:44:12Z</time>
      </trkpt>
      <trkpt lat="45.47073" lon="5.10416">
        <ele>449.40002441406</ele>
        <time>2012-05-26T12:44:19Z</time>
      </trkpt>
      <trkpt lat="45.47064" lon="5.10422">
        <ele>449.40002441406</ele>
        <time>2012-05-26T12:44:26Z</time>
      </trkpt>
      <trkpt lat="45.47055" lon="5.10426">
        <ele>449.20001220703</ele>
        <time>2012-05-26T12:44:32Z</time>
      </trkpt>
      <trkpt lat="45.47046" lon="5.1043">
        <ele>450.09997558594</ele>
        <time>2012-05-26T12:44:40Z</time>
      </trkpt>
      <trkpt lat="45.47037" lon="5.10435">
        <ele>451.70001220703</ele>
        <time>2012-05-26T12:44:47Z</time>
      </trkpt>
      <trkpt lat="45.47027" lon="5.10438">
        <ele>451.70001220703</ele>
        <time>2012-05-26T12:44:54Z</time>
      </trkpt>
      <trkpt lat="45.47018" lon="5.10442">
        <ele>451</ele>
        <time>2012-05-26T12:45:01Z</time>
      </trkpt>
      <trkpt lat="45.47008" lon="5.10446">
        <ele>450.70001220703</ele>
        <time>2012-05-26T12:45:08Z</time>
      </trkpt>
      <trkpt lat="45.46999" lon="5.1045">
        <ele>450.40002441406</ele>
        <time>2012-05-26T12:45:15Z</time>
      </trkpt>
      <trkpt lat="45.4699" lon="5.10455">
        <ele>450.20001220703</ele>
        <time>2012-05-26T12:45:22Z</time>
      </trkpt>
      <trkpt lat="45.46981" lon="5.10462">
        <ele>450</ele>
        <time>2012-05-26T12:45:30Z</time>
      </trkpt>
      <trkpt lat="45.46972" lon="5.10467">
        <ele>450.59997558594</ele>
        <time>2012-05-26T12:45:37Z</time>
      </trkpt>
      <trkpt lat="45.46963" lon="5.10473">
        <ele>451.29998779297</ele>
        <time>2012-05-26T12:45:44Z</time>
      </trkpt>
      <trkpt lat="45.46954" lon="5.1048">
        <ele>452.29998779297</ele>
        <time>2012-05-26T12:45:51Z</time>
      </trkpt>
      <trkpt lat="45.46947" lon="5.10486">
        <ele>452.90002441406</ele>
        <time>2012-05-26T12:45:57Z</time>
      </trkpt>
      <trkpt lat="45.46938" lon="5.10494">
        <ele>453.40002441406</ele>
        <time>2012-05-26T12:46:04Z</time>
      </trkpt>
      <trkpt lat="45.46927" lon="5.10518">
        <ele>453.20001220703</ele>
        <time>2012-05-26T12:46:18Z</time>
      </trkpt>
      <trkpt lat="45.46923" lon="5.10544">
        <ele>449.59997558594</ele>
        <time>2012-05-26T12:46:57Z</time>
      </trkpt>
      <trkpt lat="45.46917" lon="5.1057">
        <ele>448.5</ele>
        <time>2012-05-26T12:47:11Z</time>
      </trkpt>
      <trkpt lat="45.46912" lon="5.10597">
        <ele>447.70001220703</ele>
        <time>2012-05-26T12:47:24Z</time>
      </trkpt>
      <trkpt lat="45.4691" lon="5.10611">
        <ele>448.20001220703</ele>
        <time>2012-05-26T12:47:31Z</time>
      </trkpt>
      <trkpt lat="45.46909" lon="5.10637">
        <ele>447.70001220703</ele>
        <time>2012-05-26T12:47:46Z</time>
      </trkpt>
      <trkpt lat="45.46909" lon="5.10663">
        <ele>447.79998779297</ele>
        <time>2012-05-26T12:47:58Z</time>
      </trkpt>
      <trkpt lat="45.46909" lon="5.10692">
        <ele>448</ele>
        <time>2012-05-26T12:48:12Z</time>
      </trkpt>
      <trkpt lat="45.46905" lon="5.10719">
        <ele>447.29998779297</ele>
        <time>2012-05-26T12:48:27Z</time>
      </trkpt>
      <trkpt lat="45.4689" lon="5.10754">
        <ele>444.79998779297</ele>
        <time>2012-05-26T12:48:48Z</time>
      </trkpt>
      <trkpt lat="45.4688" lon="5.10778">
        <ele>441.79998779297</ele>
        <time>2012-05-26T12:49:01Z</time>
      </trkpt>
      <trkpt lat="45.4687" lon="5.10803">
        <ele>441.5</ele>
        <time>2012-05-26T12:49:15Z</time>
      </trkpt>
      <trkpt lat="45.46853" lon="5.10839">
        <ele>439.90002441406</ele>
        <time>2012-05-26T12:49:36Z</time>
      </trkpt>
      <trkpt lat="45.46846" lon="5.10865">
        <ele>437.09997558594</ele>
        <time>2012-05-26T12:49:50Z</time>
      </trkpt>
      <trkpt lat="45.46836" lon="5.10887">
        <ele>435.90002441406</ele>
        <time>2012-05-26T12:50:02Z</time>
      </trkpt>
      <trkpt lat="45.46819" lon="5.10902">
        <ele>432</ele>
        <time>2012-05-26T12:50:13Z</time>
      </trkpt>
      <trkpt lat="45.46804" lon="5.10919">
        <ele>430</ele>
        <time>2012-05-26T12:50:27Z</time>
      </trkpt>
      <trkpt lat="45.46793" lon="5.1094">
        <ele>427.40002441406</ele>
        <time>2012-05-26T12:50:43Z</time>
      </trkpt>
      <trkpt lat="45.46785" lon="5.10966">
        <ele>426.5</ele>
        <time>2012-05-26T12:51:49Z</time>
      </trkpt>
      <trkpt lat="45.4678" lon="5.10992">
        <ele>426.29998779297</ele>
        <time>2012-05-26T12:51:56Z</time>
      </trkpt>
      <trkpt lat="45.4678" lon="5.1102">
        <ele>424.40002441406</ele>
        <time>2012-05-26T12:52:08Z</time>
      </trkpt>
      <trkpt lat="45.46781" lon="5.11034">
        <ele>424.59997558594</ele>
        <time>2012-05-26T12:52:15Z</time>
      </trkpt>
      <trkpt lat="45.46782" lon="5.11062">
        <ele>424.40002441406</ele>
        <time>2012-05-26T12:52:30Z</time>
      </trkpt>
      <trkpt lat="45.46784" lon="5.11076">
        <ele>424.70001220703</ele>
        <time>2012-05-26T12:52:36Z</time>
      </trkpt>
      <trkpt lat="45.46785" lon="5.1109">
        <ele>424.70001220703</ele>
        <time>2012-05-26T12:52:43Z</time>
      </trkpt>
      <trkpt lat="45.46789" lon="5.11118">
        <ele>424.79998779297</ele>
        <time>2012-05-26T12:52:56Z</time>
      </trkpt>
      <trkpt lat="45.46793" lon="5.11145">
        <ele>426.29998779297</ele>
        <time>2012-05-26T12:53:09Z</time>
      </trkpt>
      <trkpt lat="45.46795" lon="5.11171">
        <ele>428.29998779297</ele>
        <time>2012-05-26T12:53:21Z</time>
      </trkpt>
      <trkpt lat="45.46797" lon="5.11197">
        <ele>430.79998779297</ele>
        <time>2012-05-26T12:53:33Z</time>
      </trkpt>
      <trkpt lat="45.46795" lon="5.11226">
        <ele>432.79998779297</ele>
        <time>2012-05-26T12:53:46Z</time>
      </trkpt>
      <trkpt lat="45.46795" lon="5.11255">
        <ele>433.70001220703</ele>
        <time>2012-05-26T12:53:58Z</time>
      </trkpt>
      <trkpt lat="45.46795" lon="5.11269">
        <ele>435.40002441406</ele>
        <time>2012-05-26T12:54:04Z</time>
      </trkpt>
      <trkpt lat="45.46794" lon="5.11282">
        <ele>436.70001220703</ele>
        <time>2012-05-26T12:54:10Z</time>
      </trkpt>
      <trkpt lat="45.46792" lon="5.11295">
        <ele>436.5</ele>
        <time>2012-05-26T12:54:17Z</time>
      </trkpt>
      <trkpt lat="45.4679" lon="5.11322">
        <ele>436.29998779297</ele>
        <time>2012-05-26T12:54:28Z</time>
      </trkpt>
      <trkpt lat="45.46786" lon="5.11349">
        <ele>435.59997558594</ele>
        <time>2012-05-26T12:54:40Z</time>
      </trkpt>
      <trkpt lat="45.46779" lon="5.11376">
        <ele>433.70001220703</ele>
        <time>2012-05-26T12:54:53Z</time>
      </trkpt>
      <trkpt lat="45.4677" lon="5.11399">
        <ele>431.70001220703</ele>
        <time>2012-05-26T12:55:05Z</time>
      </trkpt>
      <trkpt lat="45.46761" lon="5.11424">
        <ele>431.59997558594</ele>
        <time>2012-05-26T12:55:20Z</time>
      </trkpt>
      <trkpt lat="45.46753" lon="5.1145">
        <ele>431.70001220703</ele>
        <time>2012-05-26T12:55:33Z</time>
      </trkpt>
      <trkpt lat="45.46749" lon="5.11462">
        <ele>433.09997558594</ele>
        <time>2012-05-26T12:55:39Z</time>
      </trkpt>
      <trkpt lat="45.46745" lon="5.11474">
        <ele>434.70001220703</ele>
        <time>2012-05-26T12:55:47Z</time>
      </trkpt>
      <trkpt lat="45.4674" lon="5.11485">
        <ele>434.40002441406</ele>
        <time>2012-05-26T12:55:59Z</time>
      </trkpt>
      <trkpt lat="45.46725" lon="5.11499">
        <ele>433.5</ele>
        <time>2012-05-26T12:56:27Z</time>
      </trkpt>
      <trkpt lat="45.46714" lon="5.11501">
        <ele>432.29998779297</ele>
        <time>2012-05-26T12:56:37Z</time>
      </trkpt>
      <trkpt lat="45.467" lon="5.11511">
        <ele>433</ele>
        <time>2012-05-26T12:58:10Z</time>
      </trkpt>
      <trkpt lat="45.46681" lon="5.11508">
        <ele>434.70001220703</ele>
        <time>2012-05-26T13:02:08Z</time>
      </trkpt>
      <trkpt lat="45.46663" lon="5.11513">
        <ele>435.59997558594</ele>
        <time>2012-05-26T13:02:38Z</time>
      </trkpt>
      <trkpt lat="45.46649" lon="5.11529">
        <ele>438.09997558594</ele>
        <time>2012-05-26T13:03:22Z</time>
      </trkpt>
      <trkpt lat="45.46634" lon="5.11545">
        <ele>437.59997558594</ele>
        <time>2012-05-26T13:03:39Z</time>
      </trkpt>
      <trkpt lat="45.46616" lon="5.11558">
        <ele>435.90002441406</ele>
        <time>2012-05-26T13:03:52Z</time>
      </trkpt>
      <trkpt lat="45.46599" lon="5.11575">
        <ele>436.40002441406</ele>
        <time>2012-05-26T13:04:00Z</time>
      </trkpt>
      <trkpt lat="45.46587" lon="5.11595">
        <ele>441.09997558594</ele>
        <time>2012-05-26T13:04:11Z</time>
      </trkpt>
      <trkpt lat="45.4658" lon="5.11621">
        <ele>444.5</ele>
        <time>2012-05-26T13:04:29Z</time>
      </trkpt>
      <trkpt lat="45.46568" lon="5.11642">
        <ele>444.70001220703</ele>
        <time>2012-05-26T13:04:42Z</time>
      </trkpt>
      <trkpt lat="45.46553" lon="5.11665">
        <ele>445</ele>
        <time>2012-05-26T13:04:56Z</time>
      </trkpt>
      <trkpt lat="45.46535" lon="5.1168">
        <ele>444.79998779297</ele>
        <time>2012-05-26T13:05:04Z</time>
      </trkpt>
      <trkpt lat="45.46519" lon="5.11695">
        <ele>448</ele>
        <time>2012-05-26T13:05:18Z</time>
      </trkpt>
      <trkpt lat="45.46502" lon="5.11708">
        <ele>449</ele>
        <time>2012-05-26T13:05:28Z</time>
      </trkpt>
      <trkpt lat="45.46483" lon="5.11723">
        <ele>447.09997558594</ele>
        <time>2012-05-26T13:05:33Z</time>
      </trkpt>
      <trkpt lat="45.46466" lon="5.11745">
        <ele>448</ele>
        <time>2012-05-26T13:05:38Z</time>
      </trkpt>
      <trkpt lat="45.46452" lon="5.11764">
        <ele>449.29998779297</ele>
        <time>2012-05-26T13:05:43Z</time>
      </trkpt>
      <trkpt lat="45.46424" lon="5.11781">
        <ele>447.79998779297</ele>
        <time>2012-05-26T13:05:53Z</time>
      </trkpt>
      <trkpt lat="45.46404" lon="5.11794">
        <ele>447.09997558594</ele>
        <time>2012-05-26T13:05:59Z</time>
      </trkpt>
      <trkpt lat="45.46386" lon="5.11805">
        <ele>446.29998779297</ele>
        <time>2012-05-26T13:06:05Z</time>
      </trkpt>
      <trkpt lat="45.46368" lon="5.11816">
        <ele>446.79998779297</ele>
        <time>2012-05-26T13:06:10Z</time>
      </trkpt>
      <trkpt lat="45.46348" lon="5.11826">
        <ele>448.09997558594</ele>
        <time>2012-05-26T13:06:16Z</time>
      </trkpt>
      <trkpt lat="45.46329" lon="5.11838">
        <ele>450.09997558594</ele>
        <time>2012-05-26T13:06:27Z</time>
      </trkpt>
      <trkpt lat="45.46313" lon="5.11855">
        <ele>452.40002441406</ele>
        <time>2012-05-26T13:06:42Z</time>
      </trkpt>
      <trkpt lat="45.46302" lon="5.11876">
        <ele>453.09997558594</ele>
        <time>2012-05-26T13:06:59Z</time>
      </trkpt>
      <trkpt lat="45.46284" lon="5.11907">
        <ele>455.09997558594</ele>
        <time>2012-05-26T13:07:19Z</time>
      </trkpt>
      <trkpt lat="45.46269" lon="5.11924">
        <ele>452.5</ele>
        <time>2012-05-26T13:07:35Z</time>
      </trkpt>
      <trkpt lat="45.46253" lon="5.11941">
        <ele>452.29998779297</ele>
        <time>2012-05-26T13:07:47Z</time>
      </trkpt>
      <trkpt lat="45.46237" lon="5.11957">
        <ele>452.29998779297</ele>
        <time>2012-05-26T13:08:01Z</time>
      </trkpt>
      <trkpt lat="45.46223" lon="5.11977">
        <ele>453.79998779297</ele>
        <time>2012-05-26T13:08:16Z</time>
      </trkpt>
      <trkpt lat="45.46207" lon="5.11994">
        <ele>454.90002441406</ele>
        <time>2012-05-26T13:08:27Z</time>
      </trkpt>
      <trkpt lat="45.46195" lon="5.12029">
        <ele>458</ele>
        <time>2012-05-26T13:08:54Z</time>
      </trkpt>
      <trkpt lat="45.46189" lon="5.12069">
        <ele>458.09997558594</ele>
        <time>2012-05-26T13:09:15Z</time>
      </trkpt>
      <trkpt lat="45.46183" lon="5.12095">
        <ele>457.40002441406</ele>
        <time>2012-05-26T13:09:28Z</time>
      </trkpt>
      <trkpt lat="45.46181" lon="5.12122">
        <ele>460.09997558594</ele>
        <time>2012-05-26T13:09:41Z</time>
      </trkpt>
      <trkpt lat="45.46182" lon="5.1215">
        <ele>461.70001220703</ele>
        <time>2012-05-26T13:09:56Z</time>
      </trkpt>
      <trkpt lat="45.46187" lon="5.12176">
        <ele>462.29998779297</ele>
        <time>2012-05-26T13:10:11Z</time>
      </trkpt>
      <trkpt lat="45.46194" lon="5.12215">
        <ele>461.40002441406</ele>
        <time>2012-05-26T13:10:31Z</time>
      </trkpt>
      <trkpt lat="45.46194" lon="5.12243">
        <ele>459.20001220703</ele>
        <time>2012-05-26T13:10:44Z</time>
      </trkpt>
      <trkpt lat="45.46187" lon="5.12269">
        <ele>458.70001220703</ele>
        <time>2012-05-26T13:10:54Z</time>
      </trkpt>
      <trkpt lat="45.46176" lon="5.12291">
        <ele>457.20001220703</ele>
        <time>2012-05-26T13:11:09Z</time>
      </trkpt>
      <trkpt lat="45.46166" lon="5.12314">
        <ele>456.20001220703</ele>
        <time>2012-05-26T13:11:23Z</time>
      </trkpt>
      <trkpt lat="45.46152" lon="5.12333">
        <ele>454.5</ele>
        <time>2012-05-26T13:11:33Z</time>
      </trkpt>
      <trkpt lat="45.46143" lon="5.12358">
        <ele>460</ele>
        <time>2012-05-26T13:11:48Z</time>
      </trkpt>
      <trkpt lat="45.46146" lon="5.12397">
        <ele>459.79998779297</ele>
        <time>2012-05-26T13:12:12Z</time>
      </trkpt>
      <trkpt lat="45.46138" lon="5.12438">
        <ele>460</ele>
        <time>2012-05-26T13:12:35Z</time>
      </trkpt>
      <trkpt lat="45.46129" lon="5.12461">
        <ele>458</ele>
        <time>2012-05-26T13:12:49Z</time>
      </trkpt>
      <trkpt lat="45.46113" lon="5.12495">
        <ele>460.40002441406</ele>
        <time>2012-05-26T13:13:12Z</time>
      </trkpt>
      <trkpt lat="45.46106" lon="5.12521">
        <ele>457.79998779297</ele>
        <time>2012-05-26T13:13:28Z</time>
      </trkpt>
      <trkpt lat="45.461" lon="5.12562">
        <ele>457.29998779297</ele>
        <time>2012-05-26T13:13:46Z</time>
      </trkpt>
      <trkpt lat="45.46101" lon="5.12603">
        <ele>458</ele>
        <time>2012-05-26T13:14:08Z</time>
      </trkpt>
      <trkpt lat="45.46098" lon="5.12629">
        <ele>457.59997558594</ele>
        <time>2012-05-26T13:14:21Z</time>
      </trkpt>
      <trkpt lat="45.46086" lon="5.12652">
        <ele>455.40002441406</ele>
        <time>2012-05-26T13:14:39Z</time>
      </trkpt>
      <trkpt lat="45.46075" lon="5.12673">
        <ele>454.79998779297</ele>
        <time>2012-05-26T13:14:53Z</time>
      </trkpt>
      <trkpt lat="45.4607" lon="5.12698">
        <ele>455</ele>
        <time>2012-05-26T13:15:06Z</time>
      </trkpt>
      <trkpt lat="45.46064" lon="5.12726">
        <ele>456</ele>
        <time>2012-05-26T13:15:21Z</time>
      </trkpt>
      <trkpt lat="45.46059" lon="5.12753">
        <ele>460.20001220703</ele>
        <time>2012-05-26T13:15:34Z</time>
      </trkpt>
      <trkpt lat="45.46057" lon="5.12781">
        <ele>462</ele>
        <time>2012-05-26T13:15:51Z</time>
      </trkpt>
      <trkpt lat="45.46054" lon="5.12822">
        <ele>463.20001220703</ele>
        <time>2012-05-26T13:16:17Z</time>
      </trkpt>
      <trkpt lat="45.46063" lon="5.1286">
        <ele>462.70001220703</ele>
        <time>2012-05-26T13:16:34Z</time>
      </trkpt>
      <trkpt lat="45.46077" lon="5.12903">
        <ele>462</ele>
        <time>2012-05-26T13:17:12Z</time>
      </trkpt>
      <trkpt lat="45.46102" lon="5.12918">
        <ele>459.59997558594</ele>
        <time>2012-05-26T13:17:31Z</time>
      </trkpt>
      <trkpt lat="45.46096" lon="5.12943">
        <ele>458</ele>
        <time>2012-05-26T13:17:54Z</time>
      </trkpt>
      <trkpt lat="45.46077" lon="5.12975">
        <ele>462.29998779297</ele>
        <time>2012-05-26T13:18:14Z</time>
      </trkpt>
      <trkpt lat="45.46065" lon="5.12999">
        <ele>463.79998779297</ele>
        <time>2012-05-26T13:18:24Z</time>
      </trkpt>
      <trkpt lat="45.46054" lon="5.13021">
        <ele>468.5</ele>
        <time>2012-05-26T13:18:38Z</time>
      </trkpt>
      <trkpt lat="45.46042" lon="5.13046">
        <ele>470.29998779297</ele>
        <time>2012-05-26T13:18:48Z</time>
      </trkpt>
      <trkpt lat="45.46029" lon="5.13077">
        <ele>471.20001220703</ele>
        <time>2012-05-26T13:18:54Z</time>
      </trkpt>
      <trkpt lat="45.46015" lon="5.13104">
        <ele>472.09997558594</ele>
        <time>2012-05-26T13:19:00Z</time>
      </trkpt>
      <trkpt lat="45.46001" lon="5.13121">
        <ele>474.70001220703</ele>
        <time>2012-05-26T13:19:11Z</time>
      </trkpt>
      <trkpt lat="45.45986" lon="5.13137">
        <ele>477.20001220703</ele>
        <time>2012-05-26T13:19:25Z</time>
      </trkpt>
      <trkpt lat="45.45958" lon="5.13147">
        <ele>479.20001220703</ele>
        <time>2012-05-26T13:20:01Z</time>
      </trkpt>
      <trkpt lat="45.45932" lon="5.13162">
        <ele>477.20001220703</ele>
        <time>2012-05-26T13:20:27Z</time>
      </trkpt>
      <trkpt lat="45.45916" lon="5.13197">
        <ele>474.70001220703</ele>
        <time>2012-05-26T13:20:49Z</time>
      </trkpt>
      <trkpt lat="45.45913" lon="5.1324">
        <ele>480.29998779297</ele>
        <time>2012-05-26T13:22:02Z</time>
      </trkpt>
      <trkpt lat="45.45926" lon="5.13236">
        <ele>479.40002441406</ele>
        <time>2012-05-26T13:23:29Z</time>
      </trkpt>
      <trkpt lat="45.45912" lon="5.13204">
        <ele>478.5</ele>
        <time>2012-05-26T13:24:42Z</time>
      </trkpt>
      <trkpt lat="45.45922" lon="5.13166">
        <ele>480.90002441406</ele>
        <time>2012-05-26T13:25:03Z</time>
      </trkpt>
      <trkpt lat="45.45935" lon="5.13143">
        <ele>482.90002441406</ele>
        <time>2012-05-26T13:25:36Z</time>
      </trkpt>
      <trkpt lat="45.45965" lon="5.13133">
        <ele>483.09997558594</ele>
        <time>2012-05-26T13:26:00Z</time>
      </trkpt>
      <trkpt lat="45.45992" lon="5.1312">
        <ele>482.79998779297</ele>
        <time>2012-05-26T13:26:20Z</time>
      </trkpt>
      <trkpt lat="45.46015" lon="5.13092">
        <ele>481.29998779297</ele>
        <time>2012-05-26T13:26:40Z</time>
      </trkpt>
      <trkpt lat="45.46033" lon="5.13058">
        <ele>482</ele>
        <time>2012-05-26T13:26:53Z</time>
      </trkpt>
      <trkpt lat="45.46047" lon="5.13032">
        <ele>479.79998779297</ele>
        <time>2012-05-26T13:27:29Z</time>
      </trkpt>
      <trkpt lat="45.46057" lon="5.13008">
        <ele>477.79998779297</ele>
        <time>2012-05-26T13:27:44Z</time>
      </trkpt>
      <trkpt lat="45.46067" lon="5.12985">
        <ele>476.09997558594</ele>
        <time>2012-05-26T13:27:57Z</time>
      </trkpt>
      <trkpt lat="45.46077" lon="5.12963">
        <ele>476.20001220703</ele>
        <time>2012-05-26T13:28:11Z</time>
      </trkpt>
      <trkpt lat="45.46099" lon="5.12937">
        <ele>472</ele>
        <time>2012-05-26T13:28:41Z</time>
      </trkpt>
      <trkpt lat="45.46117" lon="5.12924">
        <ele>455.40002441406</ele>
        <time>2012-05-26T13:31:09Z</time>
      </trkpt>
      <trkpt lat="45.46138" lon="5.1292">
        <ele>456.90002441406</ele>
        <time>2012-05-26T13:31:21Z</time>
      </trkpt>
      <trkpt lat="45.46157" lon="5.12926">
        <ele>457.90002441406</ele>
        <time>2012-05-26T13:31:34Z</time>
      </trkpt>
      <trkpt lat="45.46172" lon="5.12942">
        <ele>457.5</ele>
        <time>2012-05-26T13:31:47Z</time>
      </trkpt>
      <trkpt lat="45.46188" lon="5.12959">
        <ele>455.20001220703</ele>
        <time>2012-05-26T13:32:01Z</time>
      </trkpt>
      <trkpt lat="45.46216" lon="5.12967">
        <ele>457</ele>
        <time>2012-05-26T13:32:20Z</time>
      </trkpt>
      <trkpt lat="45.46234" lon="5.12958">
        <ele>458.70001220703</ele>
        <time>2012-05-26T13:33:35Z</time>
      </trkpt>
      <trkpt lat="45.4625" lon="5.12944">
        <ele>460</ele>
        <time>2012-05-26T13:33:50Z</time>
      </trkpt>
      <trkpt lat="45.46268" lon="5.12932">
        <ele>462.20001220703</ele>
        <time>2012-05-26T13:34:04Z</time>
      </trkpt>
      <trkpt lat="45.46283" lon="5.12916">
        <ele>464.40002441406</ele>
        <time>2012-05-26T13:34:18Z</time>
      </trkpt>
      <trkpt lat="45.46299" lon="5.12898">
        <ele>466.09997558594</ele>
        <time>2012-05-26T13:34:31Z</time>
      </trkpt>
      <trkpt lat="45.46313" lon="5.12877">
        <ele>466</ele>
        <time>2012-05-26T13:34:45Z</time>
      </trkpt>
      <trkpt lat="45.4633" lon="5.12888">
        <ele>470.40002441406</ele>
        <time>2012-05-26T13:35:00Z</time>
      </trkpt>
      <trkpt lat="45.46326" lon="5.12913">
        <ele>473.09997558594</ele>
        <time>2012-05-26T13:35:16Z</time>
      </trkpt>
      <trkpt lat="45.46314" lon="5.12934">
        <ele>475.29998779297</ele>
        <time>2012-05-26T13:35:29Z</time>
      </trkpt>
      <trkpt lat="45.46301" lon="5.12954">
        <ele>477.20001220703</ele>
        <time>2012-05-26T13:35:42Z</time>
      </trkpt>
      <trkpt lat="45.463" lon="5.12981">
        <ele>478</ele>
        <time>2012-05-26T13:35:54Z</time>
      </trkpt>
      <trkpt lat="45.4632" lon="5.12979">
        <ele>477.79998779297</ele>
        <time>2012-05-26T13:36:11Z</time>
      </trkpt>
      <trkpt lat="45.46339" lon="5.12985">
        <ele>477.90002441406</ele>
        <time>2012-05-26T13:36:23Z</time>
      </trkpt>
      <trkpt lat="45.4635" lon="5.12988">
        <ele>480.20001220703</ele>
        <time>2012-05-26T13:36:29Z</time>
      </trkpt>
      <trkpt lat="45.4636" lon="5.12989">
        <ele>482.29998779297</ele>
        <time>2012-05-26T13:36:48Z</time>
      </trkpt>
      <trkpt lat="45.46377" lon="5.12998">
        <ele>485</ele>
        <time>2012-05-26T13:37:02Z</time>
      </trkpt>
      <trkpt lat="45.46385" lon="5.13006">
        <ele>487</ele>
        <time>2012-05-26T13:37:10Z</time>
      </trkpt>
      <trkpt lat="45.46399" lon="5.13024">
        <ele>490.20001220703</ele>
        <time>2012-05-26T13:37:32Z</time>
      </trkpt>
      <trkpt lat="45.46415" lon="5.13041">
        <ele>493.79998779297</ele>
        <time>2012-05-26T13:37:46Z</time>
      </trkpt>
      <trkpt lat="45.46431" lon="5.13056">
        <ele>496.90002441406</ele>
        <time>2012-05-26T13:37:58Z</time>
      </trkpt>
      <trkpt lat="45.46446" lon="5.13073">
        <ele>499.09997558594</ele>
        <time>2012-05-26T13:38:13Z</time>
      </trkpt>
      <trkpt lat="45.46464" lon="5.13085">
        <ele>504.5</ele>
        <time>2012-05-26T13:38:28Z</time>
      </trkpt>
      <trkpt lat="45.46483" lon="5.13096">
        <ele>507.20001220703</ele>
        <time>2012-05-26T13:38:36Z</time>
      </trkpt>
      <trkpt lat="45.46503" lon="5.13106">
        <ele>508.79998779297</ele>
        <time>2012-05-26T13:38:42Z</time>
      </trkpt>
      <trkpt lat="45.46527" lon="5.13117">
        <ele>510.59997558594</ele>
        <time>2012-05-26T13:38:48Z</time>
      </trkpt>
      <trkpt lat="45.46548" lon="5.13128">
        <ele>512.09997558594</ele>
        <time>2012-05-26T13:38:53Z</time>
      </trkpt>
      <trkpt lat="45.46566" lon="5.13136">
        <ele>513.09997558594</ele>
        <time>2012-05-26T13:38:57Z</time>
      </trkpt>
      <trkpt lat="45.46584" lon="5.13146">
        <ele>514.5</ele>
        <time>2012-05-26T13:39:01Z</time>
      </trkpt>
      <trkpt lat="45.46602" lon="5.13155">
        <ele>516.09997558594</ele>
        <time>2012-05-26T13:39:05Z</time>
      </trkpt>
      <trkpt lat="45.46623" lon="5.13165">
        <ele>519.40002441406</ele>
        <time>2012-05-26T13:39:10Z</time>
      </trkpt>
      <trkpt lat="45.46644" lon="5.13172">
        <ele>522.90002441406</ele>
        <time>2012-05-26T13:39:17Z</time>
      </trkpt>
      <trkpt lat="45.46663" lon="5.13177">
        <ele>525.30004882812</ele>
        <time>2012-05-26T13:39:30Z</time>
      </trkpt>
      <trkpt lat="45.46682" lon="5.13184">
        <ele>527.09997558594</ele>
        <time>2012-05-26T13:39:52Z</time>
      </trkpt>
      <trkpt lat="45.4669" lon="5.13189">
        <ele>527.09997558594</ele>
        <time>2012-05-26T13:40:34Z</time>
      </trkpt>
      <trkpt lat="45.46691" lon="5.13252">
        <ele>528.69995117188</ele>
        <time>2012-05-26T13:40:53Z</time>
      </trkpt>
      <trkpt lat="45.46686" lon="5.13295">
        <ele>530.80004882812</ele>
        <time>2012-05-26T13:41:12Z</time>
      </trkpt>
      <trkpt lat="45.46686" lon="5.13321">
        <ele>531.19995117188</ele>
        <time>2012-05-26T13:41:25Z</time>
      </trkpt>
      <trkpt lat="45.46684" lon="5.13362">
        <ele>530.09997558594</ele>
        <time>2012-05-26T13:41:46Z</time>
      </trkpt>
      <trkpt lat="45.46683" lon="5.13401">
        <ele>530.09997558594</ele>
        <time>2012-05-26T13:42:05Z</time>
      </trkpt>
      <trkpt lat="45.46682" lon="5.13428">
        <ele>530.80004882812</ele>
        <time>2012-05-26T13:42:19Z</time>
      </trkpt>
      <trkpt lat="45.4668" lon="5.13456">
        <ele>533.5</ele>
        <time>2012-05-26T13:42:46Z</time>
      </trkpt>
      <trkpt lat="45.46677" lon="5.13483">
        <ele>533.19995117188</ele>
        <time>2012-05-26T13:43:06Z</time>
      </trkpt>
      <trkpt lat="45.46676" lon="5.1351">
        <ele>532.09997558594</ele>
        <time>2012-05-26T13:43:17Z</time>
      </trkpt>
      <trkpt lat="45.46672" lon="5.13538">
        <ele>534</ele>
        <time>2012-05-26T13:43:31Z</time>
      </trkpt>
      <trkpt lat="45.46663" lon="5.13563">
        <ele>534.5</ele>
        <time>2012-05-26T13:43:43Z</time>
      </trkpt>
      <trkpt lat="45.46657" lon="5.13588">
        <ele>534.90002441406</ele>
        <time>2012-05-26T13:43:55Z</time>
      </trkpt>
      <trkpt lat="45.46654" lon="5.13615">
        <ele>536.5</ele>
        <time>2012-05-26T13:44:09Z</time>
      </trkpt>
      <trkpt lat="45.46654" lon="5.13628">
        <ele>536.30004882812</ele>
        <time>2012-05-26T13:44:21Z</time>
      </trkpt>
      <trkpt lat="45.46654" lon="5.13642">
        <ele>536.5</ele>
        <time>2012-05-26T13:44:28Z</time>
      </trkpt>
      <trkpt lat="45.46657" lon="5.13669">
        <ele>538.59997558594</ele>
        <time>2012-05-26T13:44:45Z</time>
      </trkpt>
      <trkpt lat="45.46657" lon="5.13697">
        <ele>538.69995117188</ele>
        <time>2012-05-26T13:44:56Z</time>
      </trkpt>
      <trkpt lat="45.46655" lon="5.13711">
        <ele>538.69995117188</ele>
        <time>2012-05-26T13:45:02Z</time>
      </trkpt>
      <trkpt lat="45.46647" lon="5.13737">
        <ele>538.30004882812</ele>
        <time>2012-05-26T13:45:17Z</time>
      </trkpt>
      <trkpt lat="45.4664" lon="5.13762">
        <ele>537.90002441406</ele>
        <time>2012-05-26T13:45:32Z</time>
      </trkpt>
      <trkpt lat="45.46631" lon="5.13786">
        <ele>537.59997558594</ele>
        <time>2012-05-26T13:45:47Z</time>
      </trkpt>
      <trkpt lat="45.46623" lon="5.1381">
        <ele>535.5</ele>
        <time>2012-05-26T13:46:02Z</time>
      </trkpt>
      <trkpt lat="45.4662" lon="5.13821">
        <ele>534.69995117188</ele>
        <time>2012-05-26T13:46:09Z</time>
      </trkpt>
      <trkpt lat="45.46617" lon="5.13835">
        <ele>533.30004882812</ele>
        <time>2012-05-26T13:46:17Z</time>
      </trkpt>
      <trkpt lat="45.46614" lon="5.13848">
        <ele>532.19995117188</ele>
        <time>2012-05-26T13:46:24Z</time>
      </trkpt>
      <trkpt lat="45.46612" lon="5.13861">
        <ele>531.40002441406</ele>
        <time>2012-05-26T13:46:34Z</time>
      </trkpt>
      <trkpt lat="45.46608" lon="5.13875">
        <ele>530.90002441406</ele>
        <time>2012-05-26T13:46:42Z</time>
      </trkpt>
      <trkpt lat="45.46609" lon="5.13888">
        <ele>530.5</ele>
        <time>2012-05-26T13:46:50Z</time>
      </trkpt>
      <trkpt lat="45.46612" lon="5.13901">
        <ele>529.80004882812</ele>
        <time>2012-05-26T13:46:57Z</time>
      </trkpt>
      <trkpt lat="45.46615" lon="5.13915">
        <ele>529.30004882812</ele>
        <time>2012-05-26T13:47:06Z</time>
      </trkpt>
      <trkpt lat="45.46618" lon="5.13929">
        <ele>528.40002441406</ele>
        <time>2012-05-26T13:47:13Z</time>
      </trkpt>
      <trkpt lat="45.46621" lon="5.13942">
        <ele>527.5</ele>
        <time>2012-05-26T13:47:20Z</time>
      </trkpt>
      <trkpt lat="45.46628" lon="5.13966">
        <ele>524.5</ele>
        <time>2012-05-26T13:47:34Z</time>
      </trkpt>
      <trkpt lat="45.46638" lon="5.13988">
        <ele>524.5</ele>
        <time>2012-05-26T13:47:46Z</time>
      </trkpt>
      <trkpt lat="45.46644" lon="5.14">
        <ele>524.80004882812</ele>
        <time>2012-05-26T13:47:52Z</time>
      </trkpt>
      <trkpt lat="45.46649" lon="5.14012">
        <ele>524.90002441406</ele>
        <time>2012-05-26T13:47:58Z</time>
      </trkpt>
      <trkpt lat="45.46654" lon="5.14024">
        <ele>524.69995117188</ele>
        <time>2012-05-26T13:48:05Z</time>
      </trkpt>
      <trkpt lat="45.46659" lon="5.14036">
        <ele>524.40002441406</ele>
        <time>2012-05-26T13:48:12Z</time>
      </trkpt>
      <trkpt lat="45.46667" lon="5.14062">
        <ele>524.19995117188</ele>
        <time>2012-05-26T13:48:26Z</time>
      </trkpt>
      <trkpt lat="45.46668" lon="5.14076">
        <ele>523.40002441406</ele>
        <time>2012-05-26T13:48:32Z</time>
      </trkpt>
      <trkpt lat="45.46668" lon="5.1409">
        <ele>523.09997558594</ele>
        <time>2012-05-26T13:48:39Z</time>
      </trkpt>
      <trkpt lat="45.46667" lon="5.14104">
        <ele>522.59997558594</ele>
        <time>2012-05-26T13:48:46Z</time>
      </trkpt>
      <trkpt lat="45.46667" lon="5.14132">
        <ele>521.70001220703</ele>
        <time>2012-05-26T13:49:00Z</time>
      </trkpt>
      <trkpt lat="45.46667" lon="5.14159">
        <ele>524.5</ele>
        <time>2012-05-26T13:49:10Z</time>
      </trkpt>
      <trkpt lat="45.46666" lon="5.14173">
        <ele>524.5</ele>
        <time>2012-05-26T13:49:16Z</time>
      </trkpt>
      <trkpt lat="45.46665" lon="5.14186">
        <ele>524.69995117188</ele>
        <time>2012-05-26T13:49:22Z</time>
      </trkpt>
      <trkpt lat="45.46665" lon="5.14201">
        <ele>524.80004882812</ele>
        <time>2012-05-26T13:49:29Z</time>
      </trkpt>
      <trkpt lat="45.46666" lon="5.14216">
        <ele>524.40002441406</ele>
        <time>2012-05-26T13:49:36Z</time>
      </trkpt>
      <trkpt lat="45.46666" lon="5.14229">
        <ele>523.90002441406</ele>
        <time>2012-05-26T13:49:42Z</time>
      </trkpt>
      <trkpt lat="45.46666" lon="5.14243">
        <ele>524.59997558594</ele>
        <time>2012-05-26T13:49:49Z</time>
      </trkpt>
      <trkpt lat="45.46668" lon="5.14257">
        <ele>524.30004882812</ele>
        <time>2012-05-26T13:49:56Z</time>
      </trkpt>
      <trkpt lat="45.46668" lon="5.1427">
        <ele>524.69995117188</ele>
        <time>2012-05-26T13:50:03Z</time>
      </trkpt>
      <trkpt lat="45.46668" lon="5.14284">
        <ele>524.30004882812</ele>
        <time>2012-05-26T13:50:10Z</time>
      </trkpt>
      <trkpt lat="45.46667" lon="5.14298">
        <ele>523.90002441406</ele>
        <time>2012-05-26T13:50:18Z</time>
      </trkpt>
      <trkpt lat="45.46665" lon="5.14311">
        <ele>523.79998779297</ele>
        <time>2012-05-26T13:50:25Z</time>
      </trkpt>
      <trkpt lat="45.46664" lon="5.14325">
        <ele>524.5</ele>
        <time>2012-05-26T13:50:33Z</time>
      </trkpt>
      <trkpt lat="45.46659" lon="5.14354">
        <ele>525.30004882812</ele>
        <time>2012-05-26T13:50:49Z</time>
      </trkpt>
      <trkpt lat="45.4665" lon="5.14393">
        <ele>524.90002441406</ele>
        <time>2012-05-26T13:51:09Z</time>
      </trkpt>
      <trkpt lat="45.46641" lon="5.14433">
        <ele>523.09997558594</ele>
        <time>2012-05-26T13:51:30Z</time>
      </trkpt>
      <trkpt lat="45.46635" lon="5.14461">
        <ele>522.70001220703</ele>
        <time>2012-05-26T13:51:43Z</time>
      </trkpt>
      <trkpt lat="45.46628" lon="5.14486">
        <ele>521</ele>
        <time>2012-05-26T13:51:56Z</time>
      </trkpt>
      <trkpt lat="45.4662" lon="5.14512">
        <ele>518.59997558594</ele>
        <time>2012-05-26T13:52:10Z</time>
      </trkpt>
      <trkpt lat="45.46612" lon="5.14537">
        <ele>518.09997558594</ele>
        <time>2012-05-26T13:52:23Z</time>
      </trkpt>
      <trkpt lat="45.46609" lon="5.14566">
        <ele>519.40002441406</ele>
        <time>2012-05-26T13:52:35Z</time>
      </trkpt>
      <trkpt lat="45.4661" lon="5.14579">
        <ele>519.40002441406</ele>
        <time>2012-05-26T13:52:42Z</time>
      </trkpt>
      <trkpt lat="45.46612" lon="5.14592">
        <ele>518.5</ele>
        <time>2012-05-26T13:52:49Z</time>
      </trkpt>
      <trkpt lat="45.46614" lon="5.14606">
        <ele>517.79998779297</ele>
        <time>2012-05-26T13:52:55Z</time>
      </trkpt>
      <trkpt lat="45.46615" lon="5.14634">
        <ele>518.29998779297</ele>
        <time>2012-05-26T13:53:12Z</time>
      </trkpt>
      <trkpt lat="45.46624" lon="5.14658">
        <ele>516.40002441406</ele>
        <time>2012-05-26T13:53:29Z</time>
      </trkpt>
      <trkpt lat="45.46637" lon="5.1468">
        <ele>515.5</ele>
        <time>2012-05-26T13:53:44Z</time>
      </trkpt>
      <trkpt lat="45.46642" lon="5.1469">
        <ele>514.5</ele>
        <time>2012-05-26T13:53:52Z</time>
      </trkpt>
      <trkpt lat="45.46645" lon="5.14703">
        <ele>513.09997558594</ele>
        <time>2012-05-26T13:54:01Z</time>
      </trkpt>
      <trkpt lat="45.46656" lon="5.14727">
        <ele>512.09997558594</ele>
        <time>2012-05-26T13:54:17Z</time>
      </trkpt>
      <trkpt lat="45.46669" lon="5.14747">
        <ele>510.09997558594</ele>
        <time>2012-05-26T13:54:31Z</time>
      </trkpt>
      <trkpt lat="45.46675" lon="5.14759">
        <ele>509.40002441406</ele>
        <time>2012-05-26T13:54:38Z</time>
      </trkpt>
      <trkpt lat="45.46678" lon="5.14772">
        <ele>508.79998779297</ele>
        <time>2012-05-26T13:54:45Z</time>
      </trkpt>
      <trkpt lat="45.46676" lon="5.14785">
        <ele>508.5</ele>
        <time>2012-05-26T13:54:51Z</time>
      </trkpt>
      <trkpt lat="45.46674" lon="5.14799">
        <ele>508.09997558594</ele>
        <time>2012-05-26T13:54:58Z</time>
      </trkpt>
      <trkpt lat="45.46672" lon="5.14813">
        <ele>508.20001220703</ele>
        <time>2012-05-26T13:55:05Z</time>
      </trkpt>
      <trkpt lat="45.46668" lon="5.14827">
        <ele>508.09997558594</ele>
        <time>2012-05-26T13:55:12Z</time>
      </trkpt>
      <trkpt lat="45.46664" lon="5.14838">
        <ele>509.29998779297</ele>
        <time>2012-05-26T13:55:20Z</time>
      </trkpt>
      <trkpt lat="45.46658" lon="5.1485">
        <ele>509.90002441406</ele>
        <time>2012-05-26T13:55:28Z</time>
      </trkpt>
      <trkpt lat="45.46652" lon="5.14862">
        <ele>510.29998779297</ele>
        <time>2012-05-26T13:55:35Z</time>
      </trkpt>
      <trkpt lat="45.46637" lon="5.14882">
        <ele>511.59997558594</ele>
        <time>2012-05-26T13:55:41Z</time>
      </trkpt>
      <trkpt lat="45.46622" lon="5.14904">
        <ele>512</ele>
        <time>2012-05-26T13:55:45Z</time>
      </trkpt>
      <trkpt lat="45.46614" lon="5.14914">
        <ele>512.79998779297</ele>
        <time>2012-05-26T13:55:47Z</time>
      </trkpt>
      <trkpt lat="45.46607" lon="5.14923">
        <ele>513.20001220703</ele>
        <time>2012-05-26T13:55:49Z</time>
      </trkpt>
      <trkpt lat="45.46595" lon="5.14944">
        <ele>514.79998779297</ele>
        <time>2012-05-26T13:56:02Z</time>
      </trkpt>
      <trkpt lat="45.46589" lon="5.14956">
        <ele>514.90002441406</ele>
        <time>2012-05-26T13:56:09Z</time>
      </trkpt>
      <trkpt lat="45.46584" lon="5.14967">
        <ele>514.79998779297</ele>
        <time>2012-05-26T13:56:15Z</time>
      </trkpt>
      <trkpt lat="45.4658" lon="5.1498">
        <ele>514.79998779297</ele>
        <time>2012-05-26T13:56:24Z</time>
      </trkpt>
      <trkpt lat="45.46575" lon="5.14993">
        <ele>514.90002441406</ele>
        <time>2012-05-26T13:56:31Z</time>
      </trkpt>
      <trkpt lat="45.4657" lon="5.15005">
        <ele>514.59997558594</ele>
        <time>2012-05-26T13:56:38Z</time>
      </trkpt>
      <trkpt lat="45.46565" lon="5.15016">
        <ele>514.09997558594</ele>
        <time>2012-05-26T13:56:45Z</time>
      </trkpt>
      <trkpt lat="45.46559" lon="5.15028">
        <ele>514.5</ele>
        <time>2012-05-26T13:56:51Z</time>
      </trkpt>
      <trkpt lat="45.46554" lon="5.15039">
        <ele>515.59997558594</ele>
        <time>2012-05-26T13:56:57Z</time>
      </trkpt>
      <trkpt lat="45.46548" lon="5.15048">
        <ele>516.09997558594</ele>
        <time>2012-05-26T13:57:04Z</time>
      </trkpt>
      <trkpt lat="45.46538" lon="5.15049">
        <ele>515</ele>
        <time>2012-05-26T13:57:12Z</time>
      </trkpt>
      <trkpt lat="45.46526" lon="5.15067">
        <ele>515.20001220703</ele>
        <time>2012-05-26T13:57:28Z</time>
      </trkpt>
      <trkpt lat="45.46522" lon="5.15079">
        <ele>516.59997558594</ele>
        <time>2012-05-26T13:57:34Z</time>
      </trkpt>
      <trkpt lat="45.46518" lon="5.15091">
        <ele>518.90002441406</ele>
        <time>2012-05-26T13:57:40Z</time>
      </trkpt>
      <trkpt lat="45.46515" lon="5.15105">
        <ele>519.40002441406</ele>
        <time>2012-05-26T13:57:46Z</time>
      </trkpt>
      <trkpt lat="45.46511" lon="5.15117">
        <ele>519.5</ele>
        <time>2012-05-26T13:57:53Z</time>
      </trkpt>
      <trkpt lat="45.46508" lon="5.1513">
        <ele>520.29998779297</ele>
        <time>2012-05-26T13:58:06Z</time>
      </trkpt>
      <trkpt lat="45.46507" lon="5.15143">
        <ele>520.29998779297</ele>
        <time>2012-05-26T13:58:13Z</time>
      </trkpt>
      <trkpt lat="45.46505" lon="5.15156">
        <ele>520.29998779297</ele>
        <time>2012-05-26T13:58:20Z</time>
      </trkpt>
      <trkpt lat="45.46502" lon="5.1517">
        <ele>519.59997558594</ele>
        <time>2012-05-26T13:58:27Z</time>
      </trkpt>
      <trkpt lat="45.465" lon="5.15183">
        <ele>519.70001220703</ele>
        <time>2012-05-26T13:58:34Z</time>
      </trkpt>
      <trkpt lat="45.46497" lon="5.15196">
        <ele>519.40002441406</ele>
        <time>2012-05-26T13:58:52Z</time>
      </trkpt>
      <trkpt lat="45.46492" lon="5.15209">
        <ele>519.79998779297</ele>
        <time>2012-05-26T13:58:59Z</time>
      </trkpt>
      <trkpt lat="45.46487" lon="5.15221">
        <ele>520.20001220703</ele>
        <time>2012-05-26T13:59:06Z</time>
      </trkpt>
      <trkpt lat="45.46481" lon="5.15232">
        <ele>521.20001220703</ele>
        <time>2012-05-26T13:59:13Z</time>
      </trkpt>
      <trkpt lat="45.46475" lon="5.15244">
        <ele>521.59997558594</ele>
        <time>2012-05-26T13:59:20Z</time>
      </trkpt>
      <trkpt lat="45.46469" lon="5.15254">
        <ele>521.40002441406</ele>
        <time>2012-05-26T13:59:26Z</time>
      </trkpt>
      <trkpt lat="45.46463" lon="5.15265">
        <ele>521.5</ele>
        <time>2012-05-26T13:59:36Z</time>
      </trkpt>
      <trkpt lat="45.46463" lon="5.15278">
        <ele>521</ele>
        <time>2012-05-26T14:00:29Z</time>
      </trkpt>
      <trkpt lat="45.46459" lon="5.1529">
        <ele>519.29998779297</ele>
        <time>2012-05-26T14:00:37Z</time>
      </trkpt>
      <trkpt lat="45.46456" lon="5.15303">
        <ele>519</ele>
        <time>2012-05-26T14:00:45Z</time>
      </trkpt>
      <trkpt lat="45.46452" lon="5.15315">
        <ele>519.40002441406</ele>
        <time>2012-05-26T14:00:52Z</time>
      </trkpt>
      <trkpt lat="45.46449" lon="5.15328">
        <ele>519.79998779297</ele>
        <time>2012-05-26T14:01:00Z</time>
      </trkpt>
      <trkpt lat="45.46445" lon="5.1534">
        <ele>520.29998779297</ele>
        <time>2012-05-26T14:01:20Z</time>
      </trkpt>
      <trkpt lat="45.46441" lon="5.15353">
        <ele>520.5</ele>
        <time>2012-05-26T14:01:28Z</time>
      </trkpt>
      <trkpt lat="45.46437" lon="5.15366">
        <ele>520.29998779297</ele>
        <time>2012-05-26T14:01:36Z</time>
      </trkpt>
      <trkpt lat="45.46434" lon="5.15378">
        <ele>519.90002441406</ele>
        <time>2012-05-26T14:01:43Z</time>
      </trkpt>
      <trkpt lat="45.46431" lon="5.15391">
        <ele>519.40002441406</ele>
        <time>2012-05-26T14:01:51Z</time>
      </trkpt>
      <trkpt lat="45.46429" lon="5.15404">
        <ele>518.5</ele>
        <time>2012-05-26T14:01:58Z</time>
      </trkpt>
      <trkpt lat="45.46427" lon="5.15418">
        <ele>518.29998779297</ele>
        <time>2012-05-26T14:02:06Z</time>
      </trkpt>
      <trkpt lat="45.46424" lon="5.15431">
        <ele>518.29998779297</ele>
        <time>2012-05-26T14:02:13Z</time>
      </trkpt>
      <trkpt lat="45.46421" lon="5.15445">
        <ele>517.90002441406</ele>
        <time>2012-05-26T14:02:23Z</time>
      </trkpt>
      <trkpt lat="45.46417" lon="5.15457">
        <ele>517.90002441406</ele>
        <time>2012-05-26T14:02:29Z</time>
      </trkpt>
      <trkpt lat="45.46413" lon="5.1547">
        <ele>517.79998779297</ele>
        <time>2012-05-26T14:02:36Z</time>
      </trkpt>
      <trkpt lat="45.46409" lon="5.15484">
        <ele>517.79998779297</ele>
        <time>2012-05-26T14:02:43Z</time>
      </trkpt>
      <trkpt lat="45.46405" lon="5.15497">
        <ele>517.79998779297</ele>
        <time>2012-05-26T14:02:50Z</time>
      </trkpt>
      <trkpt lat="45.46401" lon="5.1551">
        <ele>517.59997558594</ele>
        <time>2012-05-26T14:02:57Z</time>
      </trkpt>
      <trkpt lat="45.46396" lon="5.15523">
        <ele>517.40002441406</ele>
        <time>2012-05-26T14:03:04Z</time>
      </trkpt>
      <trkpt lat="45.46392" lon="5.15536">
        <ele>517.29998779297</ele>
        <time>2012-05-26T14:03:11Z</time>
      </trkpt>
      <trkpt lat="45.46387" lon="5.15549">
        <ele>517.59997558594</ele>
        <time>2012-05-26T14:03:18Z</time>
      </trkpt>
      <trkpt lat="45.4638" lon="5.15556">
        <ele>516.90002441406</ele>
        <time>2012-05-26T14:03:35Z</time>
      </trkpt>
      <trkpt lat="45.46377" lon="5.15571">
        <ele>515.29998779297</ele>
        <time>2012-05-26T14:03:46Z</time>
      </trkpt>
      <trkpt lat="45.46372" lon="5.15583">
        <ele>515.20001220703</ele>
        <time>2012-05-26T14:03:53Z</time>
      </trkpt>
      <trkpt lat="45.46366" lon="5.15595">
        <ele>515.29998779297</ele>
        <time>2012-05-26T14:04:00Z</time>
      </trkpt>
      <trkpt lat="45.46363" lon="5.15607">
        <ele>515.09997558594</ele>
        <time>2012-05-26T14:04:07Z</time>
      </trkpt>
      <trkpt lat="45.4636" lon="5.15619">
        <ele>515.40002441406</ele>
        <time>2012-05-26T14:04:13Z</time>
      </trkpt>
      <trkpt lat="45.46355" lon="5.15631">
        <ele>515.29998779297</ele>
        <time>2012-05-26T14:04:21Z</time>
      </trkpt>
      <trkpt lat="45.46352" lon="5.15643">
        <ele>516.20001220703</ele>
        <time>2012-05-26T14:04:28Z</time>
      </trkpt>
      <trkpt lat="45.46344" lon="5.15668">
        <ele>516.20001220703</ele>
        <time>2012-05-26T14:04:43Z</time>
      </trkpt>
      <trkpt lat="45.46328" lon="5.15689">
        <ele>516.29998779297</ele>
        <time>2012-05-26T14:04:50Z</time>
      </trkpt>
      <trkpt lat="45.46315" lon="5.15715">
        <ele>516.59997558594</ele>
        <time>2012-05-26T14:04:56Z</time>
      </trkpt>
      <trkpt lat="45.46305" lon="5.15743">
        <ele>517.09997558594</ele>
        <time>2012-05-26T14:05:02Z</time>
      </trkpt>
      <trkpt lat="45.46293" lon="5.15772">
        <ele>516.40002441406</ele>
        <time>2012-05-26T14:05:08Z</time>
      </trkpt>
      <trkpt lat="45.46288" lon="5.15787">
        <ele>515.5</ele>
        <time>2012-05-26T14:05:11Z</time>
      </trkpt>
      <trkpt lat="45.46283" lon="5.158">
        <ele>514.70001220703</ele>
        <time>2012-05-26T14:05:14Z</time>
      </trkpt>
      <trkpt lat="45.46276" lon="5.15826">
        <ele>513.90002441406</ele>
        <time>2012-05-26T14:05:20Z</time>
      </trkpt>
      <trkpt lat="45.46272" lon="5.15839">
        <ele>514.40002441406</ele>
        <time>2012-05-26T14:05:23Z</time>
      </trkpt>
      <trkpt lat="45.46268" lon="5.1585">
        <ele>514.70001220703</ele>
        <time>2012-05-26T14:05:26Z</time>
      </trkpt>
      <trkpt lat="45.46259" lon="5.15856">
        <ele>514.90002441406</ele>
        <time>2012-05-26T14:05:30Z</time>
      </trkpt>
      <trkpt lat="45.4625" lon="5.15852">
        <ele>515.59997558594</ele>
        <time>2012-05-26T14:05:37Z</time>
      </trkpt>
      <trkpt lat="45.46243" lon="5.15873">
        <ele>514.40002441406</ele>
        <time>2012-05-26T14:05:58Z</time>
      </trkpt>
      <trkpt lat="45.46245" lon="5.159">
        <ele>512.09997558594</ele>
        <time>2012-05-26T14:06:19Z</time>
      </trkpt>
      <trkpt lat="45.46243" lon="5.15929">
        <ele>515.20001220703</ele>
        <time>2012-05-26T14:06:31Z</time>
      </trkpt>
      <trkpt lat="45.46247" lon="5.15941">
        <ele>515.5</ele>
        <time>2012-05-26T14:06:34Z</time>
      </trkpt>
      <trkpt lat="45.46249" lon="5.15953">
        <ele>515.40002441406</ele>
        <time>2012-05-26T14:06:37Z</time>
      </trkpt>
      <trkpt lat="45.4625" lon="5.15967">
        <ele>515.5</ele>
        <time>2012-05-26T14:06:43Z</time>
      </trkpt>
      <trkpt lat="45.46252" lon="5.1598">
        <ele>515.09997558594</ele>
        <time>2012-05-26T14:06:50Z</time>
      </trkpt>
      <trkpt lat="45.46255" lon="5.15992">
        <ele>514.20001220703</ele>
        <time>2012-05-26T14:06:58Z</time>
      </trkpt>
      <trkpt lat="45.46258" lon="5.16005">
        <ele>513.29998779297</ele>
        <time>2012-05-26T14:07:06Z</time>
      </trkpt>
      <trkpt lat="45.46262" lon="5.16017">
        <ele>512.90002441406</ele>
        <time>2012-05-26T14:07:14Z</time>
      </trkpt>
      <trkpt lat="45.46267" lon="5.16028">
        <ele>512.59997558594</ele>
        <time>2012-05-26T14:07:20Z</time>
      </trkpt>
      <trkpt lat="45.46273" lon="5.16039">
        <ele>511.79998779297</ele>
        <time>2012-05-26T14:07:27Z</time>
      </trkpt>
      <trkpt lat="45.46278" lon="5.16051">
        <ele>511.20001220703</ele>
        <time>2012-05-26T14:07:34Z</time>
      </trkpt>
      <trkpt lat="45.46282" lon="5.16063">
        <ele>511.70001220703</ele>
        <time>2012-05-26T14:07:43Z</time>
      </trkpt>
      <trkpt lat="45.46287" lon="5.1609">
        <ele>512.09997558594</ele>
        <time>2012-05-26T14:07:57Z</time>
      </trkpt>
      <trkpt lat="45.46295" lon="5.16115">
        <ele>511.59997558594</ele>
        <time>2012-05-26T14:08:14Z</time>
      </trkpt>
      <trkpt lat="45.46302" lon="5.16126">
        <ele>511.5</ele>
        <time>2012-05-26T14:09:02Z</time>
      </trkpt>
      <trkpt lat="45.46321" lon="5.16136">
        <ele>515.70001220703</ele>
        <time>2012-05-26T14:09:26Z</time>
      </trkpt>
      <trkpt lat="45.46334" lon="5.16156">
        <ele>514.5</ele>
        <time>2012-05-26T14:09:41Z</time>
      </trkpt>
      <trkpt lat="45.46345" lon="5.16178">
        <ele>514.59997558594</ele>
        <time>2012-05-26T14:09:57Z</time>
      </trkpt>
      <trkpt lat="45.46343" lon="5.16205">
        <ele>515.70001220703</ele>
        <time>2012-05-26T14:10:13Z</time>
      </trkpt>
      <trkpt lat="45.46337" lon="5.16232">
        <ele>514.79998779297</ele>
        <time>2012-05-26T14:10:21Z</time>
      </trkpt>
      <trkpt lat="45.46339" lon="5.16259">
        <ele>512.90002441406</ele>
        <time>2012-05-26T14:10:27Z</time>
      </trkpt>
      <trkpt lat="45.46345" lon="5.16284">
        <ele>511.5</ele>
        <time>2012-05-26T14:10:33Z</time>
      </trkpt>
      <trkpt lat="45.46344" lon="5.16314">
        <ele>519.79998779297</ele>
        <time>2012-05-26T14:10:40Z</time>
      </trkpt>
      <trkpt lat="45.46354" lon="5.16337">
        <ele>516.90002441406</ele>
        <time>2012-05-26T14:10:52Z</time>
      </trkpt>
      <trkpt lat="45.46363" lon="5.16375">
        <ele>517.29998779297</ele>
        <time>2012-05-26T14:11:15Z</time>
      </trkpt>
      <trkpt lat="45.46378" lon="5.16411">
        <ele>514.70001220703</ele>
        <time>2012-05-26T14:11:33Z</time>
      </trkpt>
      <trkpt lat="45.46389" lon="5.16433">
        <ele>517.09997558594</ele>
        <time>2012-05-26T14:11:51Z</time>
      </trkpt>
      <trkpt lat="45.46396" lon="5.16459">
        <ele>518.29998779297</ele>
        <time>2012-05-26T14:12:05Z</time>
      </trkpt>
      <trkpt lat="45.46399" lon="5.16486">
        <ele>522.40002441406</ele>
        <time>2012-05-26T14:12:20Z</time>
      </trkpt>
      <trkpt lat="45.46406" lon="5.16511">
        <ele>522.79998779297</ele>
        <time>2012-05-26T14:12:32Z</time>
      </trkpt>
      <trkpt lat="45.46416" lon="5.16533">
        <ele>525.19995117188</ele>
        <time>2012-05-26T14:12:45Z</time>
      </trkpt>
      <trkpt lat="45.46432" lon="5.16547">
        <ele>528.40002441406</ele>
        <time>2012-05-26T14:13:00Z</time>
      </trkpt>
      <trkpt lat="45.46453" lon="5.16574">
        <ele>531.69995117188</ele>
        <time>2012-05-26T14:13:19Z</time>
      </trkpt>
      <trkpt lat="45.46479" lon="5.16586">
        <ele>533.80004882812</ele>
        <time>2012-05-26T14:13:42Z</time>
      </trkpt>
      <trkpt lat="45.46498" lon="5.1659">
        <ele>535.30004882812</ele>
        <time>2012-05-26T14:13:51Z</time>
      </trkpt>
      <trkpt lat="45.46521" lon="5.16589">
        <ele>537.19995117188</ele>
        <time>2012-05-26T14:13:59Z</time>
      </trkpt>
      <trkpt lat="45.46553" lon="5.16586">
        <ele>538</ele>
        <time>2012-05-26T14:14:09Z</time>
      </trkpt>
      <trkpt lat="45.46582" lon="5.16582">
        <ele>540</ele>
        <time>2012-05-26T14:14:21Z</time>
      </trkpt>
      <trkpt lat="45.46614" lon="5.16591">
        <ele>543.69995117188</ele>
        <time>2012-05-26T14:14:30Z</time>
      </trkpt>
      <trkpt lat="45.46647" lon="5.16604">
        <ele>543.19995117188</ele>
        <time>2012-05-26T14:14:38Z</time>
      </trkpt>
      <trkpt lat="45.46683" lon="5.1662">
        <ele>540</ele>
        <time>2012-05-26T14:14:44Z</time>
      </trkpt>
      <trkpt lat="45.46716" lon="5.16636">
        <ele>540.90002441406</ele>
        <time>2012-05-26T14:14:50Z</time>
      </trkpt>
      <trkpt lat="45.46731" lon="5.1667">
        <ele>548.5</ele>
        <time>2012-05-26T14:15:11Z</time>
      </trkpt>
      <trkpt lat="45.46753" lon="5.16695">
        <ele>555.69995117188</ele>
        <time>2012-05-26T14:15:38Z</time>
      </trkpt>
      <trkpt lat="45.46769" lon="5.16708">
        <ele>559.59997558594</ele>
        <time>2012-05-26T14:15:53Z</time>
      </trkpt>
      <trkpt lat="45.46788" lon="5.16739">
        <ele>562.5</ele>
        <time>2012-05-26T14:16:10Z</time>
      </trkpt>
      <trkpt lat="45.46809" lon="5.16771">
        <ele>562.30004882812</ele>
        <time>2012-05-26T14:16:19Z</time>
      </trkpt>
      <trkpt lat="45.46839" lon="5.1679">
        <ele>563</ele>
        <time>2012-05-26T14:16:29Z</time>
      </trkpt>
      <trkpt lat="45.46867" lon="5.16806">
        <ele>566.40002441406</ele>
        <time>2012-05-26T14:16:44Z</time>
      </trkpt>
      <trkpt lat="45.46891" lon="5.1683">
        <ele>568.19995117188</ele>
        <time>2012-05-26T14:17:04Z</time>
      </trkpt>
      <trkpt lat="45.46916" lon="5.16852">
        <ele>564.59997558594</ele>
        <time>2012-05-26T14:17:22Z</time>
      </trkpt>
      <trkpt lat="45.46943" lon="5.16867">
        <ele>561.69995117188</ele>
        <time>2012-05-26T14:17:39Z</time>
      </trkpt>
      <trkpt lat="45.46962" lon="5.16874">
        <ele>561.30004882812</ele>
        <time>2012-05-26T14:17:53Z</time>
      </trkpt>
      <trkpt lat="45.46981" lon="5.16878">
        <ele>560.09997558594</ele>
        <time>2012-05-26T14:18:07Z</time>
      </trkpt>
      <trkpt lat="45.47001" lon="5.16883">
        <ele>558.69995117188</ele>
        <time>2012-05-26T14:18:22Z</time>
      </trkpt>
      <trkpt lat="45.47019" lon="5.16881">
        <ele>558</ele>
        <time>2012-05-26T14:18:39Z</time>
      </trkpt>
      <trkpt lat="45.47037" lon="5.16877">
        <ele>556.59997558594</ele>
        <time>2012-05-26T14:18:56Z</time>
      </trkpt>
      <trkpt lat="45.47054" lon="5.16891">
        <ele>553.90002441406</ele>
        <time>2012-05-26T14:19:09Z</time>
      </trkpt>
      <trkpt lat="45.47074" lon="5.16898">
        <ele>553.40002441406</ele>
        <time>2012-05-26T14:19:17Z</time>
      </trkpt>
      <trkpt lat="45.47092" lon="5.16893">
        <ele>552.80004882812</ele>
        <time>2012-05-26T14:19:22Z</time>
      </trkpt>
      <trkpt lat="45.47112" lon="5.16892">
        <ele>554</ele>
        <time>2012-05-26T14:19:33Z</time>
      </trkpt>
      <trkpt lat="45.47132" lon="5.16896">
        <ele>557.19995117188</ele>
        <time>2012-05-26T14:19:48Z</time>
      </trkpt>
      <trkpt lat="45.4715" lon="5.169">
        <ele>557.5</ele>
        <time>2012-05-26T14:20:01Z</time>
      </trkpt>
      <trkpt lat="45.4716" lon="5.169">
        <ele>558.19995117188</ele>
        <time>2012-05-26T14:20:08Z</time>
      </trkpt>
      <trkpt lat="45.47179" lon="5.16906">
        <ele>559.09997558594</ele>
        <time>2012-05-26T14:20:28Z</time>
      </trkpt>
      <trkpt lat="45.472" lon="5.1691">
        <ele>560.5</ele>
        <time>2012-05-26T14:20:44Z</time>
      </trkpt>
      <trkpt lat="45.47227" lon="5.16903">
        <ele>559.5</ele>
        <time>2012-05-26T14:21:01Z</time>
      </trkpt>
      <trkpt lat="45.47246" lon="5.169">
        <ele>558.80004882812</ele>
        <time>2012-05-26T14:21:16Z</time>
      </trkpt>
      <trkpt lat="45.47275" lon="5.16889">
        <ele>557.90002441406</ele>
        <time>2012-05-26T14:21:39Z</time>
      </trkpt>
      <trkpt lat="45.47305" lon="5.16887">
        <ele>555.5</ele>
        <time>2012-05-26T14:22:00Z</time>
      </trkpt>
      <trkpt lat="45.47333" lon="5.16892">
        <ele>548.80004882812</ele>
        <time>2012-05-26T14:22:24Z</time>
      </trkpt>
      <trkpt lat="45.47357" lon="5.16908">
        <ele>545.09997558594</ele>
        <time>2012-05-26T14:22:46Z</time>
      </trkpt>
      <trkpt lat="45.47365" lon="5.16936">
        <ele>537.90002441406</ele>
        <time>2012-05-26T14:22:57Z</time>
      </trkpt>
      <trkpt lat="45.4736" lon="5.16963">
        <ele>537.5</ele>
        <time>2012-05-26T14:23:09Z</time>
      </trkpt>
      <trkpt lat="45.47365" lon="5.16975">
        <ele>541.19995117188</ele>
        <time>2012-05-26T14:23:57Z</time>
      </trkpt>
      <trkpt lat="45.47406" lon="5.17004">
        <ele>534.69995117188</ele>
        <time>2012-05-26T14:24:25Z</time>
      </trkpt>
      <trkpt lat="45.47433" lon="5.17009">
        <ele>533.09997558594</ele>
        <time>2012-05-26T14:24:40Z</time>
      </trkpt>
      <trkpt lat="45.47451" lon="5.16997">
        <ele>531.69995117188</ele>
        <time>2012-05-26T14:24:54Z</time>
      </trkpt>
      <trkpt lat="45.4746" lon="5.17015">
        <ele>530.19995117188</ele>
        <time>2012-05-26T14:25:17Z</time>
      </trkpt>
      <trkpt lat="45.47449" lon="5.17042">
        <ele>530.40002441406</ele>
        <time>2012-05-26T14:25:29Z</time>
      </trkpt>
      <trkpt lat="45.47445" lon="5.17069">
        <ele>531.90002441406</ele>
        <time>2012-05-26T14:25:42Z</time>
      </trkpt>
      <trkpt lat="45.4745" lon="5.17095">
        <ele>534</ele>
        <time>2012-05-26T14:25:55Z</time>
      </trkpt>
      <trkpt lat="45.47457" lon="5.17121">
        <ele>534.90002441406</ele>
        <time>2012-05-26T14:26:08Z</time>
      </trkpt>
      <trkpt lat="45.47464" lon="5.17147">
        <ele>537.69995117188</ele>
        <time>2012-05-26T14:26:22Z</time>
      </trkpt>
      <trkpt lat="45.47469" lon="5.17174">
        <ele>541</ele>
        <time>2012-05-26T14:26:36Z</time>
      </trkpt>
      <trkpt lat="45.47475" lon="5.17199">
        <ele>542.69995117188</ele>
        <time>2012-05-26T14:26:49Z</time>
      </trkpt>
      <trkpt lat="45.47481" lon="5.17225">
        <ele>544</ele>
        <time>2012-05-26T14:27:03Z</time>
      </trkpt>
      <trkpt lat="45.47484" lon="5.17251">
        <ele>545.30004882812</ele>
        <time>2012-05-26T14:27:17Z</time>
      </trkpt>
      <trkpt lat="45.47493" lon="5.17276">
        <ele>548.09997558594</ele>
        <time>2012-05-26T14:27:32Z</time>
      </trkpt>
      <trkpt lat="45.47502" lon="5.173">
        <ele>547.40002441406</ele>
        <time>2012-05-26T14:27:46Z</time>
      </trkpt>
      <trkpt lat="45.47515" lon="5.17321">
        <ele>548.90002441406</ele>
        <time>2012-05-26T14:28:07Z</time>
      </trkpt>
      <trkpt lat="45.47521" lon="5.17346">
        <ele>548.5</ele>
        <time>2012-05-26T14:28:32Z</time>
      </trkpt>
      <trkpt lat="45.47524" lon="5.17359">
        <ele>547.80004882812</ele>
        <time>2012-05-26T14:28:38Z</time>
      </trkpt>
      <trkpt lat="45.47526" lon="5.17373">
        <ele>548</ele>
        <time>2012-05-26T14:28:43Z</time>
      </trkpt>
      <trkpt lat="45.47529" lon="5.17387">
        <ele>547.40002441406</ele>
        <time>2012-05-26T14:28:46Z</time>
      </trkpt>
      <trkpt lat="45.47532" lon="5.174">
        <ele>547.40002441406</ele>
        <time>2012-05-26T14:28:52Z</time>
      </trkpt>
      <trkpt lat="45.47536" lon="5.17413">
        <ele>547.30004882812</ele>
        <time>2012-05-26T14:29:00Z</time>
      </trkpt>
      <trkpt lat="45.4754" lon="5.17426">
        <ele>547.09997558594</ele>
        <time>2012-05-26T14:29:07Z</time>
      </trkpt>
      <trkpt lat="45.47543" lon="5.17439">
        <ele>546.69995117188</ele>
        <time>2012-05-26T14:29:13Z</time>
      </trkpt>
      <trkpt lat="45.47547" lon="5.17467">
        <ele>548.90002441406</ele>
        <time>2012-05-26T14:29:26Z</time>
      </trkpt>
      <trkpt lat="45.47551" lon="5.17493">
        <ele>552.80004882812</ele>
        <time>2012-05-26T14:29:41Z</time>
      </trkpt>
      <trkpt lat="45.47559" lon="5.17516">
        <ele>554.80004882812</ele>
        <time>2012-05-26T14:29:54Z</time>
      </trkpt>
      <trkpt lat="45.47569" lon="5.1754">
        <ele>556.80004882812</ele>
        <time>2012-05-26T14:30:09Z</time>
      </trkpt>
      <trkpt lat="45.47574" lon="5.17566">
        <ele>559</ele>
        <time>2012-05-26T14:30:26Z</time>
      </trkpt>
      <trkpt lat="45.47564" lon="5.1759">
        <ele>560.09997558594</ele>
        <time>2012-05-26T14:30:37Z</time>
      </trkpt>
      <trkpt lat="45.47552" lon="5.17611">
        <ele>561.09997558594</ele>
        <time>2012-05-26T14:30:50Z</time>
      </trkpt>
      <trkpt lat="45.47547" lon="5.17637">
        <ele>561.69995117188</ele>
        <time>2012-05-26T14:31:03Z</time>
      </trkpt>
      <trkpt lat="45.47542" lon="5.17667">
        <ele>560.09997558594</ele>
        <time>2012-05-26T14:31:11Z</time>
      </trkpt>
      <trkpt lat="45.47538" lon="5.17694">
        <ele>559.5</ele>
        <time>2012-05-26T14:31:15Z</time>
      </trkpt>
      <trkpt lat="45.47537" lon="5.17754">
        <ele>560.90002441406</ele>
        <time>2012-05-26T14:31:21Z</time>
      </trkpt>
      <trkpt lat="45.47534" lon="5.17801">
        <ele>562.5</ele>
        <time>2012-05-26T14:31:24Z</time>
      </trkpt>
      <trkpt lat="45.4753" lon="5.17834">
        <ele>563.09997558594</ele>
        <time>2012-05-26T14:31:27Z</time>
      </trkpt>
      <trkpt lat="45.47515" lon="5.17862">
        <ele>564.09997558594</ele>
        <time>2012-05-26T14:31:31Z</time>
      </trkpt>
      <trkpt lat="45.47504" lon="5.17885">
        <ele>564.59997558594</ele>
        <time>2012-05-26T14:31:35Z</time>
      </trkpt>
      <trkpt lat="45.47494" lon="5.1791">
        <ele>567.40002441406</ele>
        <time>2012-05-26T14:31:49Z</time>
      </trkpt>
      <trkpt lat="45.47487" lon="5.17934">
        <ele>568.40002441406</ele>
        <time>2012-05-26T14:32:11Z</time>
      </trkpt>
      <trkpt lat="45.47485" lon="5.17962">
        <ele>570.5</ele>
        <time>2012-05-26T14:32:27Z</time>
      </trkpt>
      <trkpt lat="45.47493" lon="5.17987">
        <ele>566.30004882812</ele>
        <time>2012-05-26T14:32:42Z</time>
      </trkpt>
      <trkpt lat="45.47501" lon="5.1801">
        <ele>563.59997558594</ele>
        <time>2012-05-26T14:32:54Z</time>
      </trkpt>
      <trkpt lat="45.47508" lon="5.18036">
        <ele>564.40002441406</ele>
        <time>2012-05-26T14:33:06Z</time>
      </trkpt>
      <trkpt lat="45.47507" lon="5.18064">
        <ele>567.09997558594</ele>
        <time>2012-05-26T14:33:15Z</time>
      </trkpt>
      <trkpt lat="45.47513" lon="5.18087">
        <ele>570.80004882812</ele>
        <time>2012-05-26T14:37:37Z</time>
      </trkpt>
      <trkpt lat="45.47495" lon="5.18088">
        <ele>568.19995117188</ele>
        <time>2012-05-26T14:38:22Z</time>
      </trkpt>
      <trkpt lat="45.47476" lon="5.18079">
        <ele>570.40002441406</ele>
        <time>2012-05-26T14:38:36Z</time>
      </trkpt>
      <trkpt lat="45.4746" lon="5.18064">
        <ele>571.69995117188</ele>
        <time>2012-05-26T14:38:54Z</time>
      </trkpt>
      <trkpt lat="45.47442" lon="5.18052">
        <ele>572.30004882812</ele>
        <time>2012-05-26T14:39:06Z</time>
      </trkpt>
      <trkpt lat="45.47422" lon="5.18048">
        <ele>571</ele>
        <time>2012-05-26T14:39:19Z</time>
      </trkpt>
      <trkpt lat="45.47404" lon="5.18048">
        <ele>562</ele>
        <time>2012-05-26T14:39:35Z</time>
      </trkpt>
      <trkpt lat="45.47387" lon="5.18062">
        <ele>561</ele>
        <time>2012-05-26T14:39:48Z</time>
      </trkpt>
      <trkpt lat="45.47372" lon="5.1808">
        <ele>560</ele>
        <time>2012-05-26T14:40:01Z</time>
      </trkpt>
      <trkpt lat="45.47361" lon="5.18102">
        <ele>561.40002441406</ele>
        <time>2012-05-26T14:40:17Z</time>
      </trkpt>
      <trkpt lat="45.47352" lon="5.18127">
        <ele>564.90002441406</ele>
        <time>2012-05-26T14:40:32Z</time>
      </trkpt>
      <trkpt lat="45.47347" lon="5.18139">
        <ele>566.09997558594</ele>
        <time>2012-05-26T14:40:39Z</time>
      </trkpt>
      <trkpt lat="45.47341" lon="5.18151">
        <ele>568.19995117188</ele>
        <time>2012-05-26T14:40:46Z</time>
      </trkpt>
      <trkpt lat="45.47333" lon="5.18176">
        <ele>570</ele>
        <time>2012-05-26T14:41:03Z</time>
      </trkpt>
      <trkpt lat="45.4733" lon="5.18189">
        <ele>570.09997558594</ele>
        <time>2012-05-26T14:41:10Z</time>
      </trkpt>
      <trkpt lat="45.47327" lon="5.18202">
        <ele>570.5</ele>
        <time>2012-05-26T14:41:17Z</time>
      </trkpt>
      <trkpt lat="45.47327" lon="5.18215">
        <ele>571.40002441406</ele>
        <time>2012-05-26T14:41:24Z</time>
      </trkpt>
      <trkpt lat="45.47326" lon="5.18229">
        <ele>572.19995117188</ele>
        <time>2012-05-26T14:41:30Z</time>
      </trkpt>
      <trkpt lat="45.4732" lon="5.18256">
        <ele>572.59997558594</ele>
        <time>2012-05-26T14:41:48Z</time>
      </trkpt>
      <trkpt lat="45.47315" lon="5.18267">
        <ele>572.5</ele>
        <time>2012-05-26T14:41:55Z</time>
      </trkpt>
      <trkpt lat="45.47312" lon="5.1828">
        <ele>572.69995117188</ele>
        <time>2012-05-26T14:42:01Z</time>
      </trkpt>
      <trkpt lat="45.4731" lon="5.18293">
        <ele>573.59997558594</ele>
        <time>2012-05-26T14:42:07Z</time>
      </trkpt>
      <trkpt lat="45.4731" lon="5.18307">
        <ele>573.40002441406</ele>
        <time>2012-05-26T14:42:14Z</time>
      </trkpt>
      <trkpt lat="45.4731" lon="5.1832">
        <ele>573.80004882812</ele>
        <time>2012-05-26T14:42:20Z</time>
      </trkpt>
      <trkpt lat="45.47311" lon="5.18334">
        <ele>573.19995117188</ele>
        <time>2012-05-26T14:42:26Z</time>
      </trkpt>
      <trkpt lat="45.47315" lon="5.18348">
        <ele>574</ele>
        <time>2012-05-26T14:42:33Z</time>
      </trkpt>
      <trkpt lat="45.47322" lon="5.18372">
        <ele>574.19995117188</ele>
        <time>2012-05-26T14:42:46Z</time>
      </trkpt>
      <trkpt lat="45.47325" lon="5.18386">
        <ele>574.19995117188</ele>
        <time>2012-05-26T14:42:53Z</time>
      </trkpt>
      <trkpt lat="45.47325" lon="5.18419">
        <ele>572.5</ele>
        <time>2012-05-26T14:43:01Z</time>
      </trkpt>
      <trkpt lat="45.47325" lon="5.18432">
        <ele>571.90002441406</ele>
        <time>2012-05-26T14:43:03Z</time>
      </trkpt>
      <trkpt lat="45.47325" lon="5.18445">
        <ele>571.5</ele>
        <time>2012-05-26T14:43:05Z</time>
      </trkpt>
      <trkpt lat="45.47326" lon="5.18463">
        <ele>571.40002441406</ele>
        <time>2012-05-26T14:43:08Z</time>
      </trkpt>
      <trkpt lat="45.47326" lon="5.18478">
        <ele>571.69995117188</ele>
        <time>2012-05-26T14:43:11Z</time>
      </trkpt>
      <trkpt lat="45.47327" lon="5.18492">
        <ele>572.09997558594</ele>
        <time>2012-05-26T14:43:17Z</time>
      </trkpt>
      <trkpt lat="45.47323" lon="5.18504">
        <ele>572.30004882812</ele>
        <time>2012-05-26T14:43:24Z</time>
      </trkpt>
      <trkpt lat="45.47317" lon="5.18516">
        <ele>571.90002441406</ele>
        <time>2012-05-26T14:43:31Z</time>
      </trkpt>
      <trkpt lat="45.47312" lon="5.18528">
        <ele>571.69995117188</ele>
        <time>2012-05-26T14:43:38Z</time>
      </trkpt>
      <trkpt lat="45.47307" lon="5.18539">
        <ele>570.90002441406</ele>
        <time>2012-05-26T14:43:45Z</time>
      </trkpt>
      <trkpt lat="45.47302" lon="5.1855">
        <ele>571.90002441406</ele>
        <time>2012-05-26T14:43:51Z</time>
      </trkpt>
      <trkpt lat="45.47296" lon="5.18561">
        <ele>572.19995117188</ele>
        <time>2012-05-26T14:43:58Z</time>
      </trkpt>
      <trkpt lat="45.47289" lon="5.18569">
        <ele>572.30004882812</ele>
        <time>2012-05-26T14:44:06Z</time>
      </trkpt>
      <trkpt lat="45.47281" lon="5.18578">
        <ele>572.80004882812</ele>
        <time>2012-05-26T14:44:12Z</time>
      </trkpt>
      <trkpt lat="45.47274" lon="5.18587">
        <ele>572.30004882812</ele>
        <time>2012-05-26T14:44:20Z</time>
      </trkpt>
      <trkpt lat="45.47266" lon="5.18596">
        <ele>572.19995117188</ele>
        <time>2012-05-26T14:44:27Z</time>
      </trkpt>
      <trkpt lat="45.47251" lon="5.18615">
        <ele>573</ele>
        <time>2012-05-26T14:44:43Z</time>
      </trkpt>
      <trkpt lat="45.47236" lon="5.1863">
        <ele>573.5</ele>
        <time>2012-05-26T14:44:55Z</time>
      </trkpt>
      <trkpt lat="45.47228" lon="5.1864">
        <ele>574.90002441406</ele>
        <time>2012-05-26T14:45:02Z</time>
      </trkpt>
      <trkpt lat="45.47221" lon="5.18649">
        <ele>574.80004882812</ele>
        <time>2012-05-26T14:45:07Z</time>
      </trkpt>
      <trkpt lat="45.47217" lon="5.18661">
        <ele>575.30004882812</ele>
        <time>2012-05-26T14:45:14Z</time>
      </trkpt>
      <trkpt lat="45.47222" lon="5.18672">
        <ele>577.09997558594</ele>
        <time>2012-05-26T14:45:24Z</time>
      </trkpt>
      <trkpt lat="45.4723" lon="5.1868">
        <ele>578.5</ele>
        <time>2012-05-26T14:45:33Z</time>
      </trkpt>
      <trkpt lat="45.47247" lon="5.18693">
        <ele>580.19995117188</ele>
        <time>2012-05-26T14:45:45Z</time>
      </trkpt>
      <trkpt lat="45.47256" lon="5.18701">
        <ele>580.40002441406</ele>
        <time>2012-05-26T14:45:52Z</time>
      </trkpt>
      <trkpt lat="45.47264" lon="5.1871">
        <ele>581</ele>
        <time>2012-05-26T14:45:58Z</time>
      </trkpt>
      <trkpt lat="45.47271" lon="5.18719">
        <ele>581.80004882812</ele>
        <time>2012-05-26T14:46:05Z</time>
      </trkpt>
      <trkpt lat="45.47282" lon="5.18743">
        <ele>580.40002441406</ele>
        <time>2012-05-26T14:46:35Z</time>
      </trkpt>
      <trkpt lat="45.47288" lon="5.18767">
        <ele>581</ele>
        <time>2012-05-26T14:46:54Z</time>
      </trkpt>
      <trkpt lat="45.47294" lon="5.18792">
        <ele>581.90002441406</ele>
        <time>2012-05-26T14:47:12Z</time>
      </trkpt>
      <trkpt lat="45.47302" lon="5.18821">
        <ele>581.80004882812</ele>
        <time>2012-05-26T14:47:32Z</time>
      </trkpt>
      <trkpt lat="45.47309" lon="5.18847">
        <ele>581.80004882812</ele>
        <time>2012-05-26T14:47:48Z</time>
      </trkpt>
      <trkpt lat="45.47329" lon="5.18878">
        <ele>580.80004882812</ele>
        <time>2012-05-26T14:48:13Z</time>
      </trkpt>
      <trkpt lat="45.47349" lon="5.1891">
        <ele>580.69995117188</ele>
        <time>2012-05-26T14:49:05Z</time>
      </trkpt>
      <trkpt lat="45.47362" lon="5.1893">
        <ele>580</ele>
        <time>2012-05-26T14:49:57Z</time>
      </trkpt>
      <trkpt lat="45.47378" lon="5.18946">
        <ele>570.59997558594</ele>
        <time>2012-05-26T14:50:13Z</time>
      </trkpt>
      <trkpt lat="45.47395" lon="5.18966">
        <ele>576.30004882812</ele>
        <time>2012-05-26T14:51:19Z</time>
      </trkpt>
      <trkpt lat="45.474" lon="5.18983">
        <ele>575.30004882812</ele>
        <time>2012-05-26T14:51:21Z</time>
      </trkpt>
      <trkpt lat="45.47409" lon="5.19011">
        <ele>575.30004882812</ele>
        <time>2012-05-26T14:51:26Z</time>
      </trkpt>
      <trkpt lat="45.47421" lon="5.19038">
        <ele>576.40002441406</ele>
        <time>2012-05-26T14:51:29Z</time>
      </trkpt>
      <trkpt lat="45.47435" lon="5.19069">
        <ele>577.09997558594</ele>
        <time>2012-05-26T14:51:33Z</time>
      </trkpt>
      <trkpt lat="45.47449" lon="5.19096">
        <ele>578.09997558594</ele>
        <time>2012-05-26T14:51:38Z</time>
      </trkpt>
      <trkpt lat="45.47463" lon="5.19132">
        <ele>581.59997558594</ele>
        <time>2012-05-26T14:51:57Z</time>
      </trkpt>
      <trkpt lat="45.47458" lon="5.19159">
        <ele>582</ele>
        <time>2012-05-26T14:52:16Z</time>
      </trkpt>
      <trkpt lat="45.47456" lon="5.19185">
        <ele>578.69995117188</ele>
        <time>2012-05-26T14:52:36Z</time>
      </trkpt>
      <trkpt lat="45.47451" lon="5.19197">
        <ele>579.30004882812</ele>
        <time>2012-05-26T14:52:46Z</time>
      </trkpt>
      <trkpt lat="45.4745" lon="5.1921">
        <ele>579.69995117188</ele>
        <time>2012-05-26T14:52:54Z</time>
      </trkpt>
      <trkpt lat="45.47448" lon="5.19223">
        <ele>580</ele>
        <time>2012-05-26T14:53:04Z</time>
      </trkpt>
      <trkpt lat="45.47452" lon="5.19235">
        <ele>579.19995117188</ele>
        <time>2012-05-26T14:53:13Z</time>
      </trkpt>
      <trkpt lat="45.47463" lon="5.19258">
        <ele>583.90002441406</ele>
        <time>2012-05-26T14:53:27Z</time>
      </trkpt>
      <trkpt lat="45.47469" lon="5.19285">
        <ele>590.59997558594</ele>
        <time>2012-05-26T14:53:44Z</time>
      </trkpt>
      <trkpt lat="45.47469" lon="5.19298">
        <ele>589</ele>
        <time>2012-05-26T14:53:52Z</time>
      </trkpt>
      <trkpt lat="45.47476" lon="5.19324">
        <ele>586.80004882812</ele>
        <time>2012-05-26T14:54:09Z</time>
      </trkpt>
      <trkpt lat="45.47478" lon="5.19351">
        <ele>587.80004882812</ele>
        <time>2012-05-26T14:54:23Z</time>
      </trkpt>
      <trkpt lat="45.47481" lon="5.19381">
        <ele>590.19995117188</ele>
        <time>2012-05-26T14:54:32Z</time>
      </trkpt>
      <trkpt lat="45.47481" lon="5.19409">
        <ele>591.19995117188</ele>
        <time>2012-05-26T14:54:38Z</time>
      </trkpt>
      <trkpt lat="45.47483" lon="5.19445">
        <ele>592.5</ele>
        <time>2012-05-26T14:54:44Z</time>
      </trkpt>
      <trkpt lat="45.47488" lon="5.19476">
        <ele>591.59997558594</ele>
        <time>2012-05-26T14:54:49Z</time>
      </trkpt>
      <trkpt lat="45.47493" lon="5.19504">
        <ele>589.5</ele>
        <time>2012-05-26T14:54:58Z</time>
      </trkpt>
      <trkpt lat="45.47494" lon="5.1953">
        <ele>586.90002441406</ele>
        <time>2012-05-26T14:55:12Z</time>
      </trkpt>
      <trkpt lat="45.47488" lon="5.19541">
        <ele>586.09997558594</ele>
        <time>2012-05-26T14:55:19Z</time>
      </trkpt>
      <trkpt lat="45.47481" lon="5.1955">
        <ele>586.19995117188</ele>
        <time>2012-05-26T14:55:26Z</time>
      </trkpt>
      <trkpt lat="45.47474" lon="5.19558">
        <ele>586.90002441406</ele>
        <time>2012-05-26T14:55:34Z</time>
      </trkpt>
      <trkpt lat="45.47466" lon="5.19567">
        <ele>586.5</ele>
        <time>2012-05-26T14:55:41Z</time>
      </trkpt>
      <trkpt lat="45.47458" lon="5.19575">
        <ele>586.5</ele>
        <time>2012-05-26T14:55:48Z</time>
      </trkpt>
      <trkpt lat="45.47451" lon="5.19583">
        <ele>586.59997558594</ele>
        <time>2012-05-26T14:55:55Z</time>
      </trkpt>
      <trkpt lat="45.47443" lon="5.19591">
        <ele>586.40002441406</ele>
        <time>2012-05-26T14:56:03Z</time>
      </trkpt>
      <trkpt lat="45.47435" lon="5.19599">
        <ele>586</ele>
        <time>2012-05-26T14:56:11Z</time>
      </trkpt>
      <trkpt lat="45.47427" lon="5.19608">
        <ele>586</ele>
        <time>2012-05-26T14:56:19Z</time>
      </trkpt>
      <trkpt lat="45.4742" lon="5.19616">
        <ele>586.40002441406</ele>
        <time>2012-05-26T14:56:26Z</time>
      </trkpt>
      <trkpt lat="45.47412" lon="5.19625">
        <ele>586.30004882812</ele>
        <time>2012-05-26T14:56:34Z</time>
      </trkpt>
      <trkpt lat="45.47404" lon="5.19634">
        <ele>586.69995117188</ele>
        <time>2012-05-26T14:56:41Z</time>
      </trkpt>
      <trkpt lat="45.47398" lon="5.19643">
        <ele>587.80004882812</ele>
        <time>2012-05-26T14:56:48Z</time>
      </trkpt>
      <trkpt lat="45.47389" lon="5.19651">
        <ele>587.5</ele>
        <time>2012-05-26T14:56:57Z</time>
      </trkpt>
      <trkpt lat="45.4738" lon="5.19659">
        <ele>587.30004882812</ele>
        <time>2012-05-26T14:57:04Z</time>
      </trkpt>
      <trkpt lat="45.47372" lon="5.19667">
        <ele>586.40002441406</ele>
        <time>2012-05-26T14:57:11Z</time>
      </trkpt>
      <trkpt lat="45.47368" lon="5.1968">
        <ele>585</ele>
        <time>2012-05-26T14:57:18Z</time>
      </trkpt>
      <trkpt lat="45.4737" lon="5.19694">
        <ele>583.59997558594</ele>
        <time>2012-05-26T14:57:25Z</time>
      </trkpt>
      <trkpt lat="45.47377" lon="5.19702">
        <ele>582.90002441406</ele>
        <time>2012-05-26T14:57:32Z</time>
      </trkpt>
      <trkpt lat="45.47385" lon="5.1971">
        <ele>583.09997558594</ele>
        <time>2012-05-26T14:57:38Z</time>
      </trkpt>
      <trkpt lat="45.47393" lon="5.1972">
        <ele>582.80004882812</ele>
        <time>2012-05-26T14:57:43Z</time>
      </trkpt>
      <trkpt lat="45.47402" lon="5.19732">
        <ele>582.40002441406</ele>
        <time>2012-05-26T14:57:47Z</time>
      </trkpt>
      <trkpt lat="45.47409" lon="5.19742">
        <ele>582.90002441406</ele>
        <time>2012-05-26T14:57:51Z</time>
      </trkpt>
      <trkpt lat="45.47424" lon="5.19759">
        <ele>584.40002441406</ele>
        <time>2012-05-26T14:58:02Z</time>
      </trkpt>
      <trkpt lat="45.4743" lon="5.19769">
        <ele>583.19995117188</ele>
        <time>2012-05-26T14:58:10Z</time>
      </trkpt>
      <trkpt lat="45.47445" lon="5.19787">
        <ele>584</ele>
        <time>2012-05-26T14:58:24Z</time>
      </trkpt>
      <trkpt lat="45.47458" lon="5.19804">
        <ele>585.59997558594</ele>
        <time>2012-05-26T14:58:36Z</time>
      </trkpt>
      <trkpt lat="45.47472" lon="5.19825">
        <ele>588.59997558594</ele>
        <time>2012-05-26T14:58:50Z</time>
      </trkpt>
      <trkpt lat="45.4747" lon="5.19849">
        <ele>588.80004882812</ele>
        <time>2012-05-26T14:59:05Z</time>
      </trkpt>
      <trkpt lat="45.47455" lon="5.19868">
        <ele>586.90002441406</ele>
        <time>2012-05-26T14:59:21Z</time>
      </trkpt>
      <trkpt lat="45.47451" lon="5.1988">
        <ele>586.5</ele>
        <time>2012-05-26T14:59:28Z</time>
      </trkpt>
      <trkpt lat="45.47449" lon="5.19894">
        <ele>586.19995117188</ele>
        <time>2012-05-26T14:59:35Z</time>
      </trkpt>
      <trkpt lat="45.47446" lon="5.19908">
        <ele>585.69995117188</ele>
        <time>2012-05-26T14:59:42Z</time>
      </trkpt>
      <trkpt lat="45.47443" lon="5.19922">
        <ele>584.5</ele>
        <time>2012-05-26T14:59:49Z</time>
      </trkpt>
      <trkpt lat="45.47438" lon="5.19933">
        <ele>584.09997558594</ele>
        <time>2012-05-26T14:59:57Z</time>
      </trkpt>
      <trkpt lat="45.47433" lon="5.19944">
        <ele>583.59997558594</ele>
        <time>2012-05-26T15:00:04Z</time>
      </trkpt>
      <trkpt lat="45.47427" lon="5.19955">
        <ele>583.69995117188</ele>
        <time>2012-05-26T15:00:10Z</time>
      </trkpt>
      <trkpt lat="45.47421" lon="5.19965">
        <ele>584.40002441406</ele>
        <time>2012-05-26T15:00:16Z</time>
      </trkpt>
      <trkpt lat="45.47413" lon="5.19971">
        <ele>585.59997558594</ele>
        <time>2012-05-26T15:00:21Z</time>
      </trkpt>
      <trkpt lat="45.47393" lon="5.19975">
        <ele>585.40002441406</ele>
        <time>2012-05-26T15:00:34Z</time>
      </trkpt>
      <trkpt lat="45.47375" lon="5.19984">
        <ele>584.40002441406</ele>
        <time>2012-05-26T15:00:48Z</time>
      </trkpt>
      <trkpt lat="45.47357" lon="5.19992">
        <ele>584.30004882812</ele>
        <time>2012-05-26T15:01:01Z</time>
      </trkpt>
      <trkpt lat="45.47338" lon="5.20001">
        <ele>584.19995117188</ele>
        <time>2012-05-26T15:01:16Z</time>
      </trkpt>
      <trkpt lat="45.47319" lon="5.20009">
        <ele>583.19995117188</ele>
        <time>2012-05-26T15:01:30Z</time>
      </trkpt>
      <trkpt lat="45.47302" lon="5.20022">
        <ele>581.90002441406</ele>
        <time>2012-05-26T15:01:44Z</time>
      </trkpt>
      <trkpt lat="45.47293" lon="5.20027">
        <ele>580.69995117188</ele>
        <time>2012-05-26T15:01:51Z</time>
      </trkpt>
      <trkpt lat="45.47284" lon="5.20034">
        <ele>580</ele>
        <time>2012-05-26T15:01:58Z</time>
      </trkpt>
      <trkpt lat="45.47279" lon="5.20044">
        <ele>579.80004882812</ele>
        <time>2012-05-26T15:02:05Z</time>
      </trkpt>
      <trkpt lat="45.47276" lon="5.20059">
        <ele>579.59997558594</ele>
        <time>2012-05-26T15:02:10Z</time>
      </trkpt>
      <trkpt lat="45.47274" lon="5.20076">
        <ele>579.30004882812</ele>
        <time>2012-05-26T15:02:13Z</time>
      </trkpt>
      <trkpt lat="45.47272" lon="5.20092">
        <ele>579.69995117188</ele>
        <time>2012-05-26T15:02:16Z</time>
      </trkpt>
      <trkpt lat="45.4727" lon="5.20106">
        <ele>579.59997558594</ele>
        <time>2012-05-26T15:02:19Z</time>
      </trkpt>
      <trkpt lat="45.47266" lon="5.20136">
        <ele>581.69995117188</ele>
        <time>2012-05-26T15:02:27Z</time>
      </trkpt>
      <trkpt lat="45.47266" lon="5.20149">
        <ele>582.5</ele>
        <time>2012-05-26T15:02:31Z</time>
      </trkpt>
      <trkpt lat="45.47262" lon="5.20162">
        <ele>583</ele>
        <time>2012-05-26T15:02:36Z</time>
      </trkpt>
      <trkpt lat="45.47259" lon="5.20174">
        <ele>583.90002441406</ele>
        <time>2012-05-26T15:02:41Z</time>
      </trkpt>
      <trkpt lat="45.47255" lon="5.20185">
        <ele>585</ele>
        <time>2012-05-26T15:02:47Z</time>
      </trkpt>
      <trkpt lat="45.4725" lon="5.20198">
        <ele>586.30004882812</ele>
        <time>2012-05-26T15:02:53Z</time>
      </trkpt>
      <trkpt lat="45.47245" lon="5.2021">
        <ele>586.80004882812</ele>
        <time>2012-05-26T15:02:58Z</time>
      </trkpt>
      <trkpt lat="45.47243" lon="5.20223">
        <ele>586.09997558594</ele>
        <time>2012-05-26T15:03:07Z</time>
      </trkpt>
      <trkpt lat="45.47234" lon="5.20247">
        <ele>582.19995117188</ele>
        <time>2012-05-26T15:03:28Z</time>
      </trkpt>
      <trkpt lat="45.47226" lon="5.2027">
        <ele>582.69995117188</ele>
        <time>2012-05-26T15:03:44Z</time>
      </trkpt>
      <trkpt lat="45.47215" lon="5.20291">
        <ele>578.80004882812</ele>
        <time>2012-05-26T15:03:53Z</time>
      </trkpt>
      <trkpt lat="45.47201" lon="5.20313">
        <ele>578.80004882812</ele>
        <time>2012-05-26T15:04:04Z</time>
      </trkpt>
      <trkpt lat="45.47196" lon="5.20325">
        <ele>578.80004882812</ele>
        <time>2012-05-26T15:04:11Z</time>
      </trkpt>
      <trkpt lat="45.47198" lon="5.20338">
        <ele>580.19995117188</ele>
        <time>2012-05-26T15:04:18Z</time>
      </trkpt>
      <trkpt lat="45.47204" lon="5.20347">
        <ele>580.90002441406</ele>
        <time>2012-05-26T15:04:35Z</time>
      </trkpt>
      <trkpt lat="45.47213" lon="5.2035">
        <ele>579.5</ele>
        <time>2012-05-26T15:04:44Z</time>
      </trkpt>
      <trkpt lat="45.47222" lon="5.20354">
        <ele>579.90002441406</ele>
        <time>2012-05-26T15:04:52Z</time>
      </trkpt>
      <trkpt lat="45.47227" lon="5.2038">
        <ele>584.90002441406</ele>
        <time>2012-05-26T15:05:05Z</time>
      </trkpt>
      <trkpt lat="45.47231" lon="5.20406">
        <ele>585.19995117188</ele>
        <time>2012-05-26T15:05:19Z</time>
      </trkpt>
      <trkpt lat="45.47239" lon="5.20425">
        <ele>589.80004882812</ele>
        <time>2012-05-26T15:06:21Z</time>
      </trkpt>
      <trkpt lat="45.47235" lon="5.20451">
        <ele>592.40002441406</ele>
        <time>2012-05-26T15:06:51Z</time>
      </trkpt>
      <trkpt lat="45.47233" lon="5.20477">
        <ele>594.09997558594</ele>
        <time>2012-05-26T15:07:13Z</time>
      </trkpt>
      <trkpt lat="45.47231" lon="5.20504">
        <ele>593.90002441406</ele>
        <time>2012-05-26T15:07:30Z</time>
      </trkpt>
      <trkpt lat="45.47233" lon="5.2053">
        <ele>593.90002441406</ele>
        <time>2012-05-26T15:07:47Z</time>
      </trkpt>
      <trkpt lat="45.47233" lon="5.20562">
        <ele>594.30004882812</ele>
        <time>2012-05-26T15:08:47Z</time>
      </trkpt>
      <trkpt lat="45.47232" lon="5.20591">
        <ele>592.5</ele>
        <time>2012-05-26T15:09:53Z</time>
      </trkpt>
      <trkpt lat="45.47237" lon="5.20621">
        <ele>594.5</ele>
        <time>2012-05-26T15:10:31Z</time>
      </trkpt>
      <trkpt lat="45.4724" lon="5.2065">
        <ele>588.30004882812</ele>
        <time>2012-05-26T15:10:45Z</time>
      </trkpt>
      <trkpt lat="45.47228" lon="5.2067">
        <ele>587.30004882812</ele>
        <time>2012-05-26T15:10:59Z</time>
      </trkpt>
      <trkpt lat="45.47211" lon="5.20685">
        <ele>584.30004882812</ele>
        <time>2012-05-26T15:11:14Z</time>
      </trkpt>
      <trkpt lat="45.47203" lon="5.20692">
        <ele>583.30004882812</ele>
        <time>2012-05-26T15:11:22Z</time>
      </trkpt>
      <trkpt lat="45.47185" lon="5.20701">
        <ele>581.5</ele>
        <time>2012-05-26T15:11:39Z</time>
      </trkpt>
      <trkpt lat="45.47177" lon="5.20708">
        <ele>581.59997558594</ele>
        <time>2012-05-26T15:11:44Z</time>
      </trkpt>
      <trkpt lat="45.4716" lon="5.20718">
        <ele>582</ele>
        <time>2012-05-26T15:11:56Z</time>
      </trkpt>
      <trkpt lat="45.47142" lon="5.20724">
        <ele>581.80004882812</ele>
        <time>2012-05-26T15:12:09Z</time>
      </trkpt>
      <trkpt lat="45.47123" lon="5.20727">
        <ele>582.80004882812</ele>
        <time>2012-05-26T15:12:23Z</time>
      </trkpt>
      <trkpt lat="45.47104" lon="5.20728">
        <ele>584.09997558594</ele>
        <time>2012-05-26T15:12:41Z</time>
      </trkpt>
      <trkpt lat="45.47086" lon="5.20739">
        <ele>586.69995117188</ele>
        <time>2012-05-26T15:12:58Z</time>
      </trkpt>
      <trkpt lat="45.4707" lon="5.20753">
        <ele>588.30004882812</ele>
        <time>2012-05-26T15:13:14Z</time>
      </trkpt>
      <trkpt lat="45.47054" lon="5.20766">
        <ele>589.30004882812</ele>
        <time>2012-05-26T15:13:28Z</time>
      </trkpt>
      <trkpt lat="45.47036" lon="5.20769">
        <ele>589</ele>
        <time>2012-05-26T15:13:40Z</time>
      </trkpt>
      <trkpt lat="45.47016" lon="5.2077">
        <ele>590.59997558594</ele>
        <time>2012-05-26T15:13:57Z</time>
      </trkpt>
      <trkpt lat="45.46996" lon="5.20771">
        <ele>591.59997558594</ele>
        <time>2012-05-26T15:14:09Z</time>
      </trkpt>
      <trkpt lat="45.46895" lon="5.20812">
        <ele>597.09997558594</ele>
        <time>2012-05-26T15:15:23Z</time>
      </trkpt>
      <trkpt lat="45.46877" lon="5.20818">
        <ele>598.80004882812</ele>
        <time>2012-05-26T15:15:37Z</time>
      </trkpt>
      <trkpt lat="45.46858" lon="5.20827">
        <ele>599.80004882812</ele>
        <time>2012-05-26T15:15:56Z</time>
      </trkpt>
      <trkpt lat="45.46841" lon="5.20839">
        <ele>602</ele>
        <time>2012-05-26T15:16:08Z</time>
      </trkpt>
      <trkpt lat="45.46822" lon="5.20849">
        <ele>601.69995117188</ele>
        <time>2012-05-26T15:16:24Z</time>
      </trkpt>
      <trkpt lat="45.46805" lon="5.20864">
        <ele>602.09997558594</ele>
        <time>2012-05-26T15:16:38Z</time>
      </trkpt>
      <trkpt lat="45.46788" lon="5.20874">
        <ele>603.90002441406</ele>
        <time>2012-05-26T15:16:51Z</time>
      </trkpt>
      <trkpt lat="45.4678" lon="5.20879">
        <ele>603.59997558594</ele>
        <time>2012-05-26T15:16:57Z</time>
      </trkpt>
      <trkpt lat="45.46771" lon="5.20885">
        <ele>603.40002441406</ele>
        <time>2012-05-26T15:17:04Z</time>
      </trkpt>
      <trkpt lat="45.46762" lon="5.20889">
        <ele>604.80004882812</ele>
        <time>2012-05-26T15:17:10Z</time>
      </trkpt>
      <trkpt lat="45.46753" lon="5.20893">
        <ele>606.19995117188</ele>
        <time>2012-05-26T15:17:16Z</time>
      </trkpt>
      <trkpt lat="45.46744" lon="5.20898">
        <ele>607.90002441406</ele>
        <time>2012-05-26T15:17:29Z</time>
      </trkpt>
      <trkpt lat="45.46734" lon="5.20902">
        <ele>608.69995117188</ele>
        <time>2012-05-26T15:17:35Z</time>
      </trkpt>
      <trkpt lat="45.46725" lon="5.20907">
        <ele>609</ele>
        <time>2012-05-26T15:17:42Z</time>
      </trkpt>
      <trkpt lat="45.46715" lon="5.20911">
        <ele>609.30004882812</ele>
        <time>2012-05-26T15:17:48Z</time>
      </trkpt>
      <trkpt lat="45.46706" lon="5.20915">
        <ele>609</ele>
        <time>2012-05-26T15:17:55Z</time>
      </trkpt>
      <trkpt lat="45.46697" lon="5.20915">
        <ele>609.09997558594</ele>
        <time>2012-05-26T15:18:02Z</time>
      </trkpt>
      <trkpt lat="45.46689" lon="5.20906">
        <ele>608.80004882812</ele>
        <time>2012-05-26T15:18:11Z</time>
      </trkpt>
      <trkpt lat="45.46683" lon="5.20897">
        <ele>607.40002441406</ele>
        <time>2012-05-26T15:18:18Z</time>
      </trkpt>
      <trkpt lat="45.46676" lon="5.20886">
        <ele>607</ele>
        <time>2012-05-26T15:18:26Z</time>
      </trkpt>
      <trkpt lat="45.4667" lon="5.20876">
        <ele>606.59997558594</ele>
        <time>2012-05-26T15:18:33Z</time>
      </trkpt>
      <trkpt lat="45.46664" lon="5.20866">
        <ele>605.5</ele>
        <time>2012-05-26T15:18:38Z</time>
      </trkpt>
      <trkpt lat="45.46658" lon="5.20855">
        <ele>604.5</ele>
        <time>2012-05-26T15:18:45Z</time>
      </trkpt>
      <trkpt lat="45.46653" lon="5.20844">
        <ele>604.19995117188</ele>
        <time>2012-05-26T15:18:51Z</time>
      </trkpt>
      <trkpt lat="45.46647" lon="5.20832">
        <ele>603.59997558594</ele>
        <time>2012-05-26T15:18:58Z</time>
      </trkpt>
      <trkpt lat="45.46642" lon="5.20821">
        <ele>603.09997558594</ele>
        <time>2012-05-26T15:19:04Z</time>
      </trkpt>
      <trkpt lat="45.46638" lon="5.20809">
        <ele>603</ele>
        <time>2012-05-26T15:19:10Z</time>
      </trkpt>
      <trkpt lat="45.46636" lon="5.20797">
        <ele>602.40002441406</ele>
        <time>2012-05-26T15:19:16Z</time>
      </trkpt>
      <trkpt lat="45.46635" lon="5.20782">
        <ele>601.90002441406</ele>
        <time>2012-05-26T15:19:23Z</time>
      </trkpt>
      <trkpt lat="45.46635" lon="5.20768">
        <ele>601.59997558594</ele>
        <time>2012-05-26T15:19:30Z</time>
      </trkpt>
      <trkpt lat="45.46635" lon="5.20754">
        <ele>600.59997558594</ele>
        <time>2012-05-26T15:19:38Z</time>
      </trkpt>
      <trkpt lat="45.46634" lon="5.2074">
        <ele>599.5</ele>
        <time>2012-05-26T15:19:44Z</time>
      </trkpt>
      <trkpt lat="45.46632" lon="5.20726">
        <ele>598.5</ele>
        <time>2012-05-26T15:19:51Z</time>
      </trkpt>
      <trkpt lat="45.46633" lon="5.20712">
        <ele>598</ele>
        <time>2012-05-26T15:19:57Z</time>
      </trkpt>
      <trkpt lat="45.46632" lon="5.20699">
        <ele>597.09997558594</ele>
        <time>2012-05-26T15:20:03Z</time>
      </trkpt>
      <trkpt lat="45.46633" lon="5.20686">
        <ele>596</ele>
        <time>2012-05-26T15:20:09Z</time>
      </trkpt>
      <trkpt lat="45.46633" lon="5.20672">
        <ele>595</ele>
        <time>2012-05-26T15:20:15Z</time>
      </trkpt>
      <trkpt lat="45.46637" lon="5.20644">
        <ele>593.80004882812</ele>
        <time>2012-05-26T15:20:28Z</time>
      </trkpt>
      <trkpt lat="45.46639" lon="5.20631">
        <ele>594</ele>
        <time>2012-05-26T15:20:35Z</time>
      </trkpt>
      <trkpt lat="45.46638" lon="5.20618">
        <ele>593.19995117188</ele>
        <time>2012-05-26T15:20:41Z</time>
      </trkpt>
      <trkpt lat="45.46636" lon="5.20604">
        <ele>593.09997558594</ele>
        <time>2012-05-26T15:20:47Z</time>
      </trkpt>
      <trkpt lat="45.46634" lon="5.20591">
        <ele>593.19995117188</ele>
        <time>2012-05-26T15:20:53Z</time>
      </trkpt>
      <trkpt lat="45.46633" lon="5.20576">
        <ele>593.80004882812</ele>
        <time>2012-05-26T15:21:01Z</time>
      </trkpt>
      <trkpt lat="45.46633" lon="5.20562">
        <ele>593.90002441406</ele>
        <time>2012-05-26T15:21:08Z</time>
      </trkpt>
      <trkpt lat="45.46632" lon="5.20534">
        <ele>593.69995117188</ele>
        <time>2012-05-26T15:21:22Z</time>
      </trkpt>
      <trkpt lat="45.46629" lon="5.20506">
        <ele>594</ele>
        <time>2012-05-26T15:21:36Z</time>
      </trkpt>
      <trkpt lat="45.46621" lon="5.20479">
        <ele>597</ele>
        <time>2012-05-26T15:21:53Z</time>
      </trkpt>
      <trkpt lat="45.46607" lon="5.20445">
        <ele>599.40002441406</ele>
        <time>2012-05-26T15:22:06Z</time>
      </trkpt>
      <trkpt lat="45.46597" lon="5.20422">
        <ele>600</ele>
        <time>2012-05-26T15:22:20Z</time>
      </trkpt>
      <trkpt lat="45.46588" lon="5.20396">
        <ele>601.09997558594</ele>
        <time>2012-05-26T15:22:34Z</time>
      </trkpt>
      <trkpt lat="45.46583" lon="5.20359">
        <ele>601.69995117188</ele>
        <time>2012-05-26T15:22:52Z</time>
      </trkpt>
      <trkpt lat="45.46578" lon="5.20331">
        <ele>603.59997558594</ele>
        <time>2012-05-26T15:23:05Z</time>
      </trkpt>
      <trkpt lat="45.46579" lon="5.20304">
        <ele>604.09997558594</ele>
        <time>2012-05-26T15:23:18Z</time>
      </trkpt>
      <trkpt lat="45.46575" lon="5.20276">
        <ele>606</ele>
        <time>2012-05-26T15:23:29Z</time>
      </trkpt>
      <trkpt lat="45.4657" lon="5.20249">
        <ele>608.5</ele>
        <time>2012-05-26T15:23:41Z</time>
      </trkpt>
      <trkpt lat="45.46571" lon="5.20223">
        <ele>608.80004882812</ele>
        <time>2012-05-26T15:23:56Z</time>
      </trkpt>
      <trkpt lat="45.46568" lon="5.20181">
        <ele>608.69995117188</ele>
        <time>2012-05-26T15:24:15Z</time>
      </trkpt>
      <trkpt lat="45.46566" lon="5.20153">
        <ele>608.30004882812</ele>
        <time>2012-05-26T15:24:21Z</time>
      </trkpt>
      <trkpt lat="45.46564" lon="5.20126">
        <ele>608.09997558594</ele>
        <time>2012-05-26T15:24:27Z</time>
      </trkpt>
      <trkpt lat="45.46561" lon="5.20099">
        <ele>607.80004882812</ele>
        <time>2012-05-26T15:24:40Z</time>
      </trkpt>
      <trkpt lat="45.46548" lon="5.20077">
        <ele>606.80004882812</ele>
        <time>2012-05-26T15:24:54Z</time>
      </trkpt>
      <trkpt lat="45.46535" lon="5.20058">
        <ele>600.59997558594</ele>
        <time>2012-05-26T15:25:09Z</time>
      </trkpt>
      <trkpt lat="45.46526" lon="5.20052">
        <ele>598</ele>
        <time>2012-05-26T15:25:20Z</time>
      </trkpt>
      <trkpt lat="45.46508" lon="5.20047">
        <ele>597.90002441406</ele>
        <time>2012-05-26T15:25:34Z</time>
      </trkpt>
      <trkpt lat="45.46491" lon="5.20035">
        <ele>598.5</ele>
        <time>2012-05-26T15:25:51Z</time>
      </trkpt>
      <trkpt lat="45.46471" lon="5.20012">
        <ele>598.19995117188</ele>
        <time>2012-05-26T15:26:18Z</time>
      </trkpt>
      <trkpt lat="45.46442" lon="5.19992">
        <ele>598.90002441406</ele>
        <time>2012-05-26T15:26:34Z</time>
      </trkpt>
      <trkpt lat="45.46416" lon="5.1997">
        <ele>599.5</ele>
        <time>2012-05-26T15:26:50Z</time>
      </trkpt>
      <trkpt lat="45.46393" lon="5.19946">
        <ele>601</ele>
        <time>2012-05-26T15:27:14Z</time>
      </trkpt>
      <trkpt lat="45.4637" lon="5.19924">
        <ele>604.80004882812</ele>
        <time>2012-05-26T15:27:56Z</time>
      </trkpt>
      <trkpt lat="45.46351" lon="5.19898">
        <ele>603.5</ele>
        <time>2012-05-26T15:28:37Z</time>
      </trkpt>
      <trkpt lat="45.46328" lon="5.19885">
        <ele>604.5</ele>
        <time>2012-05-26T15:29:05Z</time>
      </trkpt>
      <trkpt lat="45.46304" lon="5.19858">
        <ele>602.69995117188</ele>
        <time>2012-05-26T15:29:24Z</time>
      </trkpt>
      <trkpt lat="45.46281" lon="5.19833">
        <ele>602.30004882812</ele>
        <time>2012-05-26T15:29:42Z</time>
      </trkpt>
      <trkpt lat="45.4626" lon="5.19804">
        <ele>601.69995117188</ele>
        <time>2012-05-26T15:30:01Z</time>
      </trkpt>
      <trkpt lat="45.46248" lon="5.19782">
        <ele>599.40002441406</ele>
        <time>2012-05-26T15:30:17Z</time>
      </trkpt>
      <trkpt lat="45.46226" lon="5.19756">
        <ele>600</ele>
        <time>2012-05-26T15:30:34Z</time>
      </trkpt>
      <trkpt lat="45.46207" lon="5.19723">
        <ele>598.69995117188</ele>
        <time>2012-05-26T15:30:55Z</time>
      </trkpt>
      <trkpt lat="45.46192" lon="5.19703">
        <ele>599.30004882812</ele>
        <time>2012-05-26T15:31:08Z</time>
      </trkpt>
      <trkpt lat="45.46176" lon="5.19686">
        <ele>596.90002441406</ele>
        <time>2012-05-26T15:31:20Z</time>
      </trkpt>
      <trkpt lat="45.46165" lon="5.19663">
        <ele>593.30004882812</ele>
        <time>2012-05-26T15:31:30Z</time>
      </trkpt>
      <trkpt lat="45.46159" lon="5.1963">
        <ele>590.69995117188</ele>
        <time>2012-05-26T15:31:39Z</time>
      </trkpt>
      <trkpt lat="45.46158" lon="5.19613">
        <ele>590.30004882812</ele>
        <time>2012-05-26T15:31:42Z</time>
      </trkpt>
      <trkpt lat="45.46155" lon="5.19585">
        <ele>587.30004882812</ele>
        <time>2012-05-26T15:31:56Z</time>
      </trkpt>
      <trkpt lat="45.46154" lon="5.19573">
        <ele>586</ele>
        <time>2012-05-26T15:32:03Z</time>
      </trkpt>
      <trkpt lat="45.46152" lon="5.1956">
        <ele>586</ele>
        <time>2012-05-26T15:32:11Z</time>
      </trkpt>
      <trkpt lat="45.46143" lon="5.19536">
        <ele>586</ele>
        <time>2012-05-26T15:32:25Z</time>
      </trkpt>
      <trkpt lat="45.46126" lon="5.19518">
        <ele>586.30004882812</ele>
        <time>2012-05-26T15:32:40Z</time>
      </trkpt>
      <trkpt lat="45.46118" lon="5.19509">
        <ele>587.09997558594</ele>
        <time>2012-05-26T15:32:47Z</time>
      </trkpt>
      <trkpt lat="45.46111" lon="5.19502">
        <ele>586.69995117188</ele>
        <time>2012-05-26T15:32:54Z</time>
      </trkpt>
      <trkpt lat="45.46103" lon="5.19494">
        <ele>586.59997558594</ele>
        <time>2012-05-26T15:33:01Z</time>
      </trkpt>
      <trkpt lat="45.46088" lon="5.19478">
        <ele>585.90002441406</ele>
        <time>2012-05-26T15:33:14Z</time>
      </trkpt>
      <trkpt lat="45.46071" lon="5.19464">
        <ele>584.69995117188</ele>
        <time>2012-05-26T15:33:27Z</time>
      </trkpt>
      <trkpt lat="45.46063" lon="5.19457">
        <ele>584.40002441406</ele>
        <time>2012-05-26T15:33:33Z</time>
      </trkpt>
      <trkpt lat="45.46054" lon="5.19451">
        <ele>584.30004882812</ele>
        <time>2012-05-26T15:33:40Z</time>
      </trkpt>
      <trkpt lat="45.46046" lon="5.19445">
        <ele>583.90002441406</ele>
        <time>2012-05-26T15:33:46Z</time>
      </trkpt>
      <trkpt lat="45.46038" lon="5.1944">
        <ele>583.19995117188</ele>
        <time>2012-05-26T15:33:52Z</time>
      </trkpt>
      <trkpt lat="45.46019" lon="5.19428">
        <ele>582.40002441406</ele>
        <time>2012-05-26T15:34:06Z</time>
      </trkpt>
      <trkpt lat="45.4601" lon="5.19422">
        <ele>582.09997558594</ele>
        <time>2012-05-26T15:34:13Z</time>
      </trkpt>
      <trkpt lat="45.45993" lon="5.19409">
        <ele>580.5</ele>
        <time>2012-05-26T15:34:27Z</time>
      </trkpt>
      <trkpt lat="45.45985" lon="5.19403">
        <ele>580.19995117188</ele>
        <time>2012-05-26T15:34:33Z</time>
      </trkpt>
      <trkpt lat="45.45968" lon="5.19391">
        <ele>580</ele>
        <time>2012-05-26T15:34:45Z</time>
      </trkpt>
      <trkpt lat="45.4596" lon="5.19384">
        <ele>578.80004882812</ele>
        <time>2012-05-26T15:34:53Z</time>
      </trkpt>
      <trkpt lat="45.45943" lon="5.1937">
        <ele>576.5</ele>
        <time>2012-05-26T15:35:35Z</time>
      </trkpt>
      <trkpt lat="45.45927" lon="5.19355">
        <ele>573.90002441406</ele>
        <time>2012-05-26T15:35:51Z</time>
      </trkpt>
      <trkpt lat="45.45921" lon="5.19345">
        <ele>574.09997558594</ele>
        <time>2012-05-26T15:35:59Z</time>
      </trkpt>
      <trkpt lat="45.45913" lon="5.19336">
        <ele>572.40002441406</ele>
        <time>2012-05-26T15:36:06Z</time>
      </trkpt>
      <trkpt lat="45.45898" lon="5.1932">
        <ele>570.40002441406</ele>
        <time>2012-05-26T15:36:25Z</time>
      </trkpt>
      <trkpt lat="45.45883" lon="5.193">
        <ele>570.09997558594</ele>
        <time>2012-05-26T15:36:41Z</time>
      </trkpt>
      <trkpt lat="45.45872" lon="5.19278">
        <ele>566.90002441406</ele>
        <time>2012-05-26T15:36:56Z</time>
      </trkpt>
      <trkpt lat="45.45866" lon="5.19266">
        <ele>565.40002441406</ele>
        <time>2012-05-26T15:37:04Z</time>
      </trkpt>
      <trkpt lat="45.45863" lon="5.19239">
        <ele>563</ele>
        <time>2012-05-26T15:37:18Z</time>
      </trkpt>
      <trkpt lat="45.45867" lon="5.19211">
        <ele>562.40002441406</ele>
        <time>2012-05-26T15:37:33Z</time>
      </trkpt>
      <trkpt lat="45.45874" lon="5.19186">
        <ele>559.5</ele>
        <time>2012-05-26T15:39:43Z</time>
      </trkpt>
      <trkpt lat="45.45874" lon="5.19159">
        <ele>558.19995117188</ele>
        <time>2012-05-26T15:39:58Z</time>
      </trkpt>
      <trkpt lat="45.45873" lon="5.19145">
        <ele>555.19995117188</ele>
        <time>2012-05-26T15:40:05Z</time>
      </trkpt>
      <trkpt lat="45.45864" lon="5.19124">
        <ele>554</ele>
        <time>2012-05-26T15:40:18Z</time>
      </trkpt>
      <trkpt lat="45.45853" lon="5.191">
        <ele>554.30004882812</ele>
        <time>2012-05-26T15:40:31Z</time>
      </trkpt>
      <trkpt lat="45.45843" lon="5.19076">
        <ele>555</ele>
        <time>2012-05-26T15:40:43Z</time>
      </trkpt>
      <trkpt lat="45.4583" lon="5.19056">
        <ele>555.09997558594</ele>
        <time>2012-05-26T15:40:58Z</time>
      </trkpt>
      <trkpt lat="45.45823" lon="5.19049">
        <ele>554.40002441406</ele>
        <time>2012-05-26T15:41:04Z</time>
      </trkpt>
      <trkpt lat="45.45804" lon="5.1904">
        <ele>554.80004882812</ele>
        <time>2012-05-26T15:41:17Z</time>
      </trkpt>
      <trkpt lat="45.45785" lon="5.19044">
        <ele>554.90002441406</ele>
        <time>2012-05-26T15:41:31Z</time>
      </trkpt>
      <trkpt lat="45.45766" lon="5.19046">
        <ele>556.30004882812</ele>
        <time>2012-05-26T15:41:45Z</time>
      </trkpt>
      <trkpt lat="45.45745" lon="5.19049">
        <ele>557.90002441406</ele>
        <time>2012-05-26T15:41:59Z</time>
      </trkpt>
      <trkpt lat="45.45726" lon="5.19051">
        <ele>557.59997558594</ele>
        <time>2012-05-26T15:42:13Z</time>
      </trkpt>
      <trkpt lat="45.45705" lon="5.19051">
        <ele>559.19995117188</ele>
        <time>2012-05-26T15:42:27Z</time>
      </trkpt>
      <trkpt lat="45.45696" lon="5.19051">
        <ele>559.40002441406</ele>
        <time>2012-05-26T15:42:34Z</time>
      </trkpt>
      <trkpt lat="45.45677" lon="5.19049">
        <ele>560.09997558594</ele>
        <time>2012-05-26T15:42:49Z</time>
      </trkpt>
      <trkpt lat="45.45658" lon="5.19047">
        <ele>559.80004882812</ele>
        <time>2012-05-26T15:43:02Z</time>
      </trkpt>
      <trkpt lat="45.45638" lon="5.19044">
        <ele>560.80004882812</ele>
        <time>2012-05-26T15:43:16Z</time>
      </trkpt>
      <trkpt lat="45.45629" lon="5.19043">
        <ele>561.69995117188</ele>
        <time>2012-05-26T15:43:23Z</time>
      </trkpt>
      <trkpt lat="45.4561" lon="5.19041">
        <ele>562.5</ele>
        <time>2012-05-26T15:43:35Z</time>
      </trkpt>
      <trkpt lat="45.45591" lon="5.19038">
        <ele>562.5</ele>
        <time>2012-05-26T15:43:49Z</time>
      </trkpt>
      <trkpt lat="45.45571" lon="5.19037">
        <ele>563.09997558594</ele>
        <time>2012-05-26T15:44:03Z</time>
      </trkpt>
      <trkpt lat="45.45562" lon="5.19039">
        <ele>563.19995117188</ele>
        <time>2012-05-26T15:44:12Z</time>
      </trkpt>
      <trkpt lat="45.45543" lon="5.19039">
        <ele>563</ele>
        <time>2012-05-26T15:44:28Z</time>
      </trkpt>
      <trkpt lat="45.45533" lon="5.1904">
        <ele>562.09997558594</ele>
        <time>2012-05-26T15:44:36Z</time>
      </trkpt>
      <trkpt lat="45.45513" lon="5.19047">
        <ele>563.5</ele>
        <time>2012-05-26T15:44:51Z</time>
      </trkpt>
      <trkpt lat="45.45494" lon="5.19051">
        <ele>562.90002441406</ele>
        <time>2012-05-26T15:45:04Z</time>
      </trkpt>
      <trkpt lat="45.45485" lon="5.19051">
        <ele>562.59997558594</ele>
        <time>2012-05-26T15:45:11Z</time>
      </trkpt>
      <trkpt lat="45.45475" lon="5.19054">
        <ele>562.5</ele>
        <time>2012-05-26T15:45:19Z</time>
      </trkpt>
      <trkpt lat="45.45465" lon="5.19057">
        <ele>561.80004882812</ele>
        <time>2012-05-26T15:45:26Z</time>
      </trkpt>
      <trkpt lat="45.45446" lon="5.19061">
        <ele>563.5</ele>
        <time>2012-05-26T15:45:42Z</time>
      </trkpt>
      <trkpt lat="45.45428" lon="5.19065">
        <ele>563.30004882812</ele>
        <time>2012-05-26T15:45:55Z</time>
      </trkpt>
      <trkpt lat="45.45419" lon="5.19068">
        <ele>563</ele>
        <time>2012-05-26T15:46:02Z</time>
      </trkpt>
      <trkpt lat="45.45409" lon="5.19073">
        <ele>562.5</ele>
        <time>2012-05-26T15:46:10Z</time>
      </trkpt>
      <trkpt lat="45.45391" lon="5.19084">
        <ele>562.30004882812</ele>
        <time>2012-05-26T15:46:23Z</time>
      </trkpt>
      <trkpt lat="45.45376" lon="5.19102">
        <ele>562</ele>
        <time>2012-05-26T15:46:38Z</time>
      </trkpt>
      <trkpt lat="45.4537" lon="5.19112">
        <ele>562.19995117188</ele>
        <time>2012-05-26T15:46:46Z</time>
      </trkpt>
      <trkpt lat="45.45357" lon="5.19132">
        <ele>562.69995117188</ele>
        <time>2012-05-26T15:47:01Z</time>
      </trkpt>
      <trkpt lat="45.45345" lon="5.19154">
        <ele>563.69995117188</ele>
        <time>2012-05-26T15:47:14Z</time>
      </trkpt>
      <trkpt lat="45.45331" lon="5.19175">
        <ele>564.80004882812</ele>
        <time>2012-05-26T15:47:28Z</time>
      </trkpt>
      <trkpt lat="45.45319" lon="5.19195">
        <ele>565.90002441406</ele>
        <time>2012-05-26T15:47:42Z</time>
      </trkpt>
      <trkpt lat="45.45313" lon="5.19205">
        <ele>566.40002441406</ele>
        <time>2012-05-26T15:47:49Z</time>
      </trkpt>
      <trkpt lat="45.45299" lon="5.19224">
        <ele>566.59997558594</ele>
        <time>2012-05-26T15:48:04Z</time>
      </trkpt>
      <trkpt lat="45.45285" lon="5.19244">
        <ele>567.09997558594</ele>
        <time>2012-05-26T15:48:18Z</time>
      </trkpt>
      <trkpt lat="45.45271" lon="5.19263">
        <ele>566.69995117188</ele>
        <time>2012-05-26T15:48:33Z</time>
      </trkpt>
      <trkpt lat="45.45264" lon="5.19272">
        <ele>567.30004882812</ele>
        <time>2012-05-26T15:48:40Z</time>
      </trkpt>
      <trkpt lat="45.45257" lon="5.19282">
        <ele>567.5</ele>
        <time>2012-05-26T15:48:47Z</time>
      </trkpt>
      <trkpt lat="45.45251" lon="5.19292">
        <ele>568.19995117188</ele>
        <time>2012-05-26T15:48:53Z</time>
      </trkpt>
      <trkpt lat="45.45245" lon="5.19304">
        <ele>568</ele>
        <time>2012-05-26T15:49:00Z</time>
      </trkpt>
      <trkpt lat="45.45239" lon="5.19316">
        <ele>568.30004882812</ele>
        <time>2012-05-26T15:49:07Z</time>
      </trkpt>
      <trkpt lat="45.45235" lon="5.1933">
        <ele>568.80004882812</ele>
        <time>2012-05-26T15:49:14Z</time>
      </trkpt>
      <trkpt lat="45.45232" lon="5.19343">
        <ele>569.19995117188</ele>
        <time>2012-05-26T15:49:21Z</time>
      </trkpt>
      <trkpt lat="45.45222" lon="5.19367">
        <ele>569.59997558594</ele>
        <time>2012-05-26T15:49:35Z</time>
      </trkpt>
      <trkpt lat="45.45212" lon="5.19389">
        <ele>570.09997558594</ele>
        <time>2012-05-26T15:49:49Z</time>
      </trkpt>
      <trkpt lat="45.45206" lon="5.19415">
        <ele>569.90002441406</ele>
        <time>2012-05-26T15:50:03Z</time>
      </trkpt>
      <trkpt lat="45.452" lon="5.19425">
        <ele>569.40002441406</ele>
        <time>2012-05-26T15:50:11Z</time>
      </trkpt>
      <trkpt lat="45.45191" lon="5.19423">
        <ele>568.30004882812</ele>
        <time>2012-05-26T15:50:19Z</time>
      </trkpt>
      <trkpt lat="45.45173" lon="5.19416">
        <ele>565.90002441406</ele>
        <time>2012-05-26T15:50:34Z</time>
      </trkpt>
      <trkpt lat="45.45154" lon="5.1941">
        <ele>564.5</ele>
        <time>2012-05-26T15:50:50Z</time>
      </trkpt>
      <trkpt lat="45.45135" lon="5.19406">
        <ele>564.30004882812</ele>
        <time>2012-05-26T15:51:04Z</time>
      </trkpt>
      <trkpt lat="45.45126" lon="5.19404">
        <ele>563.5</ele>
        <time>2012-05-26T15:51:11Z</time>
      </trkpt>
      <trkpt lat="45.45117" lon="5.19402">
        <ele>562.80004882812</ele>
        <time>2012-05-26T15:51:18Z</time>
      </trkpt>
      <trkpt lat="45.45097" lon="5.19396">
        <ele>561.30004882812</ele>
        <time>2012-05-26T15:51:34Z</time>
      </trkpt>
      <trkpt lat="45.45078" lon="5.19392">
        <ele>561.69995117188</ele>
        <time>2012-05-26T15:51:47Z</time>
      </trkpt>
      <trkpt lat="45.4506" lon="5.19387">
        <ele>561.90002441406</ele>
        <time>2012-05-26T15:51:59Z</time>
      </trkpt>
      <trkpt lat="45.45041" lon="5.19381">
        <ele>560.80004882812</ele>
        <time>2012-05-26T15:52:13Z</time>
      </trkpt>
      <trkpt lat="45.45022" lon="5.19389">
        <ele>559.69995117188</ele>
        <time>2012-05-26T15:52:28Z</time>
      </trkpt>
      <trkpt lat="45.45008" lon="5.19406">
        <ele>559.30004882812</ele>
        <time>2012-05-26T15:52:40Z</time>
      </trkpt>
      <trkpt lat="45.44995" lon="5.19425">
        <ele>559.5</ele>
        <time>2012-05-26T15:52:52Z</time>
      </trkpt>
      <trkpt lat="45.4498" lon="5.19442">
        <ele>559.69995117188</ele>
        <time>2012-05-26T15:53:06Z</time>
      </trkpt>
      <trkpt lat="45.44965" lon="5.19459">
        <ele>559.5</ele>
        <time>2012-05-26T15:53:20Z</time>
      </trkpt>
      <trkpt lat="45.44949" lon="5.19475">
        <ele>560</ele>
        <time>2012-05-26T15:53:34Z</time>
      </trkpt>
      <trkpt lat="45.44933" lon="5.19489">
        <ele>558.40002441406</ele>
        <time>2012-05-26T15:53:48Z</time>
      </trkpt>
      <trkpt lat="45.44915" lon="5.19501">
        <ele>555.30004882812</ele>
        <time>2012-05-26T15:54:02Z</time>
      </trkpt>
      <trkpt lat="45.44899" lon="5.19517">
        <ele>552.59997558594</ele>
        <time>2012-05-26T15:54:18Z</time>
      </trkpt>
      <trkpt lat="45.44891" lon="5.19524">
        <ele>551.90002441406</ele>
        <time>2012-05-26T15:54:25Z</time>
      </trkpt>
      <trkpt lat="45.44882" lon="5.19529">
        <ele>551.30004882812</ele>
        <time>2012-05-26T15:54:31Z</time>
      </trkpt>
      <trkpt lat="45.44871" lon="5.19526">
        <ele>551.40002441406</ele>
        <time>2012-05-26T15:54:36Z</time>
      </trkpt>
      <trkpt lat="45.4485" lon="5.19496">
        <ele>549.80004882812</ele>
        <time>2012-05-26T15:54:57Z</time>
      </trkpt>
      <trkpt lat="45.44838" lon="5.19457">
        <ele>550.69995117188</ele>
        <time>2012-05-26T15:55:19Z</time>
      </trkpt>
      <trkpt lat="45.44814" lon="5.19432">
        <ele>551.59997558594</ele>
        <time>2012-05-26T15:55:33Z</time>
      </trkpt>
      <trkpt lat="45.44798" lon="5.19419">
        <ele>551.80004882812</ele>
        <time>2012-05-26T15:55:45Z</time>
      </trkpt>
      <trkpt lat="45.44786" lon="5.19396">
        <ele>554.40002441406</ele>
        <time>2012-05-26T15:56:02Z</time>
      </trkpt>
      <trkpt lat="45.44767" lon="5.19394">
        <ele>555.09997558594</ele>
        <time>2012-05-26T15:56:15Z</time>
      </trkpt>
      <trkpt lat="45.4476" lon="5.19386">
        <ele>556.5</ele>
        <time>2012-05-26T15:56:23Z</time>
      </trkpt>
      <trkpt lat="45.44742" lon="5.19378">
        <ele>558</ele>
        <time>2012-05-26T15:56:39Z</time>
      </trkpt>
      <trkpt lat="45.44723" lon="5.19369">
        <ele>560.59997558594</ele>
        <time>2012-05-26T15:56:53Z</time>
      </trkpt>
      <trkpt lat="45.44704" lon="5.19365">
        <ele>560.80004882812</ele>
        <time>2012-05-26T15:57:08Z</time>
      </trkpt>
      <trkpt lat="45.44684" lon="5.19367">
        <ele>559.80004882812</ele>
        <time>2012-05-26T15:57:22Z</time>
      </trkpt>
      <trkpt lat="45.44665" lon="5.19372">
        <ele>559.59997558594</ele>
        <time>2012-05-26T15:57:36Z</time>
      </trkpt>
      <trkpt lat="45.44655" lon="5.19377">
        <ele>560.80004882812</ele>
        <time>2012-05-26T15:57:43Z</time>
      </trkpt>
      <trkpt lat="45.44647" lon="5.19383">
        <ele>562</ele>
        <time>2012-05-26T15:57:50Z</time>
      </trkpt>
      <trkpt lat="45.44632" lon="5.19401">
        <ele>562.5</ele>
        <time>2012-05-26T15:58:03Z</time>
      </trkpt>
      <trkpt lat="45.44625" lon="5.19409">
        <ele>562.80004882812</ele>
        <time>2012-05-26T15:58:10Z</time>
      </trkpt>
      <trkpt lat="45.44615" lon="5.19413">
        <ele>562.5</ele>
        <time>2012-05-26T15:58:18Z</time>
      </trkpt>
      <trkpt lat="45.44591" lon="5.19391">
        <ele>560</ele>
        <time>2012-05-26T15:59:14Z</time>
      </trkpt>
      <trkpt lat="45.44577" lon="5.19371">
        <ele>559.19995117188</ele>
        <time>2012-05-26T15:59:29Z</time>
      </trkpt>
      <trkpt lat="45.44564" lon="5.19333">
        <ele>560.80004882812</ele>
        <time>2012-05-26T15:59:49Z</time>
      </trkpt>
      <trkpt lat="45.44553" lon="5.19296">
        <ele>563.5</ele>
        <time>2012-05-26T16:00:07Z</time>
      </trkpt>
      <trkpt lat="45.44551" lon="5.19256">
        <ele>564.30004882812</ele>
        <time>2012-05-26T16:00:27Z</time>
      </trkpt>
      <trkpt lat="45.44564" lon="5.19218">
        <ele>563.80004882812</ele>
        <time>2012-05-26T16:00:50Z</time>
      </trkpt>
      <trkpt lat="45.44576" lon="5.19179">
        <ele>564.19995117188</ele>
        <time>2012-05-26T16:01:10Z</time>
      </trkpt>
      <trkpt lat="45.44579" lon="5.19141">
        <ele>565.69995117188</ele>
        <time>2012-05-26T16:01:30Z</time>
      </trkpt>
      <trkpt lat="45.44575" lon="5.19101">
        <ele>564.69995117188</ele>
        <time>2012-05-26T16:01:49Z</time>
      </trkpt>
      <trkpt lat="45.44553" lon="5.19076">
        <ele>563.90002441406</ele>
        <time>2012-05-26T16:02:02Z</time>
      </trkpt>
      <trkpt lat="45.44524" lon="5.19068">
        <ele>565</ele>
        <time>2012-05-26T16:02:21Z</time>
      </trkpt>
      <trkpt lat="45.44504" lon="5.19064">
        <ele>566.90002441406</ele>
        <time>2012-05-26T16:02:35Z</time>
      </trkpt>
      <trkpt lat="45.44475" lon="5.19058">
        <ele>569.69995117188</ele>
        <time>2012-05-26T16:02:57Z</time>
      </trkpt>
      <trkpt lat="45.44456" lon="5.19055">
        <ele>570.59997558594</ele>
        <time>2012-05-26T16:03:10Z</time>
      </trkpt>
      <trkpt lat="45.44438" lon="5.19064">
        <ele>573.19995117188</ele>
        <time>2012-05-26T16:03:24Z</time>
      </trkpt>
      <trkpt lat="45.4442" lon="5.1907">
        <ele>575.69995117188</ele>
        <time>2012-05-26T16:03:37Z</time>
      </trkpt>
      <trkpt lat="45.444" lon="5.19079">
        <ele>578.40002441406</ele>
        <time>2012-05-26T16:03:51Z</time>
      </trkpt>
      <trkpt lat="45.44381" lon="5.19085">
        <ele>580.09997558594</ele>
        <time>2012-05-26T16:04:05Z</time>
      </trkpt>
      <trkpt lat="45.44361" lon="5.19093">
        <ele>582.80004882812</ele>
        <time>2012-05-26T16:04:19Z</time>
      </trkpt>
      <trkpt lat="45.44344" lon="5.19106">
        <ele>585.80004882812</ele>
        <time>2012-05-26T16:04:39Z</time>
      </trkpt>
      <trkpt lat="45.44334" lon="5.1908">
        <ele>589.19995117188</ele>
        <time>2012-05-26T16:05:01Z</time>
      </trkpt>
      <trkpt lat="45.44319" lon="5.19054">
        <ele>588.19995117188</ele>
        <time>2012-05-26T16:05:20Z</time>
      </trkpt>
      <trkpt lat="45.443" lon="5.1905">
        <ele>586.59997558594</ele>
        <time>2012-05-26T16:05:32Z</time>
      </trkpt>
      <trkpt lat="45.44281" lon="5.19044">
        <ele>588.09997558594</ele>
        <time>2012-05-26T16:05:45Z</time>
      </trkpt>
      <trkpt lat="45.44262" lon="5.19033">
        <ele>588.40002441406</ele>
        <time>2012-05-26T16:05:59Z</time>
      </trkpt>
      <trkpt lat="45.44234" lon="5.19039">
        <ele>589.80004882812</ele>
        <time>2012-05-26T16:06:20Z</time>
      </trkpt>
      <trkpt lat="45.44215" lon="5.19048">
        <ele>590.5</ele>
        <time>2012-05-26T16:06:34Z</time>
      </trkpt>
      <trkpt lat="45.44187" lon="5.19055">
        <ele>594.09997558594</ele>
        <time>2012-05-26T16:06:54Z</time>
      </trkpt>
      <trkpt lat="45.44168" lon="5.19058">
        <ele>595.19995117188</ele>
        <time>2012-05-26T16:07:08Z</time>
      </trkpt>
      <trkpt lat="45.44148" lon="5.19065">
        <ele>597.19995117188</ele>
        <time>2012-05-26T16:07:23Z</time>
      </trkpt>
      <trkpt lat="45.44117" lon="5.19084">
        <ele>599</ele>
        <time>2012-05-26T16:07:33Z</time>
      </trkpt>
      <trkpt lat="45.44098" lon="5.19096">
        <ele>598.69995117188</ele>
        <time>2012-05-26T16:07:41Z</time>
      </trkpt>
      <trkpt lat="45.44079" lon="5.19103">
        <ele>599.90002441406</ele>
        <time>2012-05-26T16:07:54Z</time>
      </trkpt>
      <trkpt lat="45.44052" lon="5.1911">
        <ele>599.69995117188</ele>
        <time>2012-05-26T16:08:17Z</time>
      </trkpt>
      <trkpt lat="45.44026" lon="5.19124">
        <ele>600.30004882812</ele>
        <time>2012-05-26T16:08:37Z</time>
      </trkpt>
      <trkpt lat="45.44006" lon="5.19129">
        <ele>601.09997558594</ele>
        <time>2012-05-26T16:08:49Z</time>
      </trkpt>
      <trkpt lat="45.43986" lon="5.19129">
        <ele>599.09997558594</ele>
        <time>2012-05-26T16:09:00Z</time>
      </trkpt>
      <trkpt lat="45.43966" lon="5.19123">
        <ele>598.69995117188</ele>
        <time>2012-05-26T16:09:12Z</time>
      </trkpt>
      <trkpt lat="45.43947" lon="5.19124">
        <ele>598.40002441406</ele>
        <time>2012-05-26T16:09:25Z</time>
      </trkpt>
      <trkpt lat="45.43925" lon="5.19125">
        <ele>598.40002441406</ele>
        <time>2012-05-26T16:09:33Z</time>
      </trkpt>
      <trkpt lat="45.43907" lon="5.19129">
        <ele>599</ele>
        <time>2012-05-26T16:09:46Z</time>
      </trkpt>
      <trkpt lat="45.43888" lon="5.19129">
        <ele>598.90002441406</ele>
        <time>2012-05-26T16:09:59Z</time>
      </trkpt>
      <trkpt lat="45.43869" lon="5.19132">
        <ele>598.90002441406</ele>
        <time>2012-05-26T16:10:12Z</time>
      </trkpt>
      <trkpt lat="45.4385" lon="5.1913">
        <ele>598.30004882812</ele>
        <time>2012-05-26T16:10:26Z</time>
      </trkpt>
      <trkpt lat="45.43822" lon="5.19137">
        <ele>599.09997558594</ele>
        <time>2012-05-26T16:10:46Z</time>
      </trkpt>
      <trkpt lat="45.43794" lon="5.19125">
        <ele>598.69995117188</ele>
        <time>2012-05-26T16:11:04Z</time>
      </trkpt>
      <trkpt lat="45.43785" lon="5.19082">
        <ele>597.09997558594</ele>
        <time>2012-05-26T16:11:13Z</time>
      </trkpt>
      <trkpt lat="45.43783" lon="5.19048">
        <ele>597.5</ele>
        <time>2012-05-26T16:11:19Z</time>
      </trkpt>
      <trkpt lat="45.43791" lon="5.19008">
        <ele>599.09997558594</ele>
        <time>2012-05-26T16:11:28Z</time>
      </trkpt>
      <trkpt lat="45.43809" lon="5.1897">
        <ele>600.5</ele>
        <time>2012-05-26T16:11:43Z</time>
      </trkpt>
      <trkpt lat="45.43807" lon="5.18942">
        <ele>598.80004882812</ele>
        <time>2012-05-26T16:11:56Z</time>
      </trkpt>
      <trkpt lat="45.43792" lon="5.18916">
        <ele>599.80004882812</ele>
        <time>2012-05-26T16:12:16Z</time>
      </trkpt>
      <trkpt lat="45.43772" lon="5.18913">
        <ele>600.5</ele>
        <time>2012-05-26T16:12:27Z</time>
      </trkpt>
      <trkpt lat="45.43752" lon="5.18917">
        <ele>600.09997558594</ele>
        <time>2012-05-26T16:12:42Z</time>
      </trkpt>
      <trkpt lat="45.43732" lon="5.1892">
        <ele>598</ele>
        <time>2012-05-26T16:12:55Z</time>
      </trkpt>
      <trkpt lat="45.43712" lon="5.18918">
        <ele>595.40002441406</ele>
        <time>2012-05-26T16:13:08Z</time>
      </trkpt>
      <trkpt lat="45.43682" lon="5.18915">
        <ele>593</ele>
        <time>2012-05-26T16:13:28Z</time>
      </trkpt>
      <trkpt lat="45.43664" lon="5.1889">
        <ele>594.30004882812</ele>
        <time>2012-05-26T16:13:49Z</time>
      </trkpt>
      <trkpt lat="45.43667" lon="5.1885">
        <ele>599.80004882812</ele>
        <time>2012-05-26T16:14:09Z</time>
      </trkpt>
      <trkpt lat="45.43679" lon="5.18829">
        <ele>599.5</ele>
        <time>2012-05-26T16:14:23Z</time>
      </trkpt>
      <trkpt lat="45.43702" lon="5.18803">
        <ele>597.59997558594</ele>
        <time>2012-05-26T16:14:45Z</time>
      </trkpt>
      <trkpt lat="45.43716" lon="5.1878">
        <ele>591.40002441406</ele>
        <time>2012-05-26T16:15:28Z</time>
      </trkpt>
      <trkpt lat="45.43722" lon="5.18754">
        <ele>589.5</ele>
        <time>2012-05-26T16:15:47Z</time>
      </trkpt>
      <trkpt lat="45.43731" lon="5.1873">
        <ele>591.09997558594</ele>
        <time>2012-05-26T16:16:05Z</time>
      </trkpt>
      <trkpt lat="45.43737" lon="5.18704">
        <ele>592.40002441406</ele>
        <time>2012-05-26T16:16:20Z</time>
      </trkpt>
      <trkpt lat="45.43749" lon="5.18667">
        <ele>595.80004882812</ele>
        <time>2012-05-26T16:16:39Z</time>
      </trkpt>
      <trkpt lat="45.43766" lon="5.18633">
        <ele>597.90002441406</ele>
        <time>2012-05-26T16:16:59Z</time>
      </trkpt>
      <trkpt lat="45.43778" lon="5.18611">
        <ele>602.69995117188</ele>
        <time>2012-05-26T16:17:14Z</time>
      </trkpt>
      <trkpt lat="45.43803" lon="5.18579">
        <ele>603.80004882812</ele>
        <time>2012-05-26T16:17:41Z</time>
      </trkpt>
      <trkpt lat="45.43824" lon="5.18551">
        <ele>605.30004882812</ele>
        <time>2012-05-26T16:18:04Z</time>
      </trkpt>
      <trkpt lat="45.43837" lon="5.18513">
        <ele>608.59997558594</ele>
        <time>2012-05-26T16:18:22Z</time>
      </trkpt>
      <trkpt lat="45.43852" lon="5.18479">
        <ele>607.40002441406</ele>
        <time>2012-05-26T16:18:46Z</time>
      </trkpt>
      <trkpt lat="45.43864" lon="5.18442">
        <ele>604</ele>
        <time>2012-05-26T16:19:02Z</time>
      </trkpt>
      <trkpt lat="45.43863" lon="5.18403">
        <ele>603.19995117188</ele>
        <time>2012-05-26T16:19:21Z</time>
      </trkpt>
      <trkpt lat="45.43838" lon="5.18397">
        <ele>592.40002441406</ele>
        <time>2012-05-26T16:19:45Z</time>
      </trkpt>
      <trkpt lat="45.43812" lon="5.18397">
        <ele>594.90002441406</ele>
        <time>2012-05-26T16:20:17Z</time>
      </trkpt>
      <trkpt lat="45.43786" lon="5.18381">
        <ele>592.59997558594</ele>
        <time>2012-05-26T16:20:39Z</time>
      </trkpt>
      <trkpt lat="45.43769" lon="5.1837">
        <ele>589.59997558594</ele>
        <time>2012-05-26T16:20:53Z</time>
      </trkpt>
      <trkpt lat="45.43752" lon="5.18355">
        <ele>586.40002441406</ele>
        <time>2012-05-26T16:21:07Z</time>
      </trkpt>
      <trkpt lat="45.43726" lon="5.18338">
        <ele>586.30004882812</ele>
        <time>2012-05-26T16:21:27Z</time>
      </trkpt>
      <trkpt lat="45.43707" lon="5.18329">
        <ele>586.5</ele>
        <time>2012-05-26T16:21:40Z</time>
      </trkpt>
      <trkpt lat="45.43688" lon="5.18324">
        <ele>586.19995117188</ele>
        <time>2012-05-26T16:21:48Z</time>
      </trkpt>
      <trkpt lat="45.43665" lon="5.18321">
        <ele>585.5</ele>
        <time>2012-05-26T16:21:54Z</time>
      </trkpt>
      <trkpt lat="45.43646" lon="5.18316">
        <ele>585.59997558594</ele>
        <time>2012-05-26T16:22:00Z</time>
      </trkpt>
      <trkpt lat="45.43629" lon="5.18301">
        <ele>584.69995117188</ele>
        <time>2012-05-26T16:22:06Z</time>
      </trkpt>
      <trkpt lat="45.43613" lon="5.18281">
        <ele>584.80004882812</ele>
        <time>2012-05-26T16:22:12Z</time>
      </trkpt>
      <trkpt lat="45.43587" lon="5.18257">
        <ele>586.59997558594</ele>
        <time>2012-05-26T16:22:23Z</time>
      </trkpt>
      <trkpt lat="45.43564" lon="5.18233">
        <ele>588</ele>
        <time>2012-05-26T16:22:47Z</time>
      </trkpt>
      <trkpt lat="45.4354" lon="5.18209">
        <ele>589.90002441406</ele>
        <time>2012-05-26T16:23:10Z</time>
      </trkpt>
      <trkpt lat="45.43517" lon="5.18184">
        <ele>589.59997558594</ele>
        <time>2012-05-26T16:23:28Z</time>
      </trkpt>
      <trkpt lat="45.43499" lon="5.1815">
        <ele>587.59997558594</ele>
        <time>2012-05-26T16:23:49Z</time>
      </trkpt>
      <trkpt lat="45.43476" lon="5.18117">
        <ele>585.80004882812</ele>
        <time>2012-05-26T16:24:02Z</time>
      </trkpt>
      <trkpt lat="45.43459" lon="5.18094">
        <ele>586.40002441406</ele>
        <time>2012-05-26T16:24:08Z</time>
      </trkpt>
      <trkpt lat="45.43446" lon="5.18073">
        <ele>586.30004882812</ele>
        <time>2012-05-26T16:24:17Z</time>
      </trkpt>
      <trkpt lat="45.43432" lon="5.18054">
        <ele>588.40002441406</ele>
        <time>2012-05-26T16:24:38Z</time>
      </trkpt>
      <trkpt lat="45.43418" lon="5.18034">
        <ele>586.90002441406</ele>
        <time>2012-05-26T16:24:56Z</time>
      </trkpt>
      <trkpt lat="45.43403" lon="5.18017">
        <ele>587.19995117188</ele>
        <time>2012-05-26T16:25:08Z</time>
      </trkpt>
      <trkpt lat="45.43387" lon="5.17979">
        <ele>587.09997558594</ele>
        <time>2012-05-26T16:25:29Z</time>
      </trkpt>
      <trkpt lat="45.43376" lon="5.17954">
        <ele>587.80004882812</ele>
        <time>2012-05-26T16:25:43Z</time>
      </trkpt>
      <trkpt lat="45.43365" lon="5.17933">
        <ele>587.5</ele>
        <time>2012-05-26T16:25:55Z</time>
      </trkpt>
      <trkpt lat="45.43355" lon="5.17907">
        <ele>588.69995117188</ele>
        <time>2012-05-26T16:26:07Z</time>
      </trkpt>
      <trkpt lat="45.43352" lon="5.17879">
        <ele>590.40002441406</ele>
        <time>2012-05-26T16:26:21Z</time>
      </trkpt>
      <trkpt lat="45.43354" lon="5.17851">
        <ele>590.30004882812</ele>
        <time>2012-05-26T16:26:30Z</time>
      </trkpt>
      <trkpt lat="45.43355" lon="5.17807">
        <ele>591.59997558594</ele>
        <time>2012-05-26T16:26:42Z</time>
      </trkpt>
      <trkpt lat="45.43362" lon="5.17766">
        <ele>592.5</ele>
        <time>2012-05-26T16:26:58Z</time>
      </trkpt>
      <trkpt lat="45.43365" lon="5.17739">
        <ele>590.30004882812</ele>
        <time>2012-05-26T16:27:10Z</time>
      </trkpt>
      <trkpt lat="45.43366" lon="5.17712">
        <ele>588.19995117188</ele>
        <time>2012-05-26T16:27:25Z</time>
      </trkpt>
      <trkpt lat="45.43364" lon="5.17685">
        <ele>586.09997558594</ele>
        <time>2012-05-26T16:27:39Z</time>
      </trkpt>
      <trkpt lat="45.43365" lon="5.17657">
        <ele>585.30004882812</ele>
        <time>2012-05-26T16:27:51Z</time>
      </trkpt>
      <trkpt lat="45.43368" lon="5.1763">
        <ele>585.80004882812</ele>
        <time>2012-05-26T16:28:04Z</time>
      </trkpt>
      <trkpt lat="45.4337" lon="5.17603">
        <ele>587.40002441406</ele>
        <time>2012-05-26T16:28:19Z</time>
      </trkpt>
      <trkpt lat="45.43375" lon="5.17571">
        <ele>586.09997558594</ele>
        <time>2012-05-26T16:28:28Z</time>
      </trkpt>
      <trkpt lat="45.43376" lon="5.17525">
        <ele>585</ele>
        <time>2012-05-26T16:28:36Z</time>
      </trkpt>
      <trkpt lat="45.43374" lon="5.17483">
        <ele>587.69995117188</ele>
        <time>2012-05-26T16:28:52Z</time>
      </trkpt>
      <trkpt lat="45.43363" lon="5.17448">
        <ele>589.5</ele>
        <time>2012-05-26T16:29:17Z</time>
      </trkpt>
      <trkpt lat="45.4335" lon="5.17426">
        <ele>589.59997558594</ele>
        <time>2012-05-26T16:29:30Z</time>
      </trkpt>
      <trkpt lat="45.43332" lon="5.17393">
        <ele>587.80004882812</ele>
        <time>2012-05-26T16:29:53Z</time>
      </trkpt>
      <trkpt lat="45.43317" lon="5.17358">
        <ele>585.30004882812</ele>
        <time>2012-05-26T16:30:14Z</time>
      </trkpt>
      <trkpt lat="45.43305" lon="5.17334">
        <ele>581.80004882812</ele>
        <time>2012-05-26T16:30:23Z</time>
      </trkpt>
      <trkpt lat="45.43288" lon="5.1732">
        <ele>582.30004882812</ele>
        <time>2012-05-26T16:30:35Z</time>
      </trkpt>
      <trkpt lat="45.4328" lon="5.17313">
        <ele>581.69995117188</ele>
        <time>2012-05-26T16:30:41Z</time>
      </trkpt>
      <trkpt lat="45.43263" lon="5.17301">
        <ele>580.5</ele>
        <time>2012-05-26T16:30:54Z</time>
      </trkpt>
      <trkpt lat="45.43236" lon="5.17293">
        <ele>579.30004882812</ele>
        <time>2012-05-26T16:31:18Z</time>
      </trkpt>
      <trkpt lat="45.43205" lon="5.17288">
        <ele>579.5</ele>
        <time>2012-05-26T16:31:28Z</time>
      </trkpt>
      <trkpt lat="45.43174" lon="5.17282">
        <ele>578.30004882812</ele>
        <time>2012-05-26T16:31:37Z</time>
      </trkpt>
      <trkpt lat="45.43155" lon="5.17277">
        <ele>577.5</ele>
        <time>2012-05-26T16:31:50Z</time>
      </trkpt>
      <trkpt lat="45.43137" lon="5.17272">
        <ele>578.59997558594</ele>
        <time>2012-05-26T16:32:01Z</time>
      </trkpt>
      <trkpt lat="45.43118" lon="5.17264">
        <ele>577.80004882812</ele>
        <time>2012-05-26T16:32:16Z</time>
      </trkpt>
      <trkpt lat="45.43099" lon="5.17254">
        <ele>577.69995117188</ele>
        <time>2012-05-26T16:32:31Z</time>
      </trkpt>
      <trkpt lat="45.43079" lon="5.17251">
        <ele>577.80004882812</ele>
        <time>2012-05-26T16:32:44Z</time>
      </trkpt>
      <trkpt lat="45.4306" lon="5.17246">
        <ele>578.80004882812</ele>
        <time>2012-05-26T16:32:58Z</time>
      </trkpt>
      <trkpt lat="45.43045" lon="5.17228">
        <ele>578.90002441406</ele>
        <time>2012-05-26T16:33:14Z</time>
      </trkpt>
      <trkpt lat="45.43023" lon="5.172">
        <ele>581.59997558594</ele>
        <time>2012-05-26T16:33:35Z</time>
      </trkpt>
      <trkpt lat="45.43008" lon="5.17179">
        <ele>583.80004882812</ele>
        <time>2012-05-26T16:33:47Z</time>
      </trkpt>
      <trkpt lat="45.42992" lon="5.17144">
        <ele>584.40002441406</ele>
        <time>2012-05-26T16:34:07Z</time>
      </trkpt>
      <trkpt lat="45.42978" lon="5.1711">
        <ele>583.40002441406</ele>
        <time>2012-05-26T16:34:29Z</time>
      </trkpt>
      <trkpt lat="45.42974" lon="5.1708">
        <ele>582.40002441406</ele>
        <time>2012-05-26T16:34:41Z</time>
      </trkpt>
      <trkpt lat="45.42977" lon="5.17039">
        <ele>585.19995117188</ele>
        <time>2012-05-26T16:34:57Z</time>
      </trkpt>
      <trkpt lat="45.42984" lon="5.17013">
        <ele>584.90002441406</ele>
        <time>2012-05-26T16:35:11Z</time>
      </trkpt>
      <trkpt lat="45.42995" lon="5.16992">
        <ele>577.30004882812</ele>
        <time>2012-05-26T16:35:23Z</time>
      </trkpt>
      <trkpt lat="45.43" lon="5.16981">
        <ele>573.59997558594</ele>
        <time>2012-05-26T16:35:30Z</time>
      </trkpt>
      <trkpt lat="45.43012" lon="5.16959">
        <ele>573.5</ele>
        <time>2012-05-26T16:35:40Z</time>
      </trkpt>
      <trkpt lat="45.43034" lon="5.16929">
        <ele>575.19995117188</ele>
        <time>2012-05-26T16:35:53Z</time>
      </trkpt>
      <trkpt lat="45.43048" lon="5.16905">
        <ele>575.09997558594</ele>
        <time>2012-05-26T16:36:04Z</time>
      </trkpt>
      <trkpt lat="45.43062" lon="5.16883">
        <ele>572.09997558594</ele>
        <time>2012-05-26T16:36:09Z</time>
      </trkpt>
      <trkpt lat="45.43078" lon="5.16863">
        <ele>574.40002441406</ele>
        <time>2012-05-26T16:36:16Z</time>
      </trkpt>
      <trkpt lat="45.43091" lon="5.16841">
        <ele>574.30004882812</ele>
        <time>2012-05-26T16:36:31Z</time>
      </trkpt>
      <trkpt lat="45.43104" lon="5.16821">
        <ele>573.90002441406</ele>
        <time>2012-05-26T16:36:46Z</time>
      </trkpt>
      <trkpt lat="45.43111" lon="5.16796">
        <ele>573</ele>
        <time>2012-05-26T16:36:59Z</time>
      </trkpt>
      <trkpt lat="45.43116" lon="5.16767">
        <ele>575.30004882812</ele>
        <time>2012-05-26T16:37:13Z</time>
      </trkpt>
      <trkpt lat="45.43128" lon="5.16748">
        <ele>576.59997558594</ele>
        <time>2012-05-26T16:37:56Z</time>
      </trkpt>
      <trkpt lat="45.43142" lon="5.16726">
        <ele>577.40002441406</ele>
        <time>2012-05-26T16:38:13Z</time>
      </trkpt>
      <trkpt lat="45.43155" lon="5.16706">
        <ele>576.09997558594</ele>
        <time>2012-05-26T16:38:26Z</time>
      </trkpt>
      <trkpt lat="45.43168" lon="5.16685">
        <ele>578.30004882812</ele>
        <time>2012-05-26T16:38:41Z</time>
      </trkpt>
      <trkpt lat="45.4318" lon="5.16641">
        <ele>583.80004882812</ele>
        <time>2012-05-26T16:39:08Z</time>
      </trkpt>
      <trkpt lat="45.43191" lon="5.16618">
        <ele>586.5</ele>
        <time>2012-05-26T16:39:21Z</time>
      </trkpt>
      <trkpt lat="45.43201" lon="5.16593">
        <ele>586.5</ele>
        <time>2012-05-26T16:39:35Z</time>
      </trkpt>
      <trkpt lat="45.43215" lon="5.16573">
        <ele>586.40002441406</ele>
        <time>2012-05-26T16:39:50Z</time>
      </trkpt>
      <trkpt lat="45.43227" lon="5.16549">
        <ele>589</ele>
        <time>2012-05-26T16:40:05Z</time>
      </trkpt>
      <trkpt lat="45.4324" lon="5.16514">
        <ele>590.19995117188</ele>
        <time>2012-05-26T16:40:27Z</time>
      </trkpt>
      <trkpt lat="45.43255" lon="5.16499">
        <ele>592.80004882812</ele>
        <time>2012-05-26T16:40:41Z</time>
      </trkpt>
      <trkpt lat="45.43278" lon="5.16475">
        <ele>591.59997558594</ele>
        <time>2012-05-26T16:41:00Z</time>
      </trkpt>
      <trkpt lat="45.43307" lon="5.16457">
        <ele>587.80004882812</ele>
        <time>2012-05-26T16:41:10Z</time>
      </trkpt>
      <trkpt lat="45.43338" lon="5.16449">
        <ele>584</ele>
        <time>2012-05-26T16:41:16Z</time>
      </trkpt>
      <trkpt lat="45.43377" lon="5.16431">
        <ele>583.09997558594</ele>
        <time>2012-05-26T16:41:24Z</time>
      </trkpt>
      <trkpt lat="45.43403" lon="5.16416">
        <ele>582.69995117188</ele>
        <time>2012-05-26T16:41:30Z</time>
      </trkpt>
      <trkpt lat="45.43433" lon="5.164">
        <ele>581.69995117188</ele>
        <time>2012-05-26T16:41:40Z</time>
      </trkpt>
      <trkpt lat="45.43449" lon="5.16384">
        <ele>580.09997558594</ele>
        <time>2012-05-26T16:41:55Z</time>
      </trkpt>
      <trkpt lat="45.43463" lon="5.16364">
        <ele>577.80004882812</ele>
        <time>2012-05-26T16:42:14Z</time>
      </trkpt>
      <trkpt lat="45.43463" lon="5.16327">
        <ele>584.5</ele>
        <time>2012-05-26T16:42:54Z</time>
      </trkpt>
      <trkpt lat="45.43461" lon="5.163">
        <ele>586</ele>
        <time>2012-05-26T16:43:11Z</time>
      </trkpt>
      <trkpt lat="45.43465" lon="5.16273">
        <ele>586.80004882812</ele>
        <time>2012-05-26T16:43:25Z</time>
      </trkpt>
      <trkpt lat="45.43468" lon="5.16245">
        <ele>587.59997558594</ele>
        <time>2012-05-26T16:43:39Z</time>
      </trkpt>
      <trkpt lat="45.43469" lon="5.16217">
        <ele>586.30004882812</ele>
        <time>2012-05-26T16:43:49Z</time>
      </trkpt>
      <trkpt lat="45.43466" lon="5.16185">
        <ele>581.90002441406</ele>
        <time>2012-05-26T16:44:23Z</time>
      </trkpt>
      <trkpt lat="45.43481" lon="5.16166">
        <ele>578.80004882812</ele>
        <time>2012-05-26T16:45:05Z</time>
      </trkpt>
      <trkpt lat="45.43493" lon="5.16146">
        <ele>583.80004882812</ele>
        <time>2012-05-26T16:45:21Z</time>
      </trkpt>
      <trkpt lat="45.43509" lon="5.1613">
        <ele>584.69995117188</ele>
        <time>2012-05-26T16:45:42Z</time>
      </trkpt>
      <trkpt lat="45.43524" lon="5.16113">
        <ele>579.69995117188</ele>
        <time>2012-05-26T16:45:54Z</time>
      </trkpt>
      <trkpt lat="45.43534" lon="5.16094">
        <ele>583.19995117188</ele>
        <time>2012-05-26T16:46:16Z</time>
      </trkpt>
      <trkpt lat="45.43544" lon="5.16072">
        <ele>586</ele>
        <time>2012-05-26T16:46:38Z</time>
      </trkpt>
      <trkpt lat="45.43558" lon="5.16053">
        <ele>586.09997558594</ele>
        <time>2012-05-26T16:46:59Z</time>
      </trkpt>
      <trkpt lat="45.43573" lon="5.16034">
        <ele>586.5</ele>
        <time>2012-05-26T16:47:13Z</time>
      </trkpt>
      <trkpt lat="45.4359" lon="5.16017">
        <ele>587.90002441406</ele>
        <time>2012-05-26T16:47:26Z</time>
      </trkpt>
      <trkpt lat="45.43603" lon="5.16">
        <ele>588.19995117188</ele>
        <time>2012-05-26T16:47:38Z</time>
      </trkpt>
      <trkpt lat="45.43621" lon="5.15987">
        <ele>588.69995117188</ele>
        <time>2012-05-26T16:47:45Z</time>
      </trkpt>
      <trkpt lat="45.43645" lon="5.15958">
        <ele>584.80004882812</ele>
        <time>2012-05-26T16:47:54Z</time>
      </trkpt>
      <trkpt lat="45.43668" lon="5.15925">
        <ele>584.90002441406</ele>
        <time>2012-05-26T16:48:03Z</time>
      </trkpt>
      <trkpt lat="45.43691" lon="5.15894">
        <ele>587</ele>
        <time>2012-05-26T16:48:19Z</time>
      </trkpt>
      <trkpt lat="45.43704" lon="5.15877">
        <ele>587.5</ele>
        <time>2012-05-26T16:48:32Z</time>
      </trkpt>
      <trkpt lat="45.43722" lon="5.15865">
        <ele>589.5</ele>
        <time>2012-05-26T16:48:47Z</time>
      </trkpt>
      <trkpt lat="45.4374" lon="5.15852">
        <ele>588.69995117188</ele>
        <time>2012-05-26T16:48:59Z</time>
      </trkpt>
      <trkpt lat="45.43757" lon="5.15837">
        <ele>589.5</ele>
        <time>2012-05-26T16:49:09Z</time>
      </trkpt>
      <trkpt lat="45.43772" lon="5.15819">
        <ele>583.09997558594</ele>
        <time>2012-05-26T16:49:18Z</time>
      </trkpt>
      <trkpt lat="45.4378" lon="5.15795">
        <ele>586.90002441406</ele>
        <time>2012-05-26T16:49:33Z</time>
      </trkpt>
      <trkpt lat="45.43785" lon="5.15768">
        <ele>589.80004882812</ele>
        <time>2012-05-26T16:49:58Z</time>
      </trkpt>
      <trkpt lat="45.43801" lon="5.15751">
        <ele>589.19995117188</ele>
        <time>2012-05-26T16:50:13Z</time>
      </trkpt>
      <trkpt lat="45.4382" lon="5.15745">
        <ele>589.09997558594</ele>
        <time>2012-05-26T16:50:31Z</time>
      </trkpt>
      <trkpt lat="45.43839" lon="5.15733">
        <ele>590.09997558594</ele>
        <time>2012-05-26T16:50:45Z</time>
      </trkpt>
      <trkpt lat="45.43861" lon="5.1573">
        <ele>585.59997558594</ele>
        <time>2012-05-26T16:50:55Z</time>
      </trkpt>
      <trkpt lat="45.43881" lon="5.15731">
        <ele>585.69995117188</ele>
        <time>2012-05-26T16:51:11Z</time>
      </trkpt>
      <trkpt lat="45.43891" lon="5.15697">
        <ele>580.5</ele>
        <time>2012-05-26T16:51:38Z</time>
      </trkpt>
      <trkpt lat="45.43887" lon="5.15669">
        <ele>579.30004882812</ele>
        <time>2012-05-26T16:51:56Z</time>
      </trkpt>
      <trkpt lat="45.43882" lon="5.15643">
        <ele>577.80004882812</ele>
        <time>2012-05-26T16:52:10Z</time>
      </trkpt>
      <trkpt lat="45.43882" lon="5.15616">
        <ele>579.80004882812</ele>
        <time>2012-05-26T16:52:22Z</time>
      </trkpt>
      <trkpt lat="45.43888" lon="5.15595">
        <ele>583.80004882812</ele>
        <time>2012-05-26T16:53:01Z</time>
      </trkpt>
      <trkpt lat="45.43892" lon="5.15569">
        <ele>582.69995117188</ele>
        <time>2012-05-26T16:53:15Z</time>
      </trkpt>
      <trkpt lat="45.43896" lon="5.15542">
        <ele>584.80004882812</ele>
        <time>2012-05-26T16:53:33Z</time>
      </trkpt>
      <trkpt lat="45.43897" lon="5.15514">
        <ele>584.59997558594</ele>
        <time>2012-05-26T16:53:48Z</time>
      </trkpt>
      <trkpt lat="45.43903" lon="5.1549">
        <ele>583.5</ele>
        <time>2012-05-26T16:53:56Z</time>
      </trkpt>
      <trkpt lat="45.43909" lon="5.15453">
        <ele>581</ele>
        <time>2012-05-26T16:54:24Z</time>
      </trkpt>
      <trkpt lat="45.43912" lon="5.15425">
        <ele>580</ele>
        <time>2012-05-26T16:54:35Z</time>
      </trkpt>
      <trkpt lat="45.43921" lon="5.15388">
        <ele>582.40002441406</ele>
        <time>2012-05-26T16:55:05Z</time>
      </trkpt>
      <trkpt lat="45.43922" lon="5.15345">
        <ele>578.19995117188</ele>
        <time>2012-05-26T16:55:48Z</time>
      </trkpt>
      <trkpt lat="45.43921" lon="5.15322">
        <ele>579.09997558594</ele>
        <time>2012-05-26T16:58:20Z</time>
      </trkpt>
      <trkpt lat="45.43928" lon="5.15298">
        <ele>580.69995117188</ele>
        <time>2012-05-26T16:58:43Z</time>
      </trkpt>
      <trkpt lat="45.4393" lon="5.15271">
        <ele>580.80004882812</ele>
        <time>2012-05-26T16:58:59Z</time>
      </trkpt>
      <trkpt lat="45.43932" lon="5.15226">
        <ele>578.5</ele>
        <time>2012-05-26T16:59:11Z</time>
      </trkpt>
      <trkpt lat="45.43938" lon="5.15181">
        <ele>578.30004882812</ele>
        <time>2012-05-26T16:59:18Z</time>
      </trkpt>
      <trkpt lat="45.43942" lon="5.15119">
        <ele>580.5</ele>
        <time>2012-05-26T16:59:28Z</time>
      </trkpt>
      <trkpt lat="45.4395" lon="5.15091">
        <ele>580.30004882812</ele>
        <time>2012-05-26T16:59:49Z</time>
      </trkpt>
      <trkpt lat="45.43955" lon="5.15066">
        <ele>578.69995117188</ele>
        <time>2012-05-26T17:00:02Z</time>
      </trkpt>
      <trkpt lat="45.43958" lon="5.15038">
        <ele>578.40002441406</ele>
        <time>2012-05-26T17:00:20Z</time>
      </trkpt>
      <trkpt lat="45.43966" lon="5.15014">
        <ele>577.90002441406</ele>
        <time>2012-05-26T17:00:41Z</time>
      </trkpt>
      <trkpt lat="45.43966" lon="5.14989">
        <ele>578.09997558594</ele>
        <time>2012-05-26T17:01:01Z</time>
      </trkpt>
      <trkpt lat="45.43969" lon="5.14962">
        <ele>578.19995117188</ele>
        <time>2012-05-26T17:01:15Z</time>
      </trkpt>
      <trkpt lat="45.43976" lon="5.14937">
        <ele>577.09997558594</ele>
        <time>2012-05-26T17:01:27Z</time>
      </trkpt>
      <trkpt lat="45.43979" lon="5.1491">
        <ele>578.69995117188</ele>
        <time>2012-05-26T17:01:44Z</time>
      </trkpt>
      <trkpt lat="45.43986" lon="5.14882">
        <ele>574.80004882812</ele>
        <time>2012-05-26T17:01:57Z</time>
      </trkpt>
      <trkpt lat="45.43988" lon="5.14854">
        <ele>574</ele>
        <time>2012-05-26T17:02:13Z</time>
      </trkpt>
      <trkpt lat="45.43984" lon="5.14828">
        <ele>573.59997558594</ele>
        <time>2012-05-26T17:02:25Z</time>
      </trkpt>
      <trkpt lat="45.4396" lon="5.14818">
        <ele>573.80004882812</ele>
        <time>2012-05-26T17:02:49Z</time>
      </trkpt>
      <trkpt lat="45.43944" lon="5.14806">
        <ele>571.30004882812</ele>
        <time>2012-05-26T17:03:04Z</time>
      </trkpt>
      <trkpt lat="45.43929" lon="5.14789">
        <ele>570.19995117188</ele>
        <time>2012-05-26T17:03:18Z</time>
      </trkpt>
      <trkpt lat="45.43927" lon="5.14775">
        <ele>573.5</ele>
        <time>2012-05-26T17:03:34Z</time>
      </trkpt>
      <trkpt lat="45.43927" lon="5.1476">
        <ele>574.09997558594</ele>
        <time>2012-05-26T17:03:43Z</time>
      </trkpt>
      <trkpt lat="45.43922" lon="5.14734">
        <ele>572.80004882812</ele>
        <time>2012-05-26T17:03:57Z</time>
      </trkpt>
      <trkpt lat="45.43921" lon="5.14721">
        <ele>571.5</ele>
        <time>2012-05-26T17:04:06Z</time>
      </trkpt>
      <trkpt lat="45.43921" lon="5.14703">
        <ele>571.90002441406</ele>
        <time>2012-05-26T17:05:06Z</time>
      </trkpt>
      <trkpt lat="45.43921" lon="5.14684">
        <ele>571.59997558594</ele>
        <time>2012-05-26T17:05:32Z</time>
      </trkpt>
      <trkpt lat="45.43926" lon="5.14672">
        <ele>569.80004882812</ele>
        <time>2012-05-26T17:05:44Z</time>
      </trkpt>
      <trkpt lat="45.43928" lon="5.14659">
        <ele>570.80004882812</ele>
        <time>2012-05-26T17:05:50Z</time>
      </trkpt>
      <trkpt lat="45.43928" lon="5.14646">
        <ele>572.30004882812</ele>
        <time>2012-05-26T17:05:56Z</time>
      </trkpt>
      <trkpt lat="45.43924" lon="5.14634">
        <ele>570.90002441406</ele>
        <time>2012-05-26T17:06:05Z</time>
      </trkpt>
      <trkpt lat="45.43919" lon="5.14622">
        <ele>570.69995117188</ele>
        <time>2012-05-26T17:06:15Z</time>
      </trkpt>
      <trkpt lat="45.43916" lon="5.1461">
        <ele>570.80004882812</ele>
        <time>2012-05-26T17:06:24Z</time>
      </trkpt>
      <trkpt lat="45.43914" lon="5.14591">
        <ele>571.40002441406</ele>
        <time>2012-05-26T17:06:38Z</time>
      </trkpt>
      <trkpt lat="45.43913" lon="5.14562">
        <ele>569.40002441406</ele>
        <time>2012-05-26T17:07:18Z</time>
      </trkpt>
      <trkpt lat="45.43913" lon="5.14535">
        <ele>568.80004882812</ele>
        <time>2012-05-26T17:07:44Z</time>
      </trkpt>
      <trkpt lat="45.4392" lon="5.1451">
        <ele>566.5</ele>
        <time>2012-05-26T17:07:57Z</time>
      </trkpt>
      <trkpt lat="45.43927" lon="5.14484">
        <ele>563.80004882812</ele>
        <time>2012-05-26T17:08:07Z</time>
      </trkpt>
      <trkpt lat="45.43932" lon="5.14459">
        <ele>565.69995117188</ele>
        <time>2012-05-26T17:08:20Z</time>
      </trkpt>
      <trkpt lat="45.43938" lon="5.14434">
        <ele>567.30004882812</ele>
        <time>2012-05-26T17:08:37Z</time>
      </trkpt>
      <trkpt lat="45.43945" lon="5.14409">
        <ele>566.69995117188</ele>
        <time>2012-05-26T17:08:51Z</time>
      </trkpt>
      <trkpt lat="45.43955" lon="5.14384">
        <ele>566.40002441406</ele>
        <time>2012-05-26T17:09:02Z</time>
      </trkpt>
      <trkpt lat="45.43962" lon="5.14358">
        <ele>566.59997558594</ele>
        <time>2012-05-26T17:09:14Z</time>
      </trkpt>
      <trkpt lat="45.43972" lon="5.14334">
        <ele>570</ele>
        <time>2012-05-26T17:09:32Z</time>
      </trkpt>
      <trkpt lat="45.43985" lon="5.14318">
        <ele>566.19995117188</ele>
        <time>2012-05-26T17:10:34Z</time>
      </trkpt>
      <trkpt lat="45.43987" lon="5.14303">
        <ele>561.30004882812</ele>
        <time>2012-05-26T17:12:52Z</time>
      </trkpt>
      <trkpt lat="45.43989" lon="5.14288">
        <ele>563.69995117188</ele>
        <time>2012-05-26T17:13:14Z</time>
      </trkpt>
      <trkpt lat="45.43993" lon="5.14263">
        <ele>564.30004882812</ele>
        <time>2012-05-26T17:13:43Z</time>
      </trkpt>
      <trkpt lat="45.44007" lon="5.14247">
        <ele>564.19995117188</ele>
        <time>2012-05-26T17:14:09Z</time>
      </trkpt>
      <trkpt lat="45.44018" lon="5.14224">
        <ele>563.40002441406</ele>
        <time>2012-05-26T17:14:30Z</time>
      </trkpt>
      <trkpt lat="45.44018" lon="5.14197">
        <ele>563.59997558594</ele>
        <time>2012-05-26T17:14:46Z</time>
      </trkpt>
      <trkpt lat="45.4401" lon="5.14171">
        <ele>564.30004882812</ele>
        <time>2012-05-26T17:15:01Z</time>
      </trkpt>
      <trkpt lat="45.44008" lon="5.14144">
        <ele>564</ele>
        <time>2012-05-26T17:15:20Z</time>
      </trkpt>
      <trkpt lat="45.44004" lon="5.14117">
        <ele>565.09997558594</ele>
        <time>2012-05-26T17:15:39Z</time>
      </trkpt>
      <trkpt lat="45.44006" lon="5.14091">
        <ele>564.19995117188</ele>
        <time>2012-05-26T17:15:54Z</time>
      </trkpt>
      <trkpt lat="45.44011" lon="5.14065">
        <ele>562.80004882812</ele>
        <time>2012-05-26T17:16:05Z</time>
      </trkpt>
      <trkpt lat="45.44006" lon="5.14024">
        <ele>566.19995117188</ele>
        <time>2012-05-26T17:16:28Z</time>
      </trkpt>
      <trkpt lat="45.44002" lon="5.13998">
        <ele>565.30004882812</ele>
        <time>2012-05-26T17:16:42Z</time>
      </trkpt>
      <trkpt lat="45.43995" lon="5.1397">
        <ele>559.09997558594</ele>
        <time>2012-05-26T17:16:52Z</time>
      </trkpt>
      <trkpt lat="45.43994" lon="5.13938">
        <ele>561.80004882812</ele>
        <time>2012-05-26T17:16:59Z</time>
      </trkpt>
      <trkpt lat="45.43993" lon="5.13895">
        <ele>563.40002441406</ele>
        <time>2012-05-26T17:17:17Z</time>
      </trkpt>
      <trkpt lat="45.43995" lon="5.13869">
        <ele>566</ele>
        <time>2012-05-26T17:17:32Z</time>
      </trkpt>
      <trkpt lat="45.43997" lon="5.13843">
        <ele>567.30004882812</ele>
        <time>2012-05-26T17:17:47Z</time>
      </trkpt>
      <trkpt lat="45.44" lon="5.13817">
        <ele>568.5</ele>
        <time>2012-05-26T17:18:06Z</time>
      </trkpt>
      <trkpt lat="45.44001" lon="5.13793">
        <ele>567.19995117188</ele>
        <time>2012-05-26T17:18:27Z</time>
      </trkpt>
      <trkpt lat="45.43987" lon="5.13772">
        <ele>566.5</ele>
        <time>2012-05-26T17:18:40Z</time>
      </trkpt>
      <trkpt lat="45.43983" lon="5.13745">
        <ele>568</ele>
        <time>2012-05-26T17:18:52Z</time>
      </trkpt>
      <trkpt lat="45.43981" lon="5.13717">
        <ele>570.19995117188</ele>
        <time>2012-05-26T17:19:07Z</time>
      </trkpt>
      <trkpt lat="45.43981" lon="5.13691">
        <ele>569.19995117188</ele>
        <time>2012-05-26T17:19:22Z</time>
      </trkpt>
      <trkpt lat="45.43976" lon="5.13665">
        <ele>569.09997558594</ele>
        <time>2012-05-26T17:19:32Z</time>
      </trkpt>
      <trkpt lat="45.43967" lon="5.1364">
        <ele>566.30004882812</ele>
        <time>2012-05-26T17:19:46Z</time>
      </trkpt>
      <trkpt lat="45.43965" lon="5.13626">
        <ele>566.5</ele>
        <time>2012-05-26T17:19:56Z</time>
      </trkpt>
      <trkpt lat="45.43959" lon="5.13614">
        <ele>568</ele>
        <time>2012-05-26T17:20:05Z</time>
      </trkpt>
      <trkpt lat="45.43957" lon="5.13601">
        <ele>570.5</ele>
        <time>2012-05-26T17:20:13Z</time>
      </trkpt>
      <trkpt lat="45.43962" lon="5.13589">
        <ele>570.09997558594</ele>
        <time>2012-05-26T17:20:26Z</time>
      </trkpt>
      <trkpt lat="45.43962" lon="5.13576">
        <ele>570.90002441406</ele>
        <time>2012-05-26T17:20:36Z</time>
      </trkpt>
      <trkpt lat="45.4396" lon="5.13562">
        <ele>569.69995117188</ele>
        <time>2012-05-26T17:20:41Z</time>
      </trkpt>
      <trkpt lat="45.43957" lon="5.13549">
        <ele>569.40002441406</ele>
        <time>2012-05-26T17:20:45Z</time>
      </trkpt>
      <trkpt lat="45.43952" lon="5.13535">
        <ele>567.90002441406</ele>
        <time>2012-05-26T17:20:50Z</time>
      </trkpt>
      <trkpt lat="45.4395" lon="5.13521">
        <ele>567</ele>
        <time>2012-05-26T17:20:56Z</time>
      </trkpt>
      <trkpt lat="45.43948" lon="5.13506">
        <ele>566.5</ele>
        <time>2012-05-26T17:21:02Z</time>
      </trkpt>
      <trkpt lat="45.43948" lon="5.13492">
        <ele>567.30004882812</ele>
        <time>2012-05-26T17:21:07Z</time>
      </trkpt>
      <trkpt lat="45.43949" lon="5.1348">
        <ele>567.69995117188</ele>
        <time>2012-05-26T17:21:12Z</time>
      </trkpt>
      <trkpt lat="45.4395" lon="5.13467">
        <ele>567.09997558594</ele>
        <time>2012-05-26T17:21:19Z</time>
      </trkpt>
      <trkpt lat="45.4395" lon="5.13452">
        <ele>567.90002441406</ele>
        <time>2012-05-26T17:21:32Z</time>
      </trkpt>
      <trkpt lat="45.43949" lon="5.13438">
        <ele>567.19995117188</ele>
        <time>2012-05-26T17:21:41Z</time>
      </trkpt>
      <trkpt lat="45.43948" lon="5.13425">
        <ele>565.90002441406</ele>
        <time>2012-05-26T17:21:47Z</time>
      </trkpt>
      <trkpt lat="45.43951" lon="5.1341">
        <ele>563.80004882812</ele>
        <time>2012-05-26T17:21:52Z</time>
      </trkpt>
      <trkpt lat="45.43949" lon="5.13396">
        <ele>563.59997558594</ele>
        <time>2012-05-26T17:21:56Z</time>
      </trkpt>
      <trkpt lat="45.43948" lon="5.13381">
        <ele>565.19995117188</ele>
        <time>2012-05-26T17:22:02Z</time>
      </trkpt>
      <trkpt lat="45.43951" lon="5.13354">
        <ele>566</ele>
        <time>2012-05-26T17:22:18Z</time>
      </trkpt>
      <trkpt lat="45.43957" lon="5.13326">
        <ele>564.90002441406</ele>
        <time>2012-05-26T17:22:30Z</time>
      </trkpt>
      <trkpt lat="45.43967" lon="5.13301">
        <ele>564.90002441406</ele>
        <time>2012-05-26T17:22:42Z</time>
      </trkpt>
      <trkpt lat="45.43972" lon="5.13288">
        <ele>565.80004882812</ele>
        <time>2012-05-26T17:22:48Z</time>
      </trkpt>
      <trkpt lat="45.43975" lon="5.13276">
        <ele>566.09997558594</ele>
        <time>2012-05-26T17:23:02Z</time>
      </trkpt>
      <trkpt lat="45.43981" lon="5.13251">
        <ele>564</ele>
        <time>2012-05-26T17:23:30Z</time>
      </trkpt>
      <trkpt lat="45.43988" lon="5.13222">
        <ele>560</ele>
        <time>2012-05-26T17:23:43Z</time>
      </trkpt>
      <trkpt lat="45.43992" lon="5.13211">
        <ele>560.40002441406</ele>
        <time>2012-05-26T17:23:48Z</time>
      </trkpt>
      <trkpt lat="45.43998" lon="5.13199">
        <ele>561.19995117188</ele>
        <time>2012-05-26T17:23:55Z</time>
      </trkpt>
      <trkpt lat="45.44011" lon="5.13178">
        <ele>564.30004882812</ele>
        <time>2012-05-26T17:24:08Z</time>
      </trkpt>
      <trkpt lat="45.44029" lon="5.13171">
        <ele>563.30004882812</ele>
        <time>2012-05-26T17:24:21Z</time>
      </trkpt>
      <trkpt lat="45.44048" lon="5.13166">
        <ele>563.19995117188</ele>
        <time>2012-05-26T17:24:37Z</time>
      </trkpt>
      <trkpt lat="45.44066" lon="5.13155">
        <ele>560.40002441406</ele>
        <time>2012-05-26T17:24:49Z</time>
      </trkpt>
      <trkpt lat="45.44075" lon="5.13133">
        <ele>559.90002441406</ele>
        <time>2012-05-26T17:25:01Z</time>
      </trkpt>
      <trkpt lat="45.4408" lon="5.13106">
        <ele>560.59997558594</ele>
        <time>2012-05-26T17:25:19Z</time>
      </trkpt>
      <trkpt lat="45.44081" lon="5.13065">
        <ele>560.90002441406</ele>
        <time>2012-05-26T17:25:57Z</time>
      </trkpt>
      <trkpt lat="45.4408" lon="5.13038">
        <ele>564</ele>
        <time>2012-05-26T17:26:21Z</time>
      </trkpt>
      <trkpt lat="45.44083" lon="5.13012">
        <ele>562.80004882812</ele>
        <time>2012-05-26T17:26:36Z</time>
      </trkpt>
      <trkpt lat="45.44083" lon="5.12984">
        <ele>562.40002441406</ele>
        <time>2012-05-26T17:26:49Z</time>
      </trkpt>
      <trkpt lat="45.4409" lon="5.12958">
        <ele>561.5</ele>
        <time>2012-05-26T17:27:00Z</time>
      </trkpt>
      <trkpt lat="45.44094" lon="5.1293">
        <ele>562.59997558594</ele>
        <time>2012-05-26T17:27:12Z</time>
      </trkpt>
      <trkpt lat="45.44101" lon="5.12904">
        <ele>562.80004882812</ele>
        <time>2012-05-26T17:27:29Z</time>
      </trkpt>
      <trkpt lat="45.44108" lon="5.12877">
        <ele>561.5</ele>
        <time>2012-05-26T17:27:46Z</time>
      </trkpt>
      <trkpt lat="45.44124" lon="5.12842">
        <ele>561.5</ele>
        <time>2012-05-26T17:28:05Z</time>
      </trkpt>
      <trkpt lat="45.44139" lon="5.12805">
        <ele>560.30004882812</ele>
        <time>2012-05-26T17:28:25Z</time>
      </trkpt>
      <trkpt lat="45.44148" lon="5.1277">
        <ele>557.09997558594</ele>
        <time>2012-05-26T17:29:06Z</time>
      </trkpt>
      <trkpt lat="45.44132" lon="5.12734">
        <ele>555.5</ele>
        <time>2012-05-26T17:29:42Z</time>
      </trkpt>
      <trkpt lat="45.44143" lon="5.12712">
        <ele>556.5</ele>
        <time>2012-05-26T17:29:53Z</time>
      </trkpt>
      <trkpt lat="45.44158" lon="5.12692">
        <ele>555</ele>
        <time>2012-05-26T17:30:04Z</time>
      </trkpt>
      <trkpt lat="45.44162" lon="5.12678">
        <ele>554.80004882812</ele>
        <time>2012-05-26T17:30:10Z</time>
      </trkpt>
      <trkpt lat="45.44163" lon="5.12665">
        <ele>556.40002441406</ele>
        <time>2012-05-26T17:30:16Z</time>
      </trkpt>
      <trkpt lat="45.44165" lon="5.12652">
        <ele>559.30004882812</ele>
        <time>2012-05-26T17:30:21Z</time>
      </trkpt>
      <trkpt lat="45.44167" lon="5.12639">
        <ele>562.09997558594</ele>
        <time>2012-05-26T17:30:27Z</time>
      </trkpt>
      <trkpt lat="45.44173" lon="5.12628">
        <ele>561</ele>
        <time>2012-05-26T17:30:36Z</time>
      </trkpt>
      <trkpt lat="45.44186" lon="5.12607">
        <ele>560.09997558594</ele>
        <time>2012-05-26T17:30:54Z</time>
      </trkpt>
      <trkpt lat="45.44195" lon="5.126">
        <ele>557.59997558594</ele>
        <time>2012-05-26T17:31:01Z</time>
      </trkpt>
      <trkpt lat="45.44204" lon="5.12595">
        <ele>555.80004882812</ele>
        <time>2012-05-26T17:31:08Z</time>
      </trkpt>
      <trkpt lat="45.44213" lon="5.12588">
        <ele>554.90002441406</ele>
        <time>2012-05-26T17:31:20Z</time>
      </trkpt>
      <trkpt lat="45.44222" lon="5.12563">
        <ele>556.30004882812</ele>
        <time>2012-05-26T17:31:40Z</time>
      </trkpt>
      <trkpt lat="45.44229" lon="5.12537">
        <ele>555.30004882812</ele>
        <time>2012-05-26T17:31:53Z</time>
      </trkpt>
      <trkpt lat="45.44216" lon="5.12514">
        <ele>558.19995117188</ele>
        <time>2012-05-26T17:32:24Z</time>
      </trkpt>
      <trkpt lat="45.44193" lon="5.1249">
        <ele>560.09997558594</ele>
        <time>2012-05-26T17:33:00Z</time>
      </trkpt>
      <trkpt lat="45.44193" lon="5.12438">
        <ele>556.5</ele>
        <time>2012-05-26T17:33:41Z</time>
      </trkpt>
      <trkpt lat="45.44197" lon="5.12399">
        <ele>558.90002441406</ele>
        <time>2012-05-26T17:34:08Z</time>
      </trkpt>
      <trkpt lat="45.44213" lon="5.12349">
        <ele>557.40002441406</ele>
        <time>2012-05-26T17:34:40Z</time>
      </trkpt>
      <trkpt lat="45.44223" lon="5.12296">
        <ele>558.30004882812</ele>
        <time>2012-05-26T17:35:12Z</time>
      </trkpt>
      <trkpt lat="45.4424" lon="5.12248">
        <ele>560.09997558594</ele>
        <time>2012-05-26T17:35:35Z</time>
      </trkpt>
      <trkpt lat="45.44242" lon="5.12206">
        <ele>560.80004882812</ele>
        <time>2012-05-26T17:36:13Z</time>
      </trkpt>
      <trkpt lat="45.4425" lon="5.12182">
        <ele>558.19995117188</ele>
        <time>2012-05-26T17:36:29Z</time>
      </trkpt>
      <trkpt lat="45.44259" lon="5.12141">
        <ele>561.09997558594</ele>
        <time>2012-05-26T17:36:53Z</time>
      </trkpt>
      <trkpt lat="45.44281" lon="5.1203">
        <ele>557.09997558594</ele>
        <time>2012-05-26T17:37:54Z</time>
      </trkpt>
      <trkpt lat="45.4429" lon="5.11989">
        <ele>557.69995117188</ele>
        <time>2012-05-26T17:38:34Z</time>
      </trkpt>
      <trkpt lat="45.44307" lon="5.11925">
        <ele>556.5</ele>
        <time>2012-05-26T17:39:23Z</time>
      </trkpt>
      <trkpt lat="45.44323" lon="5.11861">
        <ele>554.5</ele>
        <time>2012-05-26T17:39:57Z</time>
      </trkpt>
      <trkpt lat="45.44328" lon="5.11821">
        <ele>553.19995117188</ele>
        <time>2012-05-26T17:40:20Z</time>
      </trkpt>
      <trkpt lat="45.44342" lon="5.11753">
        <ele>553.80004882812</ele>
        <time>2012-05-26T17:40:59Z</time>
      </trkpt>
      <trkpt lat="45.44347" lon="5.11712">
        <ele>551.69995117188</ele>
        <time>2012-05-26T17:41:24Z</time>
      </trkpt>
      <trkpt lat="45.44353" lon="5.11674">
        <ele>550.40002441406</ele>
        <time>2012-05-26T17:41:59Z</time>
      </trkpt>
      <trkpt lat="45.44426" lon="5.11496">
        <ele>553.5</ele>
        <time>2012-05-26T17:44:03Z</time>
      </trkpt>
      <trkpt lat="45.44449" lon="5.11476">
        <ele>550.40002441406</ele>
        <time>2012-05-26T17:44:36Z</time>
      </trkpt>
      <trkpt lat="45.44474" lon="5.11461">
        <ele>551.19995117188</ele>
        <time>2012-05-26T17:45:37Z</time>
      </trkpt>
      <trkpt lat="45.44588" lon="5.11393">
        <ele>551.5</ele>
        <time>2012-05-26T17:47:15Z</time>
      </trkpt>
      <trkpt lat="45.44619" lon="5.11369">
        <ele>551.30004882812</ele>
        <time>2012-05-26T17:47:50Z</time>
      </trkpt>
      <trkpt lat="45.44635" lon="5.11334">
        <ele>559.59997558594</ele>
        <time>2012-05-26T17:49:05Z</time>
      </trkpt>
      <trkpt lat="45.44654" lon="5.11307">
        <ele>557.59997558594</ele>
        <time>2012-05-26T17:49:34Z</time>
      </trkpt>
      <trkpt lat="45.44613" lon="5.11189">
        <ele>549.90002441406</ele>
        <time>2012-05-26T17:50:56Z</time>
      </trkpt>
      <trkpt lat="45.44598" lon="5.11153">
        <ele>550.19995117188</ele>
        <time>2012-05-26T17:51:16Z</time>
      </trkpt>
      <trkpt lat="45.44556" lon="5.11008">
        <ele>551</ele>
        <time>2012-05-26T17:52:51Z</time>
      </trkpt>
      <trkpt lat="45.44565" lon="5.10889">
        <ele>552.59997558594</ele>
        <time>2012-05-26T17:54:27Z</time>
      </trkpt>
      <trkpt lat="45.44579" lon="5.10827">
        <ele>552.30004882812</ele>
        <time>2012-05-26T17:55:23Z</time>
      </trkpt>
      <trkpt lat="45.44605" lon="5.10783">
        <ele>550</ele>
        <time>2012-05-26T17:56:07Z</time>
      </trkpt>
      <trkpt lat="45.44634" lon="5.10729">
        <ele>550.30004882812</ele>
        <time>2012-05-26T17:56:46Z</time>
      </trkpt>
      <trkpt lat="45.44674" lon="5.10695">
        <ele>550.19995117188</ele>
        <time>2012-05-26T17:57:29Z</time>
      </trkpt>
      <trkpt lat="45.44707" lon="5.10647">
        <ele>550.30004882812</ele>
        <time>2012-05-26T17:58:06Z</time>
      </trkpt>
      <trkpt lat="45.44745" lon="5.10588">
        <ele>554</ele>
        <time>2012-05-26T17:59:09Z</time>
      </trkpt>
      <trkpt lat="45.44765" lon="5.10568">
        <ele>555.40002441406</ele>
        <time>2012-05-26T18:00:16Z</time>
      </trkpt>
      <trkpt lat="45.44792" lon="5.10556">
        <ele>554</ele>
        <time>2012-05-26T18:00:40Z</time>
      </trkpt>
      <trkpt lat="45.44808" lon="5.10465">
        <ele>550.90002441406</ele>
        <time>2012-05-26T18:02:43Z</time>
      </trkpt>
      <trkpt lat="45.44803" lon="5.10427">
        <ele>548</ele>
        <time>2012-05-26T18:03:36Z</time>
      </trkpt>
      <trkpt lat="45.44813" lon="5.1045">
        <ele>542.59997558594</ele>
        <time>2012-05-26T18:04:16Z</time>
      </trkpt>
      <trkpt lat="45.44822" lon="5.10451">
        <ele>541.19995117188</ele>
        <time>2012-05-26T18:10:14Z</time>
      </trkpt>
      <trkpt lat="45.44793" lon="5.10447">
        <ele>549.40002441406</ele>
        <time>2012-05-26T18:10:40Z</time>
      </trkpt>
      <trkpt lat="45.44775" lon="5.10439">
        <ele>550.90002441406</ele>
        <time>2012-05-26T18:11:01Z</time>
      </trkpt>
      <trkpt lat="45.44771" lon="5.10408">
        <ele>552</ele>
        <time>2012-05-26T18:11:47Z</time>
      </trkpt>
      <trkpt lat="45.44789" lon="5.10406">
        <ele>550.09997558594</ele>
        <time>2012-05-26T18:12:16Z</time>
      </trkpt>
      <trkpt lat="45.44808" lon="5.10412">
        <ele>549.5</ele>
        <time>2012-05-26T18:12:37Z</time>
      </trkpt>
      <trkpt lat="45.44827" lon="5.10406">
        <ele>547.5</ele>
        <time>2012-05-26T18:13:28Z</time>
      </trkpt>
      <trkpt lat="45.44845" lon="5.10414">
        <ele>545.40002441406</ele>
        <time>2012-05-26T18:13:54Z</time>
      </trkpt>
      <trkpt lat="45.44868" lon="5.10392">
        <ele>545.30004882812</ele>
        <time>2012-05-26T18:16:58Z</time>
      </trkpt>
      <trkpt lat="45.44892" lon="5.10369">
        <ele>546.09997558594</ele>
        <time>2012-05-26T18:17:35Z</time>
      </trkpt>
      <trkpt lat="45.449" lon="5.10339">
        <ele>551.09997558594</ele>
        <time>2012-05-26T18:17:58Z</time>
      </trkpt>
      <trkpt lat="45.44906" lon="5.10313">
        <ele>552.5</ele>
        <time>2012-05-26T18:18:20Z</time>
      </trkpt>
      <trkpt lat="45.44918" lon="5.10293">
        <ele>546.19995117188</ele>
        <time>2012-05-26T18:18:49Z</time>
      </trkpt>
      <trkpt lat="45.44926" lon="5.10269">
        <ele>544.59997558594</ele>
        <time>2012-05-26T18:19:05Z</time>
      </trkpt>
      <trkpt lat="45.44934" lon="5.10246">
        <ele>542.80004882812</ele>
        <time>2012-05-26T18:19:23Z</time>
      </trkpt>
      <trkpt lat="45.44944" lon="5.10223">
        <ele>539.80004882812</ele>
        <time>2012-05-26T18:19:38Z</time>
      </trkpt>
      <trkpt lat="45.44953" lon="5.102">
        <ele>539.19995117188</ele>
        <time>2012-05-26T18:19:50Z</time>
      </trkpt>
      <trkpt lat="45.44966" lon="5.10179">
        <ele>543.59997558594</ele>
        <time>2012-05-26T18:20:05Z</time>
      </trkpt>
      <trkpt lat="45.44978" lon="5.10157">
        <ele>542.19995117188</ele>
        <time>2012-05-26T18:20:16Z</time>
      </trkpt>
      <trkpt lat="45.44988" lon="5.10134">
        <ele>540.30004882812</ele>
        <time>2012-05-26T18:20:30Z</time>
      </trkpt>
      <trkpt lat="45.45008" lon="5.10136">
        <ele>540.80004882812</ele>
        <time>2012-05-26T18:20:43Z</time>
      </trkpt>
      <trkpt lat="45.45027" lon="5.10139">
        <ele>541.19995117188</ele>
        <time>2012-05-26T18:20:57Z</time>
      </trkpt>
      <trkpt lat="45.45045" lon="5.10143">
        <ele>541.5</ele>
        <time>2012-05-26T18:21:10Z</time>
      </trkpt>
      <trkpt lat="45.45076" lon="5.10154">
        <ele>542.59997558594</ele>
        <time>2012-05-26T18:21:27Z</time>
      </trkpt>
      <trkpt lat="45.45104" lon="5.10159">
        <ele>543.09997558594</ele>
        <time>2012-05-26T18:21:52Z</time>
      </trkpt>
      <trkpt lat="45.45133" lon="5.1016">
        <ele>543.19995117188</ele>
        <time>2012-05-26T18:22:10Z</time>
      </trkpt>
      <trkpt lat="45.45163" lon="5.10162">
        <ele>540.30004882812</ele>
        <time>2012-05-26T18:22:27Z</time>
      </trkpt>
      <trkpt lat="45.45192" lon="5.10161">
        <ele>539.80004882812</ele>
        <time>2012-05-26T18:22:47Z</time>
      </trkpt>
      <trkpt lat="45.45261" lon="5.10151">
        <ele>540.40002441406</ele>
        <time>2012-05-26T18:23:35Z</time>
      </trkpt>
      <trkpt lat="45.4529" lon="5.10146">
        <ele>543.5</ele>
        <time>2012-05-26T18:23:51Z</time>
      </trkpt>
      <trkpt lat="45.45423" lon="5.10096">
        <ele>534.09997558594</ele>
        <time>2012-05-26T18:25:31Z</time>
      </trkpt>
      <trkpt lat="45.45455" lon="5.10086">
        <ele>530.59997558594</ele>
        <time>2012-05-26T18:25:52Z</time>
      </trkpt>
      <trkpt lat="45.45478" lon="5.10064">
        <ele>527.80004882812</ele>
        <time>2012-05-26T18:26:09Z</time>
      </trkpt>
      <trkpt lat="45.45496" lon="5.10058">
        <ele>532.5</ele>
        <time>2012-05-26T18:26:24Z</time>
      </trkpt>
      <trkpt lat="45.45522" lon="5.10041">
        <ele>535.59997558594</ele>
        <time>2012-05-26T18:26:47Z</time>
      </trkpt>
      <trkpt lat="45.45547" lon="5.10021">
        <ele>537.19995117188</ele>
        <time>2012-05-26T18:27:13Z</time>
      </trkpt>
      <trkpt lat="45.45574" lon="5.10003">
        <ele>536.30004882812</ele>
        <time>2012-05-26T18:27:31Z</time>
      </trkpt>
      <trkpt lat="45.4559" lon="5.09988">
        <ele>537.19995117188</ele>
        <time>2012-05-26T18:27:44Z</time>
      </trkpt>
      <trkpt lat="45.45605" lon="5.0997">
        <ele>529.90002441406</ele>
        <time>2012-05-26T18:27:55Z</time>
      </trkpt>
      <trkpt lat="45.45624" lon="5.09962">
        <ele>529.30004882812</ele>
        <time>2012-05-26T18:28:09Z</time>
      </trkpt>
      <trkpt lat="45.45643" lon="5.09959">
        <ele>527.40002441406</ele>
        <time>2012-05-26T18:28:23Z</time>
      </trkpt>
      <trkpt lat="45.45662" lon="5.09964">
        <ele>527.30004882812</ele>
        <time>2012-05-26T18:28:37Z</time>
      </trkpt>
      <trkpt lat="45.45681" lon="5.09967">
        <ele>527.59997558594</ele>
        <time>2012-05-26T18:28:48Z</time>
      </trkpt>
      <trkpt lat="45.457" lon="5.09974">
        <ele>527.19995117188</ele>
        <time>2012-05-26T18:28:59Z</time>
      </trkpt>
      <trkpt lat="45.45718" lon="5.09982">
        <ele>528.59997558594</ele>
        <time>2012-05-26T18:29:11Z</time>
      </trkpt>
      <trkpt lat="45.45737" lon="5.09988">
        <ele>529.59997558594</ele>
        <time>2012-05-26T18:29:29Z</time>
      </trkpt>
      <trkpt lat="45.45754" lon="5.09998">
        <ele>527.69995117188</ele>
        <time>2012-05-26T18:29:43Z</time>
      </trkpt>
      <trkpt lat="45.45773" lon="5.10009">
        <ele>527.69995117188</ele>
        <time>2012-05-26T18:29:58Z</time>
      </trkpt>
      <trkpt lat="45.4579" lon="5.10021">
        <ele>527.80004882812</ele>
        <time>2012-05-26T18:30:12Z</time>
      </trkpt>
      <trkpt lat="45.45818" lon="5.10034">
        <ele>526.19995117188</ele>
        <time>2012-05-26T18:30:35Z</time>
      </trkpt>
      <trkpt lat="45.45836" lon="5.1004">
        <ele>525.40002441406</ele>
        <time>2012-05-26T18:30:46Z</time>
      </trkpt>
      <trkpt lat="45.45855" lon="5.10041">
        <ele>524.19995117188</ele>
        <time>2012-05-26T18:30:57Z</time>
      </trkpt>
      <trkpt lat="45.45875" lon="5.10045">
        <ele>523.70001220703</ele>
        <time>2012-05-26T18:31:11Z</time>
      </trkpt>
      <trkpt lat="45.45894" lon="5.10053">
        <ele>522.40002441406</ele>
        <time>2012-05-26T18:31:30Z</time>
      </trkpt>
      <trkpt lat="45.45914" lon="5.1006">
        <ele>520.40002441406</ele>
        <time>2012-05-26T18:31:39Z</time>
      </trkpt>
      <trkpt lat="45.45932" lon="5.10067">
        <ele>518.20001220703</ele>
        <time>2012-05-26T18:31:48Z</time>
      </trkpt>
      <trkpt lat="45.45941" lon="5.10072">
        <ele>515.90002441406</ele>
        <time>2012-05-26T18:31:54Z</time>
      </trkpt>
      <trkpt lat="45.4595" lon="5.10078">
        <ele>513.70001220703</ele>
        <time>2012-05-26T18:32:03Z</time>
      </trkpt>
      <trkpt lat="45.45957" lon="5.10085">
        <ele>512.40002441406</ele>
        <time>2012-05-26T18:32:10Z</time>
      </trkpt>
      <trkpt lat="45.45965" lon="5.10094">
        <ele>511</ele>
        <time>2012-05-26T18:32:17Z</time>
      </trkpt>
      <trkpt lat="45.45972" lon="5.10103">
        <ele>509.5</ele>
        <time>2012-05-26T18:32:24Z</time>
      </trkpt>
      <trkpt lat="45.4598" lon="5.10112">
        <ele>508</ele>
        <time>2012-05-26T18:32:31Z</time>
      </trkpt>
      <trkpt lat="45.45988" lon="5.1012">
        <ele>506.79998779297</ele>
        <time>2012-05-26T18:32:38Z</time>
      </trkpt>
      <trkpt lat="45.45996" lon="5.10127">
        <ele>506.29998779297</ele>
        <time>2012-05-26T18:32:44Z</time>
      </trkpt>
      <trkpt lat="45.46004" lon="5.10134">
        <ele>505</ele>
        <time>2012-05-26T18:32:50Z</time>
      </trkpt>
      <trkpt lat="45.46013" lon="5.10142">
        <ele>503.70001220703</ele>
        <time>2012-05-26T18:32:57Z</time>
      </trkpt>
      <trkpt lat="45.46023" lon="5.10144">
        <ele>502.90002441406</ele>
        <time>2012-05-26T18:33:04Z</time>
      </trkpt>
      <trkpt lat="45.46032" lon="5.10141">
        <ele>502.29998779297</ele>
        <time>2012-05-26T18:33:11Z</time>
      </trkpt>
      <trkpt lat="45.46052" lon="5.10134">
        <ele>501.40002441406</ele>
        <time>2012-05-26T18:33:23Z</time>
      </trkpt>
      <trkpt lat="45.4607" lon="5.10125">
        <ele>498.70001220703</ele>
        <time>2012-05-26T18:33:36Z</time>
      </trkpt>
      <trkpt lat="45.46089" lon="5.1012">
        <ele>495.90002441406</ele>
        <time>2012-05-26T18:33:49Z</time>
      </trkpt>
      <trkpt lat="45.46108" lon="5.10117">
        <ele>494.29998779297</ele>
        <time>2012-05-26T18:34:04Z</time>
      </trkpt>
      <trkpt lat="45.46135" lon="5.10104">
        <ele>490.29998779297</ele>
        <time>2012-05-26T18:34:28Z</time>
      </trkpt>
      <trkpt lat="45.46163" lon="5.10093">
        <ele>484.70001220703</ele>
        <time>2012-05-26T18:34:46Z</time>
      </trkpt>
      <trkpt lat="45.46181" lon="5.10088">
        <ele>480.79998779297</ele>
        <time>2012-05-26T18:35:01Z</time>
      </trkpt>
      <trkpt lat="45.462" lon="5.10079">
        <ele>477.5</ele>
        <time>2012-05-26T18:35:16Z</time>
      </trkpt>
      <trkpt lat="45.46209" lon="5.10074">
        <ele>476.70001220703</ele>
        <time>2012-05-26T18:35:22Z</time>
      </trkpt>
      <trkpt lat="45.46227" lon="5.10067">
        <ele>476.59997558594</ele>
        <time>2012-05-26T18:35:34Z</time>
      </trkpt>
      <trkpt lat="45.46236" lon="5.10064">
        <ele>475.90002441406</ele>
        <time>2012-05-26T18:35:41Z</time>
      </trkpt>
      <trkpt lat="45.46254" lon="5.10058">
        <ele>474.5</ele>
        <time>2012-05-26T18:35:54Z</time>
      </trkpt>
      <trkpt lat="45.46273" lon="5.10052">
        <ele>473.70001220703</ele>
        <time>2012-05-26T18:36:07Z</time>
      </trkpt>
      <trkpt lat="45.46292" lon="5.10043">
        <ele>473.29998779297</ele>
        <time>2012-05-26T18:36:16Z</time>
      </trkpt>
      <trkpt lat="45.46311" lon="5.1003">
        <ele>472.70001220703</ele>
        <time>2012-05-26T18:36:22Z</time>
      </trkpt>
      <trkpt lat="45.46331" lon="5.10014">
        <ele>472.79998779297</ele>
        <time>2012-05-26T18:36:28Z</time>
      </trkpt>
      <trkpt lat="45.46348" lon="5.09994">
        <ele>472.40002441406</ele>
        <time>2012-05-26T18:36:36Z</time>
      </trkpt>
      <trkpt lat="45.46355" lon="5.09985">
        <ele>472</ele>
        <time>2012-05-26T18:36:41Z</time>
      </trkpt>
      <trkpt lat="45.46372" lon="5.09973">
        <ele>471.20001220703</ele>
        <time>2012-05-26T18:37:20Z</time>
      </trkpt>
      <trkpt lat="45.46381" lon="5.09968">
        <ele>470.79998779297</ele>
        <time>2012-05-26T18:37:40Z</time>
      </trkpt>
      <trkpt lat="45.46398" lon="5.09957">
        <ele>469.79998779297</ele>
        <time>2012-05-26T18:37:54Z</time>
      </trkpt>
      <trkpt lat="45.46417" lon="5.09947">
        <ele>469</ele>
        <time>2012-05-26T18:38:09Z</time>
      </trkpt>
      <trkpt lat="45.46434" lon="5.09937">
        <ele>468.90002441406</ele>
        <time>2012-05-26T18:38:23Z</time>
      </trkpt>
      <trkpt lat="45.46453" lon="5.09925">
        <ele>468.40002441406</ele>
        <time>2012-05-26T18:38:38Z</time>
      </trkpt>
      <trkpt lat="45.46471" lon="5.09913">
        <ele>466.90002441406</ele>
        <time>2012-05-26T18:38:53Z</time>
      </trkpt>
      <trkpt lat="45.46497" lon="5.09894">
        <ele>465</ele>
        <time>2012-05-26T18:39:16Z</time>
      </trkpt>
      <trkpt lat="45.46513" lon="5.09879">
        <ele>461.09997558594</ele>
        <time>2012-05-26T18:39:32Z</time>
      </trkpt>
      <trkpt lat="45.46525" lon="5.09861">
        <ele>461</ele>
        <time>2012-05-26T18:39:46Z</time>
      </trkpt>
      <trkpt lat="45.46538" lon="5.09838">
        <ele>457.70001220703</ele>
        <time>2012-05-26T18:39:58Z</time>
      </trkpt>
      <trkpt lat="45.46544" lon="5.09828">
        <ele>456.5</ele>
        <time>2012-05-26T18:40:04Z</time>
      </trkpt>
      <trkpt lat="45.4655" lon="5.09816">
        <ele>456.29998779297</ele>
        <time>2012-05-26T18:40:11Z</time>
      </trkpt>
      <trkpt lat="45.46555" lon="5.09803">
        <ele>453.79998779297</ele>
        <time>2012-05-26T18:40:33Z</time>
      </trkpt>
      <trkpt lat="45.46562" lon="5.09778">
        <ele>452.09997558594</ele>
        <time>2012-05-26T18:40:47Z</time>
      </trkpt>
      <trkpt lat="45.46568" lon="5.09752">
        <ele>450.59997558594</ele>
        <time>2012-05-26T18:41:01Z</time>
      </trkpt>
      <trkpt lat="45.46574" lon="5.09724">
        <ele>449</ele>
        <time>2012-05-26T18:41:15Z</time>
      </trkpt>
      <trkpt lat="45.46581" lon="5.09699">
        <ele>448.29998779297</ele>
        <time>2012-05-26T18:41:34Z</time>
      </trkpt>
      <trkpt lat="45.46592" lon="5.09678">
        <ele>447.90002441406</ele>
        <time>2012-05-26T18:41:53Z</time>
      </trkpt>
      <trkpt lat="45.46613" lon="5.09654">
        <ele>446.40002441406</ele>
        <time>2012-05-26T18:42:21Z</time>
      </trkpt>
      <trkpt lat="45.46639" lon="5.0964">
        <ele>443.20001220703</ele>
        <time>2012-05-26T18:42:47Z</time>
      </trkpt>
      <trkpt lat="45.46667" lon="5.09644">
        <ele>438</ele>
        <time>2012-05-26T18:43:03Z</time>
      </trkpt>
      <trkpt lat="45.46687" lon="5.0965">
        <ele>434.09997558594</ele>
        <time>2012-05-26T18:43:12Z</time>
      </trkpt>
      <trkpt lat="45.46713" lon="5.09663">
        <ele>428.79998779297</ele>
        <time>2012-05-26T18:43:39Z</time>
      </trkpt>
      <trkpt lat="45.4673" lon="5.09676">
        <ele>426.29998779297</ele>
        <time>2012-05-26T18:43:50Z</time>
      </trkpt>
      <trkpt lat="45.46744" lon="5.09695">
        <ele>424.5</ele>
        <time>2012-05-26T18:44:03Z</time>
      </trkpt>
      <trkpt lat="45.46756" lon="5.09716">
        <ele>420.09997558594</ele>
        <time>2012-05-26T18:44:28Z</time>
      </trkpt>
      <trkpt lat="45.46763" lon="5.09725">
        <ele>416.20001220703</ele>
        <time>2012-05-26T18:44:50Z</time>
      </trkpt>
      <trkpt lat="45.46766" lon="5.09737">
        <ele>414.09997558594</ele>
        <time>2012-05-26T18:44:58Z</time>
      </trkpt>
      <trkpt lat="45.46771" lon="5.0975">
        <ele>413.20001220703</ele>
        <time>2012-05-26T18:45:06Z</time>
      </trkpt>
      <trkpt lat="45.46775" lon="5.09763">
        <ele>413.5</ele>
        <time>2012-05-26T18:45:14Z</time>
      </trkpt>
      <trkpt lat="45.46781" lon="5.09773">
        <ele>412.40002441406</ele>
        <time>2012-05-26T18:45:21Z</time>
      </trkpt>
      <trkpt lat="45.4679" lon="5.0978">
        <ele>412.29998779297</ele>
        <time>2012-05-26T18:45:28Z</time>
      </trkpt>
      <trkpt lat="45.46807" lon="5.09793">
        <ele>411.09997558594</ele>
        <time>2012-05-26T18:46:05Z</time>
      </trkpt>
      <trkpt lat="45.46815" lon="5.098">
        <ele>410.20001220703</ele>
        <time>2012-05-26T18:46:24Z</time>
      </trkpt>
      <trkpt lat="45.46823" lon="5.09809">
        <ele>411.09997558594</ele>
        <time>2012-05-26T18:46:35Z</time>
      </trkpt>
      <trkpt lat="45.46836" lon="5.09827">
        <ele>409</ele>
        <time>2012-05-26T18:47:22Z</time>
      </trkpt>
      <trkpt lat="45.46843" lon="5.09837">
        <ele>408.79998779297</ele>
        <time>2012-05-26T18:48:28Z</time>
      </trkpt>
      <trkpt lat="45.46841" lon="5.09851">
        <ele>410.70001220703</ele>
        <time>2012-05-26T18:49:02Z</time>
      </trkpt>
      <trkpt lat="45.46827" lon="5.09868">
        <ele>410.20001220703</ele>
        <time>2012-05-26T18:49:41Z</time>
      </trkpt>
      <trkpt lat="45.46818" lon="5.09873">
        <ele>409.90002441406</ele>
        <time>2012-05-26T18:49:49Z</time>
      </trkpt>
      <trkpt lat="45.4681" lon="5.0988">
        <ele>410.40002441406</ele>
        <time>2012-05-26T18:49:55Z</time>
      </trkpt>
      <trkpt lat="45.46802" lon="5.09887">
        <ele>410.59997558594</ele>
        <time>2012-05-26T18:50:02Z</time>
      </trkpt>
      <trkpt lat="45.46793" lon="5.09892">
        <ele>411.70001220703</ele>
        <time>2012-05-26T18:50:09Z</time>
      </trkpt>
      <trkpt lat="45.46785" lon="5.099">
        <ele>416.59997558594</ele>
        <time>2012-05-26T18:53:55Z</time>
      </trkpt>
      <trkpt lat="45.46788" lon="5.09914">
        <ele>413.5</ele>
        <time>2012-05-26T18:56:15Z</time>
      </trkpt>
      <trkpt lat="45.4679" lon="5.09927">
        <ele>413.40002441406</ele>
        <time>2012-05-26T18:56:22Z</time>
      </trkpt>
      <trkpt lat="45.46792" lon="5.09941">
        <ele>413.5</ele>
        <time>2012-05-26T18:56:29Z</time>
      </trkpt>
      <trkpt lat="45.46794" lon="5.09954">
        <ele>413.90002441406</ele>
        <time>2012-05-26T18:56:36Z</time>
      </trkpt>
      <trkpt lat="45.46803" lon="5.09958">
        <ele>413.59997558594</ele>
        <time>2012-05-26T18:56:44Z</time>
      </trkpt>
      <trkpt lat="45.46812" lon="5.09965">
        <ele>413.20001220703</ele>
        <time>2012-05-26T18:56:52Z</time>
      </trkpt>
    </trkseg>
  </trk>
</gpx>